PWSweather.com
Personal Weather Stations
Station Observations
HVALPSUND
Hvalpsund, FarsoeDK 9640

HvalpsundFarsoeDK 9640

Lat: 56.705311, Lon: 9.203638

Elevation: 5

Station Type: Vantage Pro2

http://hvalpsundvejr.dk

High Low Average
Temperature 70.5°F21.4°C 50.0°F10.0°C 61.2°F16.2°C
Dew Point 58.5°F14.7°C 46.2°F7.9°C 52.1°F11.2°C
Winds 15.0 mph 24.1 kmh Calm Calm 5.0 mph SW8.0 kmh SW
Wind Gusts 17.0 mph27.4 kmh -- 6.0 mph9.7 kmh
Humidity 92% 54% 73%
Pressure 30.32 in1026.8 mb 30.24 in1024.0 mb -
Precipitation 0.00 in0.0 mm - -
Hour Temp Dew Point Humidity Winds Wind Gusts Pressure Precip Precip Rate Daily Precip Total
12:00 AM 54.1°F12.3°C 46.4°F8.0°C 75% Calm Calm -- 30.24 in1024.0 mb 0.00 in0.0 mm 0.00 in0.0 mm 0.00 in0.0 mm
12:01 AM 54.1°F12.3°C 46.4°F8.0°C 75% Calm Calm 1.0 mph1.6 kmh 30.24 in1024.0 mb 0.00 in0.0 mm 0.00 in0.0 mm 0.00 in0.0 mm
12:02 AM 54.1°F12.3°C 46.7°F8.2°C 76% 1.4 mph NE2.3 kmh NE 2.0 mph3.2 kmh 30.24 in1024.0 mb 0.00 in0.0 mm 0.00 in0.0 mm 0.00 in0.0 mm
12:03 AM 54.1°F12.3°C 46.7°F8.2°C 76% 1.4 mph NE2.3 kmh NE 2.0 mph3.2 kmh 30.24 in1024.0 mb 0.00 in0.0 mm 0.00 in0.0 mm 0.00 in0.0 mm
12:04 AM 54.1°F12.3°C 46.4°F8.0°C 75% 1.5 mph NE2.4 kmh NE 3.0 mph4.8 kmh 30.24 in1024.0 mb 0.00 in0.0 mm 0.00 in0.0 mm 0.00 in0.0 mm
12:05 AM 54.1°F12.3°C 46.4°F8.0°C 75% 2.2 mph NE3.5 kmh NE 3.0 mph4.8 kmh 30.24 in1024.0 mb 0.00 in0.0 mm 0.00 in0.0 mm 0.00 in0.0 mm
12:06 AM 53.9°F12.2°C 46.2°F7.9°C 75% 1.7 mph NE2.7 kmh NE 3.0 mph4.8 kmh 30.24 in1024.0 mb 0.00 in0.0 mm 0.00 in0.0 mm 0.00 in0.0 mm
12:07 AM 53.8°F12.1°C 46.4°F8.0°C 76% 2.0 mph NE3.2 kmh NE 2.0 mph3.2 kmh 30.24 in1024.0 mb 0.00 in0.0 mm 0.00 in0.0 mm 0.00 in0.0 mm
12:08 AM 53.8°F12.1°C 46.4°F8.0°C 76% 2.0 mph NE3.2 kmh NE 2.0 mph3.2 kmh 30.24 in1024.0 mb 0.00 in0.0 mm 0.00 in0.0 mm 0.00 in0.0 mm
12:09 AM 53.8°F12.1°C 46.8°F8.2°C 77% 1.6 mph NE2.6 kmh NE 2.0 mph3.2 kmh 30.24 in1024.0 mb 0.00 in0.0 mm 0.00 in0.0 mm 0.00 in0.0 mm
12:10 AM 53.8°F12.1°C 46.8°F8.2°C 77% 1.5 mph NE2.4 kmh NE 2.0 mph3.2 kmh 30.24 in1024.0 mb 0.00 in0.0 mm 0.00 in0.0 mm 0.00 in0.0 mm
12:11 AM 53.8°F12.1°C 47.1°F8.4°C 78% 2.0 mph NE3.2 kmh NE 2.0 mph3.2 kmh 30.24 in1024.0 mb 0.00 in0.0 mm 0.00 in0.0 mm 0.00 in0.0 mm
12:12 AM 53.9°F12.2°C 47.2°F8.4°C 78% 1.7 mph NE2.7 kmh NE 2.0 mph3.2 kmh 30.24 in1024.0 mb 0.00 in0.0 mm 0.00 in0.0 mm 0.00 in0.0 mm
12:13 AM 53.9°F12.2°C 47.5°F8.6°C 79% 1.8 mph NE2.9 kmh NE 2.0 mph3.2 kmh 30.24 in1024.0 mb 0.00 in0.0 mm 0.00 in0.0 mm 0.00 in0.0 mm
12:14 AM 53.9°F12.2°C 47.5°F8.6°C 79% 2.0 mph NE3.2 kmh NE 3.0 mph4.8 kmh 30.24 in1024.0 mb 0.00 in0.0 mm 0.00 in0.0 mm 0.00 in0.0 mm
12:15 AM 53.9°F12.2°C 47.5°F8.6°C 79% 2.0 mph NE3.2 kmh NE 3.0 mph4.8 kmh 30.24 in1024.0 mb 0.00 in0.0 mm 0.00 in0.0 mm 0.00 in0.0 mm
12:16 AM 53.9°F12.2°C 47.5°F8.6°C 79% 0.8 mph NE1.3 kmh NE 2.0 mph3.2 kmh 30.24 in1024.0 mb 0.00 in0.0 mm 0.00 in0.0 mm 0.00 in0.0 mm
12:17 AM 53.9°F12.2°C 47.5°F8.6°C 79% 1.6 mph NE2.6 kmh NE 2.0 mph3.2 kmh 30.24 in1024.0 mb 0.00 in0.0 mm 0.00 in0.0 mm 0.00 in0.0 mm
12:18 AM 54.0°F12.2°C 48.0°F8.9°C 80% 1.0 mph NE1.6 kmh NE 2.0 mph3.2 kmh 30.24 in1024.0 mb 0.00 in0.0 mm 0.00 in0.0 mm 0.00 in0.0 mm
12:19 AM 54.0°F12.2°C 48.0°F8.9°C 80% Calm Calm 1.0 mph1.6 kmh 30.24 in1024.0 mb 0.00 in0.0 mm 0.00 in0.0 mm 0.00 in0.0 mm
12:20 AM 54.0°F12.2°C 48.0°F8.9°C 80% Calm Calm -- 30.24 in1024.0 mb 0.00 in0.0 mm 0.00 in0.0 mm 0.00 in0.0 mm
12:21 AM 54.0°F12.2°C 48.0°F8.9°C 80% Calm Calm -- 30.24 in1024.0 mb 0.00 in0.0 mm 0.00 in0.0 mm 0.00 in0.0 mm
12:22 AM 53.9°F12.2°C 47.9°F8.8°C 80% Calm Calm -- 30.24 in1024.0 mb 0.00 in0.0 mm 0.00 in0.0 mm 0.00 in0.0 mm
12:23 AM 53.9°F12.2°C 47.9°F8.8°C 80% Calm Calm -- 30.24 in1024.0 mb 0.00 in0.0 mm 0.00 in0.0 mm 0.00 in0.0 mm
12:24 AM 53.8°F12.1°C 47.4°F8.6°C 79% Calm Calm -- 30.24 in1024.0 mb 0.00 in0.0 mm 0.00 in0.0 mm 0.00 in0.0 mm
12:25 AM 53.7°F12.1°C 47.3°F8.5°C 79% Calm Calm -- 30.24 in1024.0 mb 0.00 in0.0 mm 0.00 in0.0 mm 0.00 in0.0 mm
12:26 AM 53.6°F12.0°C 47.2°F8.4°C 79% 0.5 mph NE0.8 kmh NE 2.0 mph3.2 kmh 30.24 in1024.0 mb 0.00 in0.0 mm 0.00 in0.0 mm 0.00 in0.0 mm
12:27 AM 53.5°F11.9°C 47.5°F8.6°C 80% 1.7 mph NE2.7 kmh NE 3.0 mph4.8 kmh 30.24 in1024.0 mb 0.00 in0.0 mm 0.00 in0.0 mm 0.00 in0.0 mm
12:28 AM 53.4°F11.9°C 47.4°F8.6°C 80% 2.0 mph NE3.2 kmh NE 3.0 mph4.8 kmh 30.24 in1024.0 mb 0.00 in0.0 mm 0.00 in0.0 mm 0.00 in0.0 mm
12:29 AM 53.4°F11.9°C 47.7°F8.7°C 81% 3.0 mph SE4.8 kmh SE 3.0 mph4.8 kmh 30.24 in1024.0 mb 0.00 in0.0 mm 0.00 in0.0 mm 0.00 in0.0 mm
12:30 AM 53.4°F11.9°C 47.7°F8.7°C 81% 2.0 mph SE3.2 kmh SE 3.0 mph4.8 kmh 30.24 in1024.0 mb 0.00 in0.0 mm 0.00 in0.0 mm 0.00 in0.0 mm
12:31 AM 53.5°F11.9°C 48.1°F8.9°C 82% 2.0 mph SE3.2 kmh SE 3.0 mph4.8 kmh 30.24 in1024.0 mb 0.00 in0.0 mm 0.00 in0.0 mm 0.00 in0.0 mm
12:32 AM 53.6°F12.0°C 48.2°F9.0°C 82% 1.7 mph SE2.7 kmh SE 2.0 mph3.2 kmh 30.24 in1024.0 mb 0.00 in0.0 mm 0.00 in0.0 mm 0.00 in0.0 mm
12:33 AM 53.6°F12.0°C 48.6°F9.2°C 83% 1.5 mph SE2.4 kmh SE 2.0 mph3.2 kmh 30.24 in1024.0 mb 0.00 in0.0 mm 0.00 in0.0 mm 0.00 in0.0 mm
12:34 AM 53.6°F12.0°C 48.6°F9.2°C 83% 1.6 mph SE2.6 kmh SE 2.0 mph3.2 kmh 30.24 in1024.0 mb 0.00 in0.0 mm 0.00 in0.0 mm 0.00 in0.0 mm
12:35 AM 53.7°F12.1°C 48.7°F9.3°C 83% 2.3 mph SE3.7 kmh SE 3.0 mph4.8 kmh 30.24 in1024.0 mb 0.00 in0.0 mm 0.00 in0.0 mm 0.00 in0.0 mm
12:36 AM 53.8°F12.1°C 48.8°F9.3°C 83% 2.5 mph SE4.0 kmh SE 3.0 mph4.8 kmh 30.25 in1024.4 mb 0.00 in0.0 mm 0.00 in0.0 mm 0.00 in0.0 mm
12:37 AM 53.8°F12.1°C 48.8°F9.3°C 83% 2.9 mph SE4.7 kmh SE 4.0 mph6.4 kmh 30.24 in1024.0 mb 0.00 in0.0 mm 0.00 in0.0 mm 0.00 in0.0 mm
12:38 AM 53.8°F12.1°C 48.8°F9.3°C 83% 3.0 mph SE4.8 kmh SE 4.0 mph6.4 kmh 30.25 in1024.4 mb 0.00 in0.0 mm 0.00 in0.0 mm 0.00 in0.0 mm
12:39 AM 53.8°F12.1°C 48.8°F9.3°C 83% 4.0 mph SE6.4 kmh SE 5.0 mph8.0 kmh 30.25 in1024.4 mb 0.00 in0.0 mm 0.00 in0.0 mm 0.00 in0.0 mm
12:40 AM 53.9°F12.2°C 48.9°F9.4°C 83% 4.0 mph WSW6.4 kmh WSW 4.0 mph6.4 kmh 30.25 in1024.4 mb 0.00 in0.0 mm 0.00 in0.0 mm 0.00 in0.0 mm
12:41 AM 53.9°F12.2°C 49.2°F9.6°C 84% 4.0 mph WSW6.4 kmh WSW 4.0 mph6.4 kmh 30.24 in1024.0 mb 0.00 in0.0 mm 0.00 in0.0 mm 0.00 in0.0 mm
12:42 AM 54.0°F12.2°C 49.3°F9.6°C 84% 2.0 mph WSW3.2 kmh WSW 3.0 mph4.8 kmh 30.25 in1024.4 mb 0.00 in0.0 mm 0.00 in0.0 mm 0.00 in0.0 mm
12:43 AM 54.1°F12.3°C 49.4°F9.7°C 84% 1.4 mph SW2.3 kmh SW 2.0 mph3.2 kmh 30.25 in1024.4 mb 0.00 in0.0 mm 0.00 in0.0 mm 0.00 in0.0 mm
12:44 AM 54.1°F12.3°C 49.4°F9.7°C 84% 2.0 mph WSW3.2 kmh WSW 2.0 mph3.2 kmh 30.25 in1024.4 mb 0.00 in0.0 mm 0.00 in0.0 mm 0.00 in0.0 mm
12:45 AM 54.2°F12.3°C 49.5°F9.7°C 84% 2.0 mph WSW3.2 kmh WSW 2.0 mph3.2 kmh 30.25 in1024.4 mb 0.00 in0.0 mm 0.00 in0.0 mm 0.00 in0.0 mm
12:46 AM 54.2°F12.3°C 49.5°F9.7°C 84% 2.8 mph SW4.5 kmh SW 3.0 mph4.8 kmh 30.25 in1024.4 mb 0.00 in0.0 mm 0.00 in0.0 mm 0.00 in0.0 mm
12:47 AM 54.2°F12.3°C 49.5°F9.7°C 84% 2.8 mph SW4.5 kmh SW 3.0 mph4.8 kmh 30.25 in1024.4 mb 0.00 in0.0 mm 0.00 in0.0 mm 0.00 in0.0 mm
12:48 AM 54.2°F12.3°C 49.5°F9.7°C 84% 3.5 mph SW5.6 kmh SW 4.0 mph6.4 kmh 30.25 in1024.4 mb 0.00 in0.0 mm 0.00 in0.0 mm 0.00 in0.0 mm
12:49 AM 54.3°F12.4°C 49.6°F9.8°C 84% 3.6 mph SW5.8 kmh SW 4.0 mph6.4 kmh 30.25 in1024.4 mb 0.00 in0.0 mm 0.00 in0.0 mm 0.00 in0.0 mm
12:50 AM 54.4°F12.4°C 50.0°F10.0°C 85% 3.6 mph WSW5.8 kmh WSW 4.0 mph6.4 kmh 30.25 in1024.4 mb 0.00 in0.0 mm 0.00 in0.0 mm 0.00 in0.0 mm
12:51 AM 54.6°F12.6°C 50.2°F10.1°C 85% 3.0 mph WSW4.8 kmh WSW 4.0 mph6.4 kmh 30.25 in1024.4 mb 0.00 in0.0 mm 0.00 in0.0 mm 0.00 in0.0 mm
12:52 AM 54.7°F12.6°C 50.3°F10.2°C 85% 3.0 mph WSW4.8 kmh WSW 4.0 mph6.4 kmh 30.25 in1024.4 mb 0.00 in0.0 mm 0.00 in0.0 mm 0.00 in0.0 mm
12:53 AM 54.7°F12.6°C 50.3°F10.2°C 85% 3.0 mph WSW4.8 kmh WSW 6.0 mph9.7 kmh 30.25 in1024.4 mb 0.00 in0.0 mm 0.00 in0.0 mm 0.00 in0.0 mm
12:54 AM 54.7°F12.6°C 50.3°F10.2°C 85% 2.0 mph W3.2 kmh W 3.0 mph4.8 kmh 30.25 in1024.4 mb 0.00 in0.0 mm 0.00 in0.0 mm 0.00 in0.0 mm
12:55 AM 54.7°F12.6°C 50.3°F10.2°C 85% 2.7 mph WSW4.3 kmh WSW 3.0 mph4.8 kmh 30.25 in1024.4 mb 0.00 in0.0 mm 0.00 in0.0 mm 0.00 in0.0 mm
12:56 AM 54.8°F12.7°C 50.4°F10.2°C 85% 2.1 mph WSW3.4 kmh WSW 3.0 mph4.8 kmh 30.25 in1024.4 mb 0.00 in0.0 mm 0.00 in0.0 mm 0.00 in0.0 mm
12:57 AM 54.8°F12.7°C 50.4°F10.2°C 85% 2.2 mph WSW3.5 kmh WSW 3.0 mph4.8 kmh 30.25 in1024.4 mb 0.00 in0.0 mm 0.00 in0.0 mm 0.00 in0.0 mm
12:58 AM 54.9°F12.7°C 50.5°F10.3°C 85% 2.4 mph WSW3.9 kmh WSW 3.0 mph4.8 kmh 30.25 in1024.4 mb 0.00 in0.0 mm 0.00 in0.0 mm 0.00 in0.0 mm
12:59 AM 54.9°F12.7°C 50.5°F10.3°C 85% 2.7 mph WSW4.3 kmh WSW 4.0 mph6.4 kmh 30.25 in1024.4 mb 0.00 in0.0 mm 0.00 in0.0 mm 0.00 in0.0 mm
01:00 AM 55.0°F12.8°C 50.6°F10.3°C 85% 3.0 mph WSW4.8 kmh WSW 4.0 mph6.4 kmh 30.25 in1024.4 mb 0.00 in0.0 mm 0.00 in0.0 mm 0.00 in0.0 mm
01:01 AM 55.2°F12.9°C 50.8°F10.4°C 85% 3.0 mph WSW4.8 kmh WSW 4.0 mph6.4 kmh 30.25 in1024.4 mb 0.00 in0.0 mm 0.00 in0.0 mm 0.00 in0.0 mm
01:02 AM 55.3°F12.9°C 51.2°F10.7°C 86% 2.8 mph WSW4.5 kmh WSW 4.0 mph6.4 kmh 30.25 in1024.4 mb 0.00 in0.0 mm 0.00 in0.0 mm 0.00 in0.0 mm
01:03 AM 55.5°F13.1°C 51.4°F10.8°C 86% 3.0 mph WSW4.8 kmh WSW 4.0 mph6.4 kmh 30.25 in1024.4 mb 0.00 in0.0 mm 0.00 in0.0 mm 0.00 in0.0 mm
01:04 AM 55.7°F13.2°C 51.6°F10.9°C 86% 3.5 mph WSW5.6 kmh WSW 4.0 mph6.4 kmh 30.25 in1024.4 mb 0.00 in0.0 mm 0.00 in0.0 mm 0.00 in0.0 mm
01:05 AM 55.8°F13.2°C 51.7°F10.9°C 86% 3.7 mph W6.0 kmh W 4.0 mph6.4 kmh 30.25 in1024.4 mb 0.00 in0.0 mm 0.00 in0.0 mm 0.00 in0.0 mm
01:06 AM 55.9°F13.3°C 51.8°F11.0°C 86% 3.1 mph W5.0 kmh W 4.0 mph6.4 kmh 30.25 in1024.4 mb 0.00 in0.0 mm 0.00 in0.0 mm 0.00 in0.0 mm
01:07 AM 56.0°F13.3°C 51.9°F11.1°C 86% 3.5 mph W5.6 kmh W 4.0 mph6.4 kmh 30.25 in1024.4 mb 0.00 in0.0 mm 0.00 in0.0 mm 0.00 in0.0 mm
01:08 AM 56.1°F13.4°C 51.7°F10.9°C 85% 3.5 mph W5.6 kmh W 4.0 mph6.4 kmh 30.25 in1024.4 mb 0.00 in0.0 mm 0.00 in0.0 mm 0.00 in0.0 mm
01:09 AM 56.1°F13.4°C 51.7°F10.9°C 85% 3.0 mph W4.8 kmh W 4.0 mph6.4 kmh 30.25 in1024.4 mb 0.00 in0.0 mm 0.00 in0.0 mm 0.00 in0.0 mm
01:10 AM 56.1°F13.4°C 51.7°F10.9°C 85% 2.0 mph W3.2 kmh W 4.0 mph6.4 kmh 30.25 in1024.4 mb 0.00 in0.0 mm 0.00 in0.0 mm 0.00 in0.0 mm
01:11 AM 56.1°F13.4°C 51.7°F10.9°C 85% 2.1 mph W3.4 kmh W 3.0 mph4.8 kmh 30.25 in1024.4 mb 0.00 in0.0 mm 0.00 in0.0 mm 0.00 in0.0 mm
01:12 AM 56.2°F13.4°C 51.7°F10.9°C 85% 1.9 mph W3.1 kmh W 3.0 mph4.8 kmh 30.25 in1024.4 mb 0.00 in0.0 mm 0.00 in0.0 mm 0.00 in0.0 mm
01:13 AM 56.2°F13.4°C 51.7°F10.9°C 85% 1.8 mph W2.9 kmh W 3.0 mph4.8 kmh 30.25 in1024.4 mb 0.00 in0.0 mm 0.00 in0.0 mm 0.00 in0.0 mm
01:14 AM 56.2°F13.4°C 51.7°F10.9°C 85% 2.0 mph W3.2 kmh W 2.0 mph3.2 kmh 30.25 in1024.4 mb 0.00 in0.0 mm 0.00 in0.0 mm 0.00 in0.0 mm
01:15 AM 56.2°F13.4°C 51.7°F10.9°C 85% 2.0 mph W3.2 kmh W 3.0 mph4.8 kmh 30.25 in1024.4 mb 0.00 in0.0 mm 0.00 in0.0 mm 0.00 in0.0 mm
01:16 AM 56.2°F13.4°C 51.7°F10.9°C 85% 1.0 mph W1.6 kmh W 2.0 mph3.2 kmh 30.25 in1024.4 mb 0.00 in0.0 mm 0.00 in0.0 mm 0.00 in0.0 mm
01:17 AM 56.2°F13.4°C 51.7°F10.9°C 85% 1.5 mph W2.4 kmh W 2.0 mph3.2 kmh 30.25 in1024.4 mb 0.00 in0.0 mm 0.00 in0.0 mm 0.00 in0.0 mm
01:18 AM 56.2°F13.4°C 51.7°F10.9°C 85% 0.8 mph W1.3 kmh W 2.0 mph3.2 kmh 30.25 in1024.4 mb 0.00 in0.0 mm 0.00 in0.0 mm 0.00 in0.0 mm
01:19 AM 56.1°F13.4°C 51.3°F10.7°C 84% 0.5 mph W0.8 kmh W 2.0 mph3.2 kmh 30.25 in1024.4 mb 0.00 in0.0 mm 0.00 in0.0 mm 0.00 in0.0 mm
01:20 AM 56.0°F13.3°C 51.2°F10.7°C 84% Calm Calm 1.0 mph1.6 kmh 30.25 in1024.4 mb 0.00 in0.0 mm 0.00 in0.0 mm 0.00 in0.0 mm
01:21 AM 56.0°F13.3°C 51.2°F10.7°C 84% Calm Calm -- 30.25 in1024.4 mb 0.00 in0.0 mm 0.00 in0.0 mm 0.00 in0.0 mm
01:22 AM 55.8°F13.2°C 50.7°F10.4°C 83% Calm Calm 1.0 mph1.6 kmh 30.25 in1024.4 mb 0.00 in0.0 mm 0.00 in0.0 mm 0.00 in0.0 mm
01:23 AM 55.6°F13.1°C 50.5°F10.3°C 83% Calm Calm -- 30.25 in1024.4 mb 0.00 in0.0 mm 0.00 in0.0 mm 0.00 in0.0 mm
01:24 AM 55.4°F13.0°C 50.3°F10.2°C 83% Calm Calm -- 30.25 in1024.4 mb 0.00 in0.0 mm 0.00 in0.0 mm 0.00 in0.0 mm
01:25 AM 55.2°F12.9°C 49.8°F9.9°C 82% 0.1 mph W0.2 kmh W 1.0 mph1.6 kmh 30.25 in1024.4 mb 0.00 in0.0 mm 0.00 in0.0 mm 0.00 in0.0 mm
01:26 AM 55.0°F12.8°C 49.6°F9.8°C 82% Calm Calm 1.0 mph1.6 kmh 30.25 in1024.4 mb 0.00 in0.0 mm 0.00 in0.0 mm 0.00 in0.0 mm
01:27 AM 54.8°F12.7°C 49.4°F9.7°C 82% Calm Calm -- 30.25 in1024.4 mb 0.00 in0.0 mm 0.00 in0.0 mm 0.00 in0.0 mm
01:28 AM 54.5°F12.5°C 49.1°F9.5°C 82% Calm Calm -- 30.25 in1024.4 mb 0.00 in0.0 mm 0.00 in0.0 mm 0.00 in0.0 mm
01:29 AM 54.3°F12.4°C 48.9°F9.4°C 82% Calm Calm -- 30.25 in1024.4 mb 0.00 in0.0 mm 0.00 in0.0 mm 0.00 in0.0 mm
01:30 AM 54.1°F12.3°C 48.7°F9.3°C 82% 0.1 mph W0.2 kmh W 1.0 mph1.6 kmh 30.25 in1024.4 mb 0.00 in0.0 mm 0.00 in0.0 mm 0.00 in0.0 mm
01:31 AM 53.9°F12.2°C 48.9°F9.4°C 83% 1.3 mph W2.1 kmh W 2.0 mph3.2 kmh 30.25 in1024.4 mb 0.00 in0.0 mm 0.00 in0.0 mm 0.00 in0.0 mm
01:32 AM 53.7°F12.1°C 48.7°F9.3°C 83% 1.1 mph W1.8 kmh W 2.0 mph3.2 kmh 30.25 in1024.4 mb 0.00 in0.0 mm 0.00 in0.0 mm 0.00 in0.0 mm
01:33 AM 53.6°F12.0°C 48.6°F9.2°C 83% 1.1 mph W1.8 kmh W 2.0 mph3.2 kmh 30.25 in1024.4 mb 0.00 in0.0 mm 0.00 in0.0 mm 0.00 in0.0 mm
01:34 AM 53.4°F11.9°C 48.4°F9.1°C 83% 0.5 mph W0.8 kmh W 2.0 mph3.2 kmh 30.25 in1024.4 mb 0.00 in0.0 mm 0.00 in0.0 mm 0.00 in0.0 mm
01:35 AM 53.3°F11.8°C 48.3°F9.1°C 83% Calm Calm 1.0 mph1.6 kmh 30.25 in1024.4 mb 0.00 in0.0 mm 0.00 in0.0 mm 0.00 in0.0 mm
01:36 AM 53.2°F11.8°C 48.2°F9.0°C 83% Calm Calm -- 30.25 in1024.4 mb 0.00 in0.0 mm 0.00 in0.0 mm 0.00 in0.0 mm
01:37 AM 53.1°F11.7°C 48.4°F9.1°C 84% Calm Calm -- 30.25 in1024.4 mb 0.00 in0.0 mm 0.00 in0.0 mm 0.00 in0.0 mm
01:38 AM 53.0°F11.7°C 48.3°F9.1°C 84% Calm Calm -- 30.25 in1024.4 mb 0.00 in0.0 mm 0.00 in0.0 mm 0.00 in0.0 mm
01:39 AM 52.9°F11.6°C 48.2°F9.0°C 84% Calm Calm -- 30.25 in1024.4 mb 0.00 in0.0 mm 0.00 in0.0 mm 0.00 in0.0 mm
01:40 AM 52.8°F11.6°C 48.1°F8.9°C 84% Calm Calm -- 30.25 in1024.4 mb 0.00 in0.0 mm 0.00 in0.0 mm 0.00 in0.0 mm
01:41 AM 52.7°F11.5°C 48.3°F9.1°C 85% Calm Calm -- 30.25 in1024.4 mb 0.00 in0.0 mm 0.00 in0.0 mm 0.00 in0.0 mm
01:42 AM 52.6°F11.4°C 48.2°F9.0°C 85% Calm Calm 1.0 mph1.6 kmh 30.25 in1024.4 mb 0.00 in0.0 mm 0.00 in0.0 mm 0.00 in0.0 mm
01:43 AM 52.5°F11.4°C 48.1°F8.9°C 85% 0.1 mph W0.2 kmh W 1.0 mph1.6 kmh 30.25 in1024.4 mb 0.00 in0.0 mm 0.00 in0.0 mm 0.00 in0.0 mm
01:44 AM 52.5°F11.4°C 48.1°F8.9°C 85% 0.8 mph W1.3 kmh W 1.0 mph1.6 kmh 30.25 in1024.4 mb 0.00 in0.0 mm 0.00 in0.0 mm 0.00 in0.0 mm
01:45 AM 52.4°F11.3°C 48.0°F8.9°C 85% 0.7 mph W1.1 kmh W 1.0 mph1.6 kmh 30.25 in1024.4 mb 0.00 in0.0 mm 0.00 in0.0 mm 0.00 in0.0 mm
01:46 AM 52.4°F11.3°C 48.0°F8.9°C 85% 0.3 mph W0.5 kmh W 1.0 mph1.6 kmh 30.25 in1024.4 mb 0.00 in0.0 mm 0.00 in0.0 mm 0.00 in0.0 mm
01:47 AM 52.4°F11.3°C 48.0°F8.9°C 85% 0.5 mph W0.8 kmh W 1.0 mph1.6 kmh 30.25 in1024.4 mb 0.00 in0.0 mm 0.00 in0.0 mm 0.00 in0.0 mm
01:48 AM 52.3°F11.3°C 47.9°F8.8°C 85% 0.1 mph W0.2 kmh W 1.0 mph1.6 kmh 30.25 in1024.4 mb 0.00 in0.0 mm 0.00 in0.0 mm 0.00 in0.0 mm
01:49 AM 52.2°F11.2°C 47.8°F8.8°C 85% Calm Calm 1.0 mph1.6 kmh 30.25 in1024.4 mb 0.00 in0.0 mm 0.00 in0.0 mm 0.00 in0.0 mm
01:50 AM 52.2°F11.2°C 48.1°F8.9°C 86% Calm Calm -- 30.25 in1024.4 mb 0.00 in0.0 mm 0.00 in0.0 mm 0.00 in0.0 mm
01:51 AM 52.1°F11.2°C 48.0°F8.9°C 86% Calm Calm -- 30.25 in1024.4 mb 0.00 in0.0 mm 0.00 in0.0 mm 0.00 in0.0 mm
01:52 AM 52.1°F11.2°C 48.0°F8.9°C 86% Calm Calm -- 30.25 in1024.4 mb 0.00 in0.0 mm 0.00 in0.0 mm 0.00 in0.0 mm
01:53 AM 52.1°F11.2°C 48.0°F8.9°C 86% Calm Calm -- 30.25 in1024.4 mb 0.00 in0.0 mm 0.00 in0.0 mm 0.00 in0.0 mm
01:54 AM 52.0°F11.1°C 47.9°F8.8°C 86% Calm Calm -- 30.25 in1024.4 mb 0.00 in0.0 mm 0.00 in0.0 mm 0.00 in0.0 mm
01:55 AM 52.0°F11.1°C 47.9°F8.8°C 86% Calm Calm -- 30.25 in1024.4 mb 0.00 in0.0 mm 0.00 in0.0 mm 0.00 in0.0 mm
01:56 AM 52.0°F11.1°C 47.9°F8.8°C 86% Calm Calm -- 30.25 in1024.4 mb 0.00 in0.0 mm 0.00 in0.0 mm 0.00 in0.0 mm
01:57 AM 51.9°F11.1°C 47.8°F8.8°C 86% Calm Calm -- 30.25 in1024.4 mb 0.00 in0.0 mm 0.00 in0.0 mm 0.00 in0.0 mm
01:58 AM 51.8°F11.0°C 47.7°F8.7°C 86% Calm Calm -- 30.25 in1024.4 mb 0.00 in0.0 mm 0.00 in0.0 mm 0.00 in0.0 mm
01:59 AM 51.7°F10.9°C 47.6°F8.7°C 86% Calm Calm -- 30.25 in1024.4 mb 0.00 in0.0 mm 0.00 in0.0 mm 0.00 in0.0 mm
02:00 AM 51.7°F10.9°C 47.6°F8.7°C 86% Calm Calm -- 30.25 in1024.4 mb 0.00 in0.0 mm 0.00 in0.0 mm 0.00 in0.0 mm
02:01 AM 51.6°F10.9°C 47.6°F8.7°C 86% Calm Calm -- 30.25 in1024.4 mb 0.00 in0.0 mm 0.00 in0.0 mm 0.00 in0.0 mm
02:02 AM 51.6°F10.9°C 47.6°F8.7°C 86% Calm Calm -- 30.25 in1024.4 mb 0.00 in0.0 mm 0.00 in0.0 mm 0.00 in0.0 mm
02:03 AM 51.5°F10.8°C 47.5°F8.6°C 86% Calm Calm -- 30.25 in1024.4 mb 0.00 in0.0 mm 0.00 in0.0 mm 0.00 in0.0 mm
02:04 AM 51.4°F10.8°C 47.4°F8.6°C 86% Calm Calm -- 30.25 in1024.4 mb 0.00 in0.0 mm 0.00 in0.0 mm 0.00 in0.0 mm
02:05 AM 51.4°F10.8°C 47.4°F8.6°C 86% Calm Calm -- 30.25 in1024.4 mb 0.00 in0.0 mm 0.00 in0.0 mm 0.00 in0.0 mm
02:06 AM 51.2°F10.7°C 47.2°F8.4°C 86% Calm Calm -- 30.25 in1024.4 mb 0.00 in0.0 mm 0.00 in0.0 mm 0.00 in0.0 mm
02:07 AM 51.2°F10.7°C 47.2°F8.4°C 86% Calm Calm -- 30.25 in1024.4 mb 0.00 in0.0 mm 0.00 in0.0 mm 0.00 in0.0 mm
02:08 AM 51.2°F10.7°C 47.5°F8.6°C 87% Calm Calm -- 30.25 in1024.4 mb 0.00 in0.0 mm 0.00 in0.0 mm 0.00 in0.0 mm
02:09 AM 51.1°F10.6°C 47.4°F8.6°C 87% Calm Calm -- 30.25 in1024.4 mb 0.00 in0.0 mm 0.00 in0.0 mm 0.00 in0.0 mm
02:10 AM 51.1°F10.6°C 47.4°F8.6°C 87% Calm Calm -- 30.25 in1024.4 mb 0.00 in0.0 mm 0.00 in0.0 mm 0.00 in0.0 mm
02:11 AM 51.1°F10.6°C 47.4°F8.6°C 87% Calm Calm -- 30.25 in1024.4 mb 0.00 in0.0 mm 0.00 in0.0 mm 0.00 in0.0 mm
02:12 AM 51.1°F10.6°C 47.4°F8.6°C 87% Calm Calm -- 30.25 in1024.4 mb 0.00 in0.0 mm 0.00 in0.0 mm 0.00 in0.0 mm
02:13 AM 51.0°F10.6°C 47.3°F8.5°C 87% Calm Calm -- 30.25 in1024.4 mb 0.00 in0.0 mm 0.00 in0.0 mm 0.00 in0.0 mm
02:14 AM 50.9°F10.5°C 47.2°F8.4°C 87% Calm Calm -- 30.25 in1024.4 mb 0.00 in0.0 mm 0.00 in0.0 mm 0.00 in0.0 mm
02:15 AM 50.9°F10.5°C 47.2°F8.4°C 87% Calm Calm -- 30.25 in1024.4 mb 0.00 in0.0 mm 0.00 in0.0 mm 0.00 in0.0 mm
02:16 AM 50.8°F10.4°C 47.1°F8.4°C 87% Calm Calm -- 30.25 in1024.4 mb 0.00 in0.0 mm 0.00 in0.0 mm 0.00 in0.0 mm
02:17 AM 50.8°F10.4°C 47.1°F8.4°C 87% Calm Calm -- 30.25 in1024.4 mb 0.00 in0.0 mm 0.00 in0.0 mm 0.00 in0.0 mm
02:18 AM 50.8°F10.4°C 47.1°F8.4°C 87% Calm Calm -- 30.25 in1024.4 mb 0.00 in0.0 mm 0.00 in0.0 mm 0.00 in0.0 mm
02:19 AM 50.8°F10.4°C 47.1°F8.4°C 87% Calm Calm -- 30.25 in1024.4 mb 0.00 in0.0 mm 0.00 in0.0 mm 0.00 in0.0 mm
02:20 AM 50.8°F10.4°C 47.4°F8.6°C 88% Calm Calm -- 30.25 in1024.4 mb 0.00 in0.0 mm 0.00 in0.0 mm 0.00 in0.0 mm
02:21 AM 50.8°F10.4°C 47.4°F8.6°C 88% Calm Calm 1.0 mph1.6 kmh 30.25 in1024.4 mb 0.00 in0.0 mm 0.00 in0.0 mm 0.00 in0.0 mm
02:22 AM 50.8°F10.4°C 47.4°F8.6°C 88% 1.6 mph W2.6 kmh W 2.0 mph3.2 kmh 30.25 in1024.4 mb 0.00 in0.0 mm 0.00 in0.0 mm 0.00 in0.0 mm
02:23 AM 50.8°F10.4°C 47.4°F8.6°C 88% 2.0 mph W3.2 kmh W 3.0 mph4.8 kmh 30.25 in1024.4 mb 0.00 in0.0 mm 0.00 in0.0 mm 0.00 in0.0 mm
02:24 AM 50.9°F10.5°C 47.5°F8.6°C 88% 2.0 mph SSW3.2 kmh SSW 3.0 mph4.8 kmh 30.25 in1024.4 mb 0.00 in0.0 mm 0.00 in0.0 mm 0.00 in0.0 mm
02:25 AM 50.9°F10.5°C 47.5°F8.6°C 88% 4.0 mph SSE6.4 kmh SSE 6.0 mph9.7 kmh 30.26 in1024.7 mb 0.00 in0.0 mm 0.00 in0.0 mm 0.00 in0.0 mm
02:26 AM 51.0°F10.6°C 47.6°F8.7°C 88% 6.6 mph SSE10.6 kmh SSE 7.0 mph11.3 kmh 30.26 in1024.7 mb 0.00 in0.0 mm 0.00 in0.0 mm 0.00 in0.0 mm
02:27 AM 51.0°F10.6°C 47.9°F8.8°C 89% 6.5 mph SSE10.5 kmh SSE 7.0 mph11.3 kmh 30.26 in1024.7 mb 0.00 in0.0 mm 0.00 in0.0 mm 0.00 in0.0 mm
02:28 AM 51.2°F10.7°C 47.8°F8.8°C 88% 5.8 mph SSE9.3 kmh SSE 7.0 mph11.3 kmh 30.26 in1024.7 mb 0.00 in0.0 mm 0.00 in0.0 mm 0.00 in0.0 mm
02:29 AM 51.2°F10.7°C 48.1°F8.9°C 89% 5.4 mph SE8.7 kmh SE 7.0 mph11.3 kmh 30.26 in1024.7 mb 0.00 in0.0 mm 0.00 in0.0 mm 0.00 in0.0 mm
02:30 AM 51.2°F10.7°C 48.1°F8.9°C 89% 5.3 mph SE8.5 kmh SE 6.0 mph9.7 kmh 30.26 in1024.7 mb 0.00 in0.0 mm 0.00 in0.0 mm 0.00 in0.0 mm
02:31 AM 51.2°F10.7°C 48.1°F8.9°C 89% 5.3 mph SE8.5 kmh SE 6.0 mph9.7 kmh 30.26 in1024.7 mb 0.00 in0.0 mm 0.00 in0.0 mm 0.00 in0.0 mm
02:32 AM 51.2°F10.7°C 48.1°F8.9°C 89% 5.4 mph SE8.7 kmh SE 6.0 mph9.7 kmh 30.26 in1024.7 mb 0.00 in0.0 mm 0.00 in0.0 mm 0.00 in0.0 mm
02:33 AM 51.2°F10.7°C 48.1°F8.9°C 89% 5.4 mph SE8.7 kmh SE 6.0 mph9.7 kmh 30.26 in1024.7 mb 0.00 in0.0 mm 0.00 in0.0 mm 0.00 in0.0 mm
02:34 AM 51.3°F10.7°C 48.2°F9.0°C 89% 5.0 mph SSE8.0 kmh SSE 6.0 mph9.7 kmh 30.25 in1024.4 mb 0.00 in0.0 mm 0.00 in0.0 mm 0.00 in0.0 mm
02:35 AM 51.3°F10.7°C 48.2°F9.0°C 89% 5.0 mph SSE8.0 kmh SSE 6.0 mph9.7 kmh 30.25 in1024.4 mb 0.00 in0.0 mm 0.00 in0.0 mm 0.00 in0.0 mm
02:36 AM 51.3°F10.7°C 48.2°F9.0°C 89% 4.0 mph SSE6.4 kmh SSE 5.0 mph8.0 kmh 30.25 in1024.4 mb 0.00 in0.0 mm 0.00 in0.0 mm 0.00 in0.0 mm
02:37 AM 51.3°F10.7°C 48.2°F9.0°C 89% 3.9 mph SE6.3 kmh SE 5.0 mph8.0 kmh 30.25 in1024.4 mb 0.00 in0.0 mm 0.00 in0.0 mm 0.00 in0.0 mm
02:38 AM 51.2°F10.7°C 48.1°F8.9°C 89% 3.9 mph SE6.3 kmh SE 5.0 mph8.0 kmh 30.25 in1024.4 mb 0.00 in0.0 mm 0.00 in0.0 mm 0.00 in0.0 mm
02:39 AM 51.2°F10.7°C 48.1°F8.9°C 89% 4.0 mph SE6.4 kmh SE 4.0 mph6.4 kmh 30.26 in1024.7 mb 0.00 in0.0 mm 0.00 in0.0 mm 0.00 in0.0 mm
02:40 AM 51.2°F10.7°C 48.1°F8.9°C 89% 4.0 mph SE6.4 kmh SE 5.0 mph8.0 kmh 30.26 in1024.7 mb 0.00 in0.0 mm 0.00 in0.0 mm 0.00 in0.0 mm
02:41 AM 51.2°F10.7°C 48.1°F8.9°C 89% 4.2 mph SE6.8 kmh SE 5.0 mph8.0 kmh 30.26 in1024.7 mb 0.00 in0.0 mm 0.00 in0.0 mm 0.00 in0.0 mm
02:42 AM 51.1°F10.6°C 48.0°F8.9°C 89% 4.1 mph SE6.6 kmh SE 5.0 mph8.0 kmh 30.26 in1024.7 mb 0.00 in0.0 mm 0.00 in0.0 mm 0.00 in0.0 mm
02:43 AM 51.1°F10.6°C 48.0°F8.9°C 89% 3.6 mph SE5.8 kmh SE 5.0 mph8.0 kmh 30.25 in1024.4 mb 0.00 in0.0 mm 0.00 in0.0 mm 0.00 in0.0 mm
02:44 AM 51.2°F10.7°C 48.1°F8.9°C 89% 4.1 mph SE6.6 kmh SE 5.0 mph8.0 kmh 30.26 in1024.7 mb 0.00 in0.0 mm 0.00 in0.0 mm 0.00 in0.0 mm
02:45 AM 51.1°F10.6°C 48.0°F8.9°C 89% 4.0 mph SSE6.4 kmh SSE 4.0 mph6.4 kmh 30.25 in1024.4 mb 0.00 in0.0 mm 0.00 in0.0 mm 0.00 in0.0 mm
02:46 AM 51.2°F10.7°C 48.1°F8.9°C 89% 4.0 mph SSE6.4 kmh SSE 4.0 mph6.4 kmh 30.25 in1024.4 mb 0.00 in0.0 mm 0.00 in0.0 mm 0.00 in0.0 mm
02:47 AM 51.1°F10.6°C 48.0°F8.9°C 89% 3.1 mph SE5.0 kmh SE 4.0 mph6.4 kmh 30.25 in1024.4 mb 0.00 in0.0 mm 0.00 in0.0 mm 0.00 in0.0 mm
02:48 AM 51.1°F10.6°C 48.0°F8.9°C 89% 2.7 mph SE4.3 kmh SE 4.0 mph6.4 kmh 30.25 in1024.4 mb 0.00 in0.0 mm 0.00 in0.0 mm 0.00 in0.0 mm
02:49 AM 51.1°F10.6°C 48.0°F8.9°C 89% 2.9 mph SE4.7 kmh SE 3.0 mph4.8 kmh 30.25 in1024.4 mb 0.00 in0.0 mm 0.00 in0.0 mm 0.00 in0.0 mm
02:50 AM 51.1°F10.6°C 48.0°F8.9°C 89% 2.8 mph SE4.5 kmh SE 3.0 mph4.8 kmh 30.25 in1024.4 mb 0.00 in0.0 mm 0.00 in0.0 mm 0.00 in0.0 mm
02:51 AM 51.1°F10.6°C 48.0°F8.9°C 89% 2.6 mph SE4.2 kmh SE 3.0 mph4.8 kmh 30.25 in1024.4 mb 0.00 in0.0 mm 0.00 in0.0 mm 0.00 in0.0 mm
02:52 AM 51.0°F10.6°C 47.9°F8.8°C 89% 3.0 mph SE4.8 kmh SE 4.0 mph6.4 kmh 30.25 in1024.4 mb 0.00 in0.0 mm 0.00 in0.0 mm 0.00 in0.0 mm
02:53 AM 51.0°F10.6°C 47.9°F8.8°C 89% 2.7 mph SE4.3 kmh SE 4.0 mph6.4 kmh 30.25 in1024.4 mb 0.00 in0.0 mm 0.00 in0.0 mm 0.00 in0.0 mm
02:54 AM 51.0°F10.6°C 47.9°F8.8°C 89% 4.0 mph SSE6.4 kmh SSE 5.0 mph8.0 kmh 30.25 in1024.4 mb 0.00 in0.0 mm 0.00 in0.0 mm 0.00 in0.0 mm
02:55 AM 51.0°F10.6°C 47.9°F8.8°C 89% 5.0 mph SSE8.0 kmh SSE 5.0 mph8.0 kmh 30.25 in1024.4 mb 0.00 in0.0 mm 0.00 in0.0 mm 0.00 in0.0 mm
02:56 AM 51.0°F10.6°C 47.9°F8.8°C 89% 4.0 mph SSE6.4 kmh SSE 5.0 mph8.0 kmh 30.25 in1024.4 mb 0.00 in0.0 mm 0.00 in0.0 mm 0.00 in0.0 mm
02:57 AM 51.0°F10.6°C 47.9°F8.8°C 89% 4.6 mph SE7.4 kmh SE 5.0 mph8.0 kmh 30.25 in1024.4 mb 0.00 in0.0 mm 0.00 in0.0 mm 0.00 in0.0 mm
02:58 AM 51.0°F10.6°C 47.9°F8.8°C 89% 4.8 mph SE7.7 kmh SE 5.0 mph8.0 kmh 30.25 in1024.4 mb 0.00 in0.0 mm 0.00 in0.0 mm 0.00 in0.0 mm
02:59 AM 51.0°F10.6°C 48.2°F9.0°C 90% 4.9 mph SE7.9 kmh SE 5.0 mph8.0 kmh 30.25 in1024.4 mb 0.00 in0.0 mm 0.00 in0.0 mm 0.00 in0.0 mm
03:00 AM 51.1°F10.6°C 48.3°F9.1°C 90% 4.8 mph SE7.7 kmh SE 5.0 mph8.0 kmh 30.25 in1024.4 mb 0.00 in0.0 mm 0.00 in0.0 mm 0.00 in0.0 mm
03:01 AM 51.1°F10.6°C 48.3°F9.1°C 90% 4.0 mph SSE6.4 kmh SSE 5.0 mph8.0 kmh 30.25 in1024.4 mb 0.00 in0.0 mm 0.00 in0.0 mm 0.00 in0.0 mm
03:02 AM 51.1°F10.6°C 48.3°F9.1°C 90% 4.0 mph SSE6.4 kmh SSE 5.0 mph8.0 kmh 30.25 in1024.4 mb 0.00 in0.0 mm 0.00 in0.0 mm 0.00 in0.0 mm
03:03 AM 51.2°F10.7°C 48.4°F9.1°C 90% 4.0 mph SSE6.4 kmh SSE 5.0 mph8.0 kmh 30.25 in1024.4 mb 0.00 in0.0 mm 0.00 in0.0 mm 0.00 in0.0 mm
03:04 AM 51.1°F10.6°C 48.3°F9.1°C 90% 4.0 mph SSE6.4 kmh SSE 5.0 mph8.0 kmh 30.25 in1024.4 mb 0.00 in0.0 mm 0.00 in0.0 mm 0.00 in0.0 mm
03:05 AM 51.1°F10.6°C 48.3°F9.1°C 90% 4.0 mph SSE6.4 kmh SSE 4.0 mph6.4 kmh 30.25 in1024.4 mb 0.00 in0.0 mm 0.00 in0.0 mm 0.00 in0.0 mm
03:06 AM 51.1°F10.6°C 48.3°F9.1°C 90% 3.4 mph SE5.5 kmh SE 4.0 mph6.4 kmh 30.25 in1024.4 mb 0.00 in0.0 mm 0.00 in0.0 mm 0.00 in0.0 mm
03:07 AM 51.1°F10.6°C 48.3°F9.1°C 90% 3.5 mph SE5.6 kmh SE 4.0 mph6.4 kmh 30.25 in1024.4 mb 0.00 in0.0 mm 0.00 in0.0 mm 0.00 in0.0 mm
03:08 AM 51.1°F10.6°C 48.0°F8.9°C 89% 3.7 mph SE6.0 kmh SE 4.0 mph6.4 kmh 30.25 in1024.4 mb 0.00 in0.0 mm 0.00 in0.0 mm 0.00 in0.0 mm
03:09 AM 51.0°F10.6°C 47.9°F8.8°C 89% 3.6 mph SE5.8 kmh SE 4.0 mph6.4 kmh 30.25 in1024.4 mb 0.00 in0.0 mm 0.00 in0.0 mm 0.00 in0.0 mm
03:10 AM 51.0°F10.6°C 47.9°F8.8°C 89% 3.6 mph SE5.8 kmh SE 4.0 mph6.4 kmh 30.25 in1024.4 mb 0.00 in0.0 mm 0.00 in0.0 mm 0.00 in0.0 mm
03:11 AM 51.0°F10.6°C 48.2°F9.0°C 90% 4.3 mph SE6.9 kmh SE 5.0 mph8.0 kmh 30.25 in1024.4 mb 0.00 in0.0 mm 0.00 in0.0 mm 0.00 in0.0 mm
03:12 AM 51.0°F10.6°C 48.2°F9.0°C 90% 4.2 mph SE6.8 kmh SE 5.0 mph8.0 kmh 30.25 in1024.4 mb 0.00 in0.0 mm 0.00 in0.0 mm 0.00 in0.0 mm
03:13 AM 51.1°F10.6°C 48.3°F9.1°C 90% 4.4 mph SE7.1 kmh SE 5.0 mph8.0 kmh 30.25 in1024.4 mb 0.00 in0.0 mm 0.00 in0.0 mm 0.00 in0.0 mm
03:14 AM 51.2°F10.7°C 48.4°F9.1°C 90% 4.6 mph SE7.4 kmh SE 5.0 mph8.0 kmh 30.25 in1024.4 mb 0.00 in0.0 mm 0.00 in0.0 mm 0.00 in0.0 mm
03:15 AM 51.3°F10.7°C 48.5°F9.2°C 90% 5.0 mph SSE8.0 kmh SSE 5.0 mph8.0 kmh 30.25 in1024.4 mb 0.00 in0.0 mm 0.00 in0.0 mm 0.00 in0.0 mm
03:16 AM 51.4°F10.8°C 48.6°F9.2°C 90% 5.0 mph SSE8.0 kmh SSE 5.0 mph8.0 kmh 30.25 in1024.4 mb 0.00 in0.0 mm 0.00 in0.0 mm 0.00 in0.0 mm
03:17 AM 51.4°F10.8°C 48.6°F9.2°C 90% 4.7 mph SE7.6 kmh SE 5.0 mph8.0 kmh 30.25 in1024.4 mb 0.00 in0.0 mm 0.00 in0.0 mm 0.00 in0.0 mm
03:18 AM 51.4°F10.8°C 48.6°F9.2°C 90% 5.0 mph SSE8.0 kmh SSE 6.0 mph9.7 kmh 30.25 in1024.4 mb 0.00 in0.0 mm 0.00 in0.0 mm 0.00 in0.0 mm
03:19 AM 51.3°F10.7°C 48.5°F9.2°C 90% 5.0 mph SSE8.0 kmh SSE 6.0 mph9.7 kmh 30.25 in1024.4 mb 0.00 in0.0 mm 0.00 in0.0 mm 0.00 in0.0 mm
03:20 AM 51.4°F10.8°C 48.6°F9.2°C 90% 5.0 mph SE8.0 kmh SE 5.0 mph8.0 kmh 30.25 in1024.4 mb 0.00 in0.0 mm 0.00 in0.0 mm 0.00 in0.0 mm
03:21 AM 51.4°F10.8°C 48.6°F9.2°C 90% 4.5 mph SE7.2 kmh SE 5.0 mph8.0 kmh 30.25 in1024.4 mb 0.00 in0.0 mm 0.00 in0.0 mm 0.00 in0.0 mm
03:22 AM 51.4°F10.8°C 48.6°F9.2°C 90% 4.1 mph SE6.6 kmh SE 5.0 mph8.0 kmh 30.25 in1024.4 mb 0.00 in0.0 mm 0.00 in0.0 mm 0.00 in0.0 mm
03:23 AM 51.4°F10.8°C 48.6°F9.2°C 90% 4.0 mph SE6.4 kmh SE 5.0 mph8.0 kmh 30.25 in1024.4 mb 0.00 in0.0 mm 0.00 in0.0 mm 0.00 in0.0 mm
03:24 AM 51.3°F10.7°C 48.5°F9.2°C 90% 3.9 mph SE6.3 kmh SE 5.0 mph8.0 kmh 30.25 in1024.4 mb 0.00 in0.0 mm 0.00 in0.0 mm 0.00 in0.0 mm
03:25 AM 51.3°F10.7°C 48.5°F9.2°C 90% 3.9 mph SE6.3 kmh SE 4.0 mph6.4 kmh 30.25 in1024.4 mb 0.00 in0.0 mm 0.00 in0.0 mm 0.00 in0.0 mm
03:26 AM 51.3°F10.7°C 48.5°F9.2°C 90% 4.0 mph SSE6.4 kmh SSE 5.0 mph8.0 kmh 30.25 in1024.4 mb 0.00 in0.0 mm 0.00 in0.0 mm 0.00 in0.0 mm
03:27 AM 51.2°F10.7°C 48.4°F9.1°C 90% 4.0 mph SSE6.4 kmh SSE 5.0 mph8.0 kmh 30.25 in1024.4 mb 0.00 in0.0 mm 0.00 in0.0 mm 0.00 in0.0 mm
03:28 AM 51.2°F10.7°C 48.4°F9.1°C 90% 4.0 mph SSE6.4 kmh SSE 5.0 mph8.0 kmh 30.25 in1024.4 mb 0.00 in0.0 mm 0.00 in0.0 mm 0.00 in0.0 mm
03:29 AM 51.1°F10.6°C 48.3°F9.1°C 90% 4.7 mph SE7.6 kmh SE 5.0 mph8.0 kmh 30.25 in1024.4 mb 0.00 in0.0 mm 0.00 in0.0 mm 0.00 in0.0 mm
03:30 AM 51.2°F10.7°C 48.4°F9.1°C 90% 5.1 mph SE8.2 kmh SE 6.0 mph9.7 kmh 30.25 in1024.4 mb 0.00 in0.0 mm 0.00 in0.0 mm 0.00 in0.0 mm
03:31 AM 51.1°F10.6°C 48.3°F9.1°C 90% 5.0 mph SE8.0 kmh SE 6.0 mph9.7 kmh 30.25 in1024.4 mb 0.00 in0.0 mm 0.00 in0.0 mm 0.00 in0.0 mm
03:32 AM 51.1°F10.6°C 48.3°F9.1°C 90% 5.0 mph SE8.0 kmh SE 6.0 mph9.7 kmh 30.25 in1024.4 mb 0.00 in0.0 mm 0.00 in0.0 mm 0.00 in0.0 mm
03:33 AM 51.0°F10.6°C 48.2°F9.0°C 90% 5.0 mph SE8.0 kmh SE 6.0 mph9.7 kmh 30.25 in1024.4 mb 0.00 in0.0 mm 0.00 in0.0 mm 0.00 in0.0 mm
03:34 AM 51.1°F10.6°C 48.3°F9.1°C 90% 4.5 mph SE7.2 kmh SE 6.0 mph9.7 kmh 30.25 in1024.4 mb 0.00 in0.0 mm 0.00 in0.0 mm 0.00 in0.0 mm
03:35 AM 51.1°F10.6°C 48.3°F9.1°C 90% 4.2 mph SE6.8 kmh SE 5.0 mph8.0 kmh 30.25 in1024.4 mb 0.00 in0.0 mm 0.00 in0.0 mm 0.00 in0.0 mm
03:36 AM 51.1°F10.6°C 48.3°F9.1°C 90% 4.1 mph SE6.6 kmh SE 5.0 mph8.0 kmh 30.25 in1024.4 mb 0.00 in0.0 mm 0.00 in0.0 mm 0.00 in0.0 mm
03:37 AM 51.1°F10.6°C 48.3°F9.1°C 90% 4.0 mph SE6.4 kmh SE 5.0 mph8.0 kmh 30.25 in1024.4 mb 0.00 in0.0 mm 0.00 in0.0 mm 0.00 in0.0 mm
03:38 AM 51.1°F10.6°C 48.3°F9.1°C 90% 4.0 mph SSE6.4 kmh SSE 5.0 mph8.0 kmh 30.25 in1024.4 mb 0.00 in0.0 mm 0.00 in0.0 mm 0.00 in0.0 mm
03:39 AM 51.1°F10.6°C 48.3°F9.1°C 90% 4.0 mph SSE6.4 kmh SSE 5.0 mph8.0 kmh 30.25 in1024.4 mb 0.00 in0.0 mm 0.00 in0.0 mm 0.00 in0.0 mm
03:40 AM 51.0°F10.6°C 48.2°F9.0°C 90% 4.0 mph SSE6.4 kmh SSE 5.0 mph8.0 kmh 30.25 in1024.4 mb 0.00 in0.0 mm 0.00 in0.0 mm 0.00 in0.0 mm
03:41 AM 50.9°F10.5°C 48.1°F8.9°C 90% 3.9 mph SE6.3 kmh SE 4.0 mph6.4 kmh 30.25 in1024.4 mb 0.00 in0.0 mm 0.00 in0.0 mm 0.00 in0.0 mm
03:42 AM 50.9°F10.5°C 48.1°F8.9°C 90% 3.9 mph SE6.3 kmh SE 4.0 mph6.4 kmh 30.25 in1024.4 mb 0.00 in0.0 mm 0.00 in0.0 mm 0.00 in0.0 mm
03:43 AM 50.9°F10.5°C 48.1°F8.9°C 90% 3.8 mph SE6.1 kmh SE 4.0 mph6.4 kmh 30.25 in1024.4 mb 0.00 in0.0 mm 0.00 in0.0 mm 0.00 in0.0 mm
03:44 AM 50.9°F10.5°C 48.1°F8.9°C 90% 3.8 mph SE6.1 kmh SE 4.0 mph6.4 kmh 30.25 in1024.4 mb 0.00 in0.0 mm 0.00 in0.0 mm 0.00 in0.0 mm
03:45 AM 50.9°F10.5°C 48.1°F8.9°C 90% 3.7 mph SE6.0 kmh SE 4.0 mph6.4 kmh 30.25 in1024.4 mb 0.00 in0.0 mm 0.00 in0.0 mm 0.00 in0.0 mm
03:46 AM 50.8°F10.4°C 48.0°F8.9°C 90% 3.2 mph SE5.1 kmh SE 4.0 mph6.4 kmh 30.25 in1024.4 mb 0.00 in0.0 mm 0.00 in0.0 mm 0.00 in0.0 mm
03:47 AM 50.7°F10.4°C 47.6°F8.7°C 89% 3.7 mph SE6.0 kmh SE 4.0 mph6.4 kmh 30.26 in1024.7 mb 0.00 in0.0 mm 0.00 in0.0 mm 0.00 in0.0 mm
03:48 AM 50.6°F10.3°C 47.5°F8.6°C 89% 3.8 mph SE6.1 kmh SE 4.0 mph6.4 kmh 30.26 in1024.7 mb 0.00 in0.0 mm 0.00 in0.0 mm 0.00 in0.0 mm
03:49 AM 50.6°F10.3°C 47.8°F8.8°C 90% 3.5 mph SE5.6 kmh SE 4.0 mph6.4 kmh 30.26 in1024.7 mb 0.00 in0.0 mm 0.00 in0.0 mm 0.00 in0.0 mm
03:50 AM 50.5°F10.3°C 47.7°F8.7°C 90% 3.2 mph SE5.1 kmh SE 4.0 mph6.4 kmh 30.26 in1024.7 mb 0.00 in0.0 mm 0.00 in0.0 mm 0.00 in0.0 mm
03:51 AM 50.5°F10.3°C 47.7°F8.7°C 90% 3.5 mph SE5.6 kmh SE 4.0 mph6.4 kmh 30.26 in1024.7 mb 0.00 in0.0 mm 0.00 in0.0 mm 0.00 in0.0 mm
03:52 AM 50.4°F10.2°C 47.6°F8.7°C 90% 3.2 mph SE5.1 kmh SE 4.0 mph6.4 kmh 30.26 in1024.7 mb 0.00 in0.0 mm 0.00 in0.0 mm 0.00 in0.0 mm
03:53 AM 50.4°F10.2°C 47.6°F8.7°C 90% 3.0 mph SE4.8 kmh SE 4.0 mph6.4 kmh 30.26 in1024.7 mb 0.00 in0.0 mm 0.00 in0.0 mm 0.00 in0.0 mm
03:54 AM 50.3°F10.2°C 47.5°F8.6°C 90% 2.8 mph SE4.5 kmh SE 3.0 mph4.8 kmh 30.26 in1024.7 mb 0.00 in0.0 mm 0.00 in0.0 mm 0.00 in0.0 mm
03:55 AM 50.2°F10.1°C 47.4°F8.6°C 90% 2.9 mph SE4.7 kmh SE 3.0 mph4.8 kmh 30.25 in1024.4 mb 0.00 in0.0 mm 0.00 in0.0 mm 0.00 in0.0 mm
03:56 AM 50.2°F10.1°C 47.4°F8.6°C 90% 2.9 mph SE4.7 kmh SE 3.0 mph4.8 kmh 30.26 in1024.7 mb 0.00 in0.0 mm 0.00 in0.0 mm 0.00 in0.0 mm
03:57 AM 50.2°F10.1°C 47.4°F8.6°C 90% 2.4 mph SE3.9 kmh SE 3.0 mph4.8 kmh 30.26 in1024.7 mb 0.00 in0.0 mm 0.00 in0.0 mm 0.00 in0.0 mm
03:58 AM 50.2°F10.1°C 47.4°F8.6°C 90% 2.4 mph SE3.9 kmh SE 3.0 mph4.8 kmh 30.26 in1024.7 mb 0.00 in0.0 mm 0.00 in0.0 mm 0.00 in0.0 mm
03:59 AM 50.2°F10.1°C 47.4°F8.6°C 90% 2.4 mph SE3.9 kmh SE 3.0 mph4.8 kmh 30.26 in1024.7 mb 0.00 in0.0 mm 0.00 in0.0 mm 0.00 in0.0 mm
04:00 AM 50.2°F10.1°C 47.4°F8.6°C 90% 2.2 mph SE3.5 kmh SE 3.0 mph4.8 kmh 30.26 in1024.7 mb 0.00 in0.0 mm 0.00 in0.0 mm 0.00 in0.0 mm
04:01 AM 50.1°F10.1°C 47.3°F8.5°C 90% 1.0 mph SE1.6 kmh SE 3.0 mph4.8 kmh 30.26 in1024.7 mb 0.00 in0.0 mm 0.00 in0.0 mm 0.00 in0.0 mm
04:02 AM 50.1°F10.1°C 47.3°F8.5°C 90% Calm Calm 2.0 mph3.2 kmh 30.26 in1024.7 mb 0.00 in0.0 mm 0.00 in0.0 mm 0.00 in0.0 mm
04:03 AM 50.2°F10.1°C 47.4°F8.6°C 90% Calm Calm 1.0 mph1.6 kmh 30.26 in1024.7 mb 0.00 in0.0 mm 0.00 in0.0 mm 0.00 in0.0 mm
04:04 AM 50.1°F10.1°C 47.3°F8.5°C 90% Calm Calm -- 30.26 in1024.7 mb 0.00 in0.0 mm 0.00 in0.0 mm 0.00 in0.0 mm
04:05 AM 50.1°F10.1°C 47.3°F8.5°C 90% 0.2 mph SE0.3 kmh SE 1.0 mph1.6 kmh 30.26 in1024.7 mb 0.00 in0.0 mm 0.00 in0.0 mm 0.00 in0.0 mm
04:06 AM 50.2°F10.1°C 47.4°F8.6°C 90% 0.5 mph SE0.8 kmh SE 1.0 mph1.6 kmh 30.26 in1024.7 mb 0.00 in0.0 mm 0.00 in0.0 mm 0.00 in0.0 mm
04:07 AM 50.2°F10.1°C 47.4°F8.6°C 90% 1.9 mph SE3.1 kmh SE 3.0 mph4.8 kmh 30.26 in1024.7 mb 0.00 in0.0 mm 0.00 in0.0 mm 0.00 in0.0 mm
04:08 AM 50.2°F10.1°C 47.4°F8.6°C 90% 2.5 mph SE4.0 kmh SE 3.0 mph4.8 kmh 30.26 in1024.7 mb 0.00 in0.0 mm 0.00 in0.0 mm 0.00 in0.0 mm
04:09 AM 50.2°F10.1°C 47.4°F8.6°C 90% 2.3 mph SE3.7 kmh SE 3.0 mph4.8 kmh 30.26 in1024.7 mb 0.00 in0.0 mm 0.00 in0.0 mm 0.00 in0.0 mm
04:10 AM 50.2°F10.1°C 47.4°F8.6°C 90% 2.1 mph SE3.4 kmh SE 3.0 mph4.8 kmh 30.26 in1024.7 mb 0.00 in0.0 mm 0.00 in0.0 mm 0.00 in0.0 mm
04:11 AM 50.2°F10.1°C 47.4°F8.6°C 90% 0.8 mph SE1.3 kmh SE 3.0 mph4.8 kmh 30.26 in1024.7 mb 0.00 in0.0 mm 0.00 in0.0 mm 0.00 in0.0 mm
04:12 AM 50.2°F10.1°C 47.4°F8.6°C 90% Calm Calm 2.0 mph3.2 kmh 30.26 in1024.7 mb 0.00 in0.0 mm 0.00 in0.0 mm 0.00 in0.0 mm
04:13 AM 50.2°F10.1°C 47.4°F8.6°C 90% 0.7 mph SE1.1 kmh SE 1.0 mph1.6 kmh 30.26 in1024.7 mb 0.00 in0.0 mm 0.00 in0.0 mm 0.00 in0.0 mm
04:14 AM 50.2°F10.1°C 47.4°F8.6°C 90% Calm Calm 1.0 mph1.6 kmh 30.26 in1024.7 mb 0.00 in0.0 mm 0.00 in0.0 mm 0.00 in0.0 mm
04:15 AM 50.2°F10.1°C 47.4°F8.6°C 90% Calm Calm 1.0 mph1.6 kmh 30.26 in1024.7 mb 0.00 in0.0 mm 0.00 in0.0 mm 0.00 in0.0 mm
04:16 AM 50.2°F10.1°C 47.4°F8.6°C 90% Calm Calm 1.0 mph1.6 kmh 30.26 in1024.7 mb 0.00 in0.0 mm 0.00 in0.0 mm 0.00 in0.0 mm
04:17 AM 50.2°F10.1°C 47.4°F8.6°C 90% Calm Calm -- 30.26 in1024.7 mb 0.00 in0.0 mm 0.00 in0.0 mm 0.00 in0.0 mm
04:18 AM 50.2°F10.1°C 47.4°F8.6°C 90% Calm Calm 1.0 mph1.6 kmh 30.26 in1024.7 mb 0.00 in0.0 mm 0.00 in0.0 mm 0.00 in0.0 mm
04:19 AM 50.2°F10.1°C 47.4°F8.6°C 90% 0.1 mph SE0.2 kmh SE 1.0 mph1.6 kmh 30.26 in1024.7 mb 0.00 in0.0 mm 0.00 in0.0 mm 0.00 in0.0 mm
04:20 AM 50.2°F10.1°C 47.4°F8.6°C 90% 0.2 mph SE0.3 kmh SE 1.0 mph1.6 kmh 30.26 in1024.7 mb 0.00 in0.0 mm 0.00 in0.0 mm 0.00 in0.0 mm
04:21 AM 50.1°F10.1°C 47.3°F8.5°C 90% 0.5 mph SE0.8 kmh SE 1.0 mph1.6 kmh 30.26 in1024.7 mb 0.00 in0.0 mm 0.00 in0.0 mm 0.00 in0.0 mm
04:22 AM 50.1°F10.1°C 47.3°F8.5°C 90% 2.3 mph SE3.7 kmh SE 3.0 mph4.8 kmh 30.26 in1024.7 mb 0.00 in0.0 mm 0.00 in0.0 mm 0.00 in0.0 mm
04:23 AM 50.1°F10.1°C 47.3°F8.5°C 90% 3.1 mph SE5.0 kmh SE 4.0 mph6.4 kmh 30.26 in1024.7 mb 0.00 in0.0 mm 0.00 in0.0 mm 0.00 in0.0 mm
04:24 AM 50.1°F10.1°C 47.3°F8.5°C 90% 2.9 mph SE4.7 kmh SE 4.0 mph6.4 kmh 30.26 in1024.7 mb 0.00 in0.0 mm 0.00 in0.0 mm 0.00 in0.0 mm
04:25 AM 50.0°F10.0°C 47.2°F8.4°C 90% 2.9 mph SE4.7 kmh SE 4.0 mph6.4 kmh 30.26 in1024.7 mb 0.00 in0.0 mm 0.00 in0.0 mm 0.00 in0.0 mm
04:26 AM 50.0°F10.0°C 47.2°F8.4°C 90% 2.6 mph SE4.2 kmh SE 4.0 mph6.4 kmh 30.26 in1024.7 mb 0.00 in0.0 mm 0.00 in0.0 mm 0.00 in0.0 mm
04:27 AM 50.0°F10.0°C 47.2°F8.4°C 90% 2.5 mph SE4.0 kmh SE 4.0 mph6.4 kmh 30.26 in1024.7 mb 0.00 in0.0 mm 0.00 in0.0 mm 0.00 in0.0 mm
04:28 AM 50.1°F10.1°C 47.3°F8.5°C 90% 2.6 mph SE4.2 kmh SE 3.0 mph4.8 kmh 30.26 in1024.7 mb 0.00 in0.0 mm 0.00 in0.0 mm 0.00 in0.0 mm
04:29 AM 50.2°F10.1°C 47.4°F8.6°C 90% 2.5 mph SE4.0 kmh SE 3.0 mph4.8 kmh 30.26 in1024.7 mb 0.00 in0.0 mm 0.00 in0.0 mm 0.00 in0.0 mm
04:30 AM 50.2°F10.1°C 47.7°F8.7°C 91% 2.2 mph SE3.5 kmh SE 3.0 mph4.8 kmh 30.26 in1024.7 mb 0.00 in0.0 mm 0.00 in0.0 mm 0.00 in0.0 mm
04:31 AM 50.3°F10.2°C 47.8°F8.8°C 91% 2.7 mph SE4.3 kmh SE 4.0 mph6.4 kmh 30.26 in1024.7 mb 0.00 in0.0 mm 0.00 in0.0 mm 0.00 in0.0 mm
04:32 AM 50.5°F10.3°C 48.0°F8.9°C 91% 3.1 mph SE5.0 kmh SE 4.0 mph6.4 kmh 30.26 in1024.7 mb 0.00 in0.0 mm 0.00 in0.0 mm 0.00 in0.0 mm
04:33 AM 50.6°F10.3°C 48.1°F8.9°C 91% 3.8 mph SSE6.1 kmh SSE 5.0 mph8.0 kmh 30.27 in1025.1 mb 0.00 in0.0 mm 0.00 in0.0 mm 0.00 in0.0 mm
04:34 AM 50.8°F10.4°C 48.3°F9.1°C 91% 4.4 mph SSE7.1 kmh SSE 6.0 mph9.7 kmh 30.26 in1024.7 mb 0.00 in0.0 mm 0.00 in0.0 mm 0.00 in0.0 mm
04:35 AM 51.0°F10.6°C 48.5°F9.2°C 91% 4.2 mph SSE6.8 kmh SSE 6.0 mph9.7 kmh 30.27 in1025.1 mb 0.00 in0.0 mm 0.00 in0.0 mm 0.00 in0.0 mm
04:36 AM 51.2°F10.7°C 48.7°F9.3°C 91% 3.9 mph SSE6.3 kmh SSE 5.0 mph8.0 kmh 30.27 in1025.1 mb 0.00 in0.0 mm 0.00 in0.0 mm 0.00 in0.0 mm
04:37 AM 51.2°F10.7°C 48.7°F9.3°C 91% 3.8 mph SSE6.1 kmh SSE 5.0 mph8.0 kmh 30.27 in1025.1 mb 0.00 in0.0 mm 0.00 in0.0 mm 0.00 in0.0 mm
04:38 AM 51.4°F10.8°C 48.9°F9.4°C 91% 3.6 mph SSE5.8 kmh SSE 5.0 mph8.0 kmh 30.27 in1025.1 mb 0.00 in0.0 mm 0.00 in0.0 mm 0.00 in0.0 mm
04:39 AM 51.5°F10.8°C 49.0°F9.4°C 91% 2.9 mph SSE4.7 kmh SSE 5.0 mph8.0 kmh 30.27 in1025.1 mb 0.00 in0.0 mm 0.00 in0.0 mm 0.00 in0.0 mm
04:40 AM 51.5°F10.8°C 49.0°F9.4°C 91% 3.4 mph SSE5.5 kmh SSE 4.0 mph6.4 kmh 30.27 in1025.1 mb 0.00 in0.0 mm 0.00 in0.0 mm 0.00 in0.0 mm
04:41 AM 51.5°F10.8°C 49.0°F9.4°C 91% 4.0 mph SSE6.4 kmh SSE 5.0 mph8.0 kmh 30.27 in1025.1 mb 0.00 in0.0 mm 0.00 in0.0 mm 0.00 in0.0 mm
04:42 AM 51.5°F10.8°C 49.0°F9.4°C 91% 5.0 mph SSE8.0 kmh SSE 5.0 mph8.0 kmh 30.27 in1025.1 mb 0.00 in0.0 mm 0.00 in0.0 mm 0.00 in0.0 mm
04:43 AM 51.6°F10.9°C 49.1°F9.5°C 91% 4.0 mph SSE6.4 kmh SSE 5.0 mph8.0 kmh 30.27 in1025.1 mb 0.00 in0.0 mm 0.00 in0.0 mm 0.00 in0.0 mm
04:44 AM 51.7°F10.9°C 49.2°F9.6°C 91% 4.3 mph S6.9 kmh S 5.0 mph8.0 kmh 30.27 in1025.1 mb 0.00 in0.0 mm 0.00 in0.0 mm 0.00 in0.0 mm
04:45 AM 51.7°F10.9°C 49.2°F9.6°C 91% 3.0 mph S4.8 kmh S 5.0 mph8.0 kmh 30.27 in1025.1 mb 0.00 in0.0 mm 0.00 in0.0 mm 0.00 in0.0 mm
04:46 AM 51.7°F10.9°C 49.2°F9.6°C 91% 2.1 mph S3.4 kmh S 4.0 mph6.4 kmh 30.27 in1025.1 mb 0.00 in0.0 mm 0.00 in0.0 mm 0.00 in0.0 mm
04:47 AM 51.8°F11.0°C 49.3°F9.6°C 91% 1.9 mph S3.1 kmh S 3.0 mph4.8 kmh 30.27 in1025.1 mb 0.00 in0.0 mm 0.00 in0.0 mm 0.00 in0.0 mm
04:48 AM 51.8°F11.0°C 49.3°F9.6°C 91% 2.2 mph S3.5 kmh S 3.0 mph4.8 kmh 30.27 in1025.1 mb 0.00 in0.0 mm 0.00 in0.0 mm 0.00 in0.0 mm
04:49 AM 51.8°F11.0°C 49.3°F9.6°C 91% 2.3 mph S3.7 kmh S 3.0 mph4.8 kmh 30.27 in1025.1 mb 0.00 in0.0 mm 0.00 in0.0 mm 0.00 in0.0 mm
04:50 AM 51.8°F11.0°C 49.3°F9.6°C 91% 2.7 mph S4.3 kmh S 3.0 mph4.8 kmh 30.27 in1025.1 mb 0.00 in0.0 mm 0.00 in0.0 mm 0.00 in0.0 mm
04:51 AM 51.9°F11.1°C 49.4°F9.7°C 91% 2.6 mph S4.2 kmh S 4.0 mph6.4 kmh 30.27 in1025.1 mb 0.00 in0.0 mm 0.00 in0.0 mm 0.00 in0.0 mm
04:52 AM 51.9°F11.1°C 49.4°F9.7°C 91% 2.9 mph S4.7 kmh S 4.0 mph6.4 kmh 30.27 in1025.1 mb 0.00 in0.0 mm 0.00 in0.0 mm 0.00 in0.0 mm
04:53 AM 52.0°F11.1°C 49.5°F9.7°C 91% 3.2 mph S5.1 kmh S 4.0 mph6.4 kmh 30.27 in1025.1 mb 0.00 in0.0 mm 0.00 in0.0 mm 0.00 in0.0 mm
04:54 AM 52.0°F11.1°C 49.5°F9.7°C 91% 2.3 mph S3.7 kmh S 4.0 mph6.4 kmh 30.27 in1025.1 mb 0.00 in0.0 mm 0.00 in0.0 mm 0.00 in0.0 mm
04:55 AM 52.1°F11.2°C 49.6°F9.8°C 91% 2.8 mph S4.5 kmh S 4.0 mph6.4 kmh 30.27 in1025.1 mb 0.00 in0.0 mm 0.00 in0.0 mm 0.00 in0.0 mm
04:56 AM 52.2°F11.2°C 49.7°F9.8°C 91% 3.0 mph S4.8 kmh S 4.0 mph6.4 kmh 30.27 in1025.1 mb 0.00 in0.0 mm 0.00 in0.0 mm 0.00 in0.0 mm
04:57 AM 52.3°F11.3°C 49.8°F9.9°C 91% 2.7 mph S4.3 kmh S 4.0 mph6.4 kmh 30.27 in1025.1 mb 0.00 in0.0 mm 0.00 in0.0 mm 0.00 in0.0 mm
04:58 AM 52.4°F11.3°C 49.8°F9.9°C 91% 2.9 mph S4.7 kmh S 4.0 mph6.4 kmh 30.27 in1025.1 mb 0.00 in0.0 mm 0.00 in0.0 mm 0.00 in0.0 mm
04:59 AM 52.6°F11.4°C 50.0°F10.0°C 91% 3.3 mph S5.3 kmh S 5.0 mph8.0 kmh 30.27 in1025.1 mb 0.00 in0.0 mm 0.00 in0.0 mm 0.00 in0.0 mm
05:00 AM 52.7°F11.5°C 50.1°F10.1°C 91% 3.9 mph S6.3 kmh S 5.0 mph8.0 kmh 30.27 in1025.1 mb 0.00 in0.0 mm 0.00 in0.0 mm 0.00 in0.0 mm
05:01 AM 52.8°F11.6°C 50.5°F10.3°C 92% 3.8 mph S6.1 kmh S 5.0 mph8.0 kmh 30.27 in1025.1 mb 0.00 in0.0 mm 0.00 in0.0 mm 0.00 in0.0 mm
05:02 AM 52.9°F11.6°C 50.6°F10.3°C 92% 3.3 mph S5.3 kmh S 5.0 mph8.0 kmh 30.27 in1025.1 mb 0.00 in0.0 mm 0.00 in0.0 mm 0.00 in0.0 mm
05:03 AM 53.1°F11.7°C 50.5°F10.3°C 91% 3.3 mph S5.3 kmh S 4.0 mph6.4 kmh 30.27 in1025.1 mb 0.00 in0.0 mm 0.00 in0.0 mm 0.00 in0.0 mm
05:04 AM 53.2°F11.8°C 50.6°F10.3°C 91% 4.3 mph S6.9 kmh S 6.0 mph9.7 kmh 30.27 in1025.1 mb 0.00 in0.0 mm 0.00 in0.0 mm 0.00 in0.0 mm
05:05 AM 53.3°F11.8°C 50.7°F10.4°C 91% 4.1 mph S6.6 kmh S 6.0 mph9.7 kmh 30.27 in1025.1 mb 0.00 in0.0 mm 0.00 in0.0 mm 0.00 in0.0 mm
05:06 AM 53.3°F11.8°C 50.7°F10.4°C 91% 4.1 mph S6.6 kmh S 5.0 mph8.0 kmh 30.27 in1025.1 mb 0.00 in0.0 mm 0.00 in0.0 mm 0.00 in0.0 mm
05:07 AM 53.4°F11.9°C 50.8°F10.4°C 91% 4.4 mph SSW7.1 kmh SSW 6.0 mph9.7 kmh 30.27 in1025.1 mb 0.00 in0.0 mm 0.00 in0.0 mm 0.00 in0.0 mm
05:08 AM 53.4°F11.9°C 50.8°F10.4°C 91% 4.5 mph SSW7.2 kmh SSW 6.0 mph9.7 kmh 30.27 in1025.1 mb 0.00 in0.0 mm 0.00 in0.0 mm 0.00 in0.0 mm
05:09 AM 53.5°F11.9°C 50.9°F10.5°C 91% 3.8 mph SSW6.1 kmh SSW 5.0 mph8.0 kmh 30.27 in1025.1 mb 0.00 in0.0 mm 0.00 in0.0 mm 0.00 in0.0 mm
05:10 AM 53.5°F11.9°C 50.9°F10.5°C 91% 3.8 mph SSW6.1 kmh SSW 5.0 mph8.0 kmh 30.27 in1025.1 mb 0.00 in0.0 mm 0.00 in0.0 mm 0.00 in0.0 mm
05:11 AM 53.5°F11.9°C 50.9°F10.5°C 91% 4.1 mph SSW6.6 kmh SSW 6.0 mph9.7 kmh 30.27 in1025.1 mb 0.00 in0.0 mm 0.00 in0.0 mm 0.00 in0.0 mm
05:12 AM 53.5°F11.9°C 50.9°F10.5°C 91% 3.9 mph SSW6.3 kmh SSW 6.0 mph9.7 kmh 30.27 in1025.1 mb 0.00 in0.0 mm 0.00 in0.0 mm 0.00 in0.0 mm
05:13 AM 53.5°F11.9°C 50.9°F10.5°C 91% 4.6 mph SSW7.4 kmh SSW 6.0 mph9.7 kmh 30.28 in1025.4 mb 0.00 in0.0 mm 0.00 in0.0 mm 0.00 in0.0 mm
05:14 AM 53.6°F12.0°C 51.0°F10.6°C 91% 4.2 mph SSW6.8 kmh SSW 6.0 mph9.7 kmh 30.28 in1025.4 mb 0.00 in0.0 mm 0.00 in0.0 mm 0.00 in0.0 mm
05:15 AM 53.6°F12.0°C 51.0°F10.6°C 91% 4.2 mph SSW6.8 kmh SSW 5.0 mph8.0 kmh 30.28 in1025.4 mb 0.00 in0.0 mm 0.00 in0.0 mm 0.00 in0.0 mm
05:16 AM 53.7°F12.1°C 51.1°F10.6°C 91% 4.0 mph SSW6.4 kmh SSW 5.0 mph8.0 kmh 30.28 in1025.4 mb 0.00 in0.0 mm 0.00 in0.0 mm 0.00 in0.0 mm
05:17 AM 53.7°F12.1°C 51.1°F10.6°C 91% 4.0 mph SSW6.4 kmh SSW 5.0 mph8.0 kmh 30.28 in1025.4 mb 0.00 in0.0 mm 0.00 in0.0 mm 0.00 in0.0 mm
05:18 AM 53.7°F12.1°C 51.1°F10.6°C 91% 4.7 mph SSW7.6 kmh SSW 5.0 mph8.0 kmh 30.28 in1025.4 mb 0.00 in0.0 mm 0.00 in0.0 mm 0.00 in0.0 mm
05:19 AM 53.7°F12.1°C 51.1°F10.6°C 91% 3.7 mph SSW6.0 kmh SSW 5.0 mph8.0 kmh 30.28 in1025.4 mb 0.00 in0.0 mm 0.00 in0.0 mm 0.00 in0.0 mm
05:20 AM 53.8°F12.1°C 51.2°F10.7°C 91% 3.8 mph SSW6.1 kmh SSW 5.0 mph8.0 kmh 30.28 in1025.4 mb 0.00 in0.0 mm 0.00 in0.0 mm 0.00 in0.0 mm
05:21 AM 53.8°F12.1°C 51.2°F10.7°C 91% 4.0 mph SSW6.4 kmh SSW 5.0 mph8.0 kmh 30.28 in1025.4 mb 0.00 in0.0 mm 0.00 in0.0 mm 0.00 in0.0 mm
05:22 AM 53.8°F12.1°C 51.2°F10.7°C 91% 4.0 mph SSW6.4 kmh SSW 5.0 mph8.0 kmh 30.28 in1025.4 mb 0.00 in0.0 mm 0.00 in0.0 mm 0.00 in0.0 mm
05:23 AM 53.8°F12.1°C 51.2°F10.7°C 91% 3.7 mph SSW6.0 kmh SSW 5.0 mph8.0 kmh 30.28 in1025.4 mb 0.00 in0.0 mm 0.00 in0.0 mm 0.00 in0.0 mm
05:24 AM 53.9°F12.2°C 51.3°F10.7°C 91% 4.5 mph SSW7.2 kmh SSW 5.0 mph8.0 kmh 30.28 in1025.4 mb 0.00 in0.0 mm 0.00 in0.0 mm 0.00 in0.0 mm
05:25 AM 53.9°F12.2°C 51.3°F10.7°C 91% 3.8 mph SSW6.1 kmh SSW 5.0 mph8.0 kmh 30.28 in1025.4 mb 0.00 in0.0 mm 0.00 in0.0 mm 0.00 in0.0 mm
05:26 AM 53.9°F12.2°C 51.3°F10.7°C 91% 3.7 mph SSW6.0 kmh SSW 5.0 mph8.0 kmh 30.28 in1025.4 mb 0.00 in0.0 mm 0.00 in0.0 mm 0.00 in0.0 mm
05:27 AM 54.0°F12.2°C 51.4°F10.8°C 91% 3.5 mph SSW5.6 kmh SSW 5.0 mph8.0 kmh 30.28 in1025.4 mb 0.00 in0.0 mm 0.00 in0.0 mm 0.00 in0.0 mm
05:28 AM 53.9°F12.2°C 51.3°F10.7°C 91% 4.1 mph SSW6.6 kmh SSW 5.0 mph8.0 kmh 30.28 in1025.4 mb 0.00 in0.0 mm 0.00 in0.0 mm 0.00 in0.0 mm
05:29 AM 53.9°F12.2°C 51.3°F10.7°C 91% 4.0 mph SSW6.4 kmh SSW 5.0 mph8.0 kmh 30.28 in1025.4 mb 0.00 in0.0 mm 0.00 in0.0 mm 0.00 in0.0 mm
05:30 AM 54.0°F12.2°C 51.4°F10.8°C 91% 3.9 mph SSW6.3 kmh SSW 5.0 mph8.0 kmh 30.28 in1025.4 mb 0.00 in0.0 mm 0.00 in0.0 mm 0.00 in0.0 mm
05:31 AM 54.0°F12.2°C 51.4°F10.8°C 91% 3.8 mph SSW6.1 kmh SSW 6.0 mph9.7 kmh 30.28 in1025.4 mb 0.00 in0.0 mm 0.00 in0.0 mm 0.00 in0.0 mm
05:32 AM 54.0°F12.2°C 51.4°F10.8°C 91% 3.9 mph SSW6.3 kmh SSW 6.0 mph9.7 kmh 30.28 in1025.4 mb 0.00 in0.0 mm 0.00 in0.0 mm 0.00 in0.0 mm
05:33 AM 54.0°F12.2°C 51.4°F10.8°C 91% 3.6 mph SSW5.8 kmh SSW 5.0 mph8.0 kmh 30.28 in1025.4 mb 0.00 in0.0 mm 0.00 in0.0 mm 0.00 in0.0 mm
05:34 AM 54.1°F12.3°C 51.5°F10.8°C 91% 3.5 mph SSW5.6 kmh SSW 5.0 mph8.0 kmh 30.28 in1025.4 mb 0.00 in0.0 mm 0.00 in0.0 mm 0.00 in0.0 mm
05:35 AM 54.1°F12.3°C 51.5°F10.8°C 91% 3.2 mph SSW5.1 kmh SSW 4.0 mph6.4 kmh 30.28 in1025.4 mb 0.00 in0.0 mm 0.00 in0.0 mm 0.00 in0.0 mm
05:36 AM 54.1°F12.3°C 51.5°F10.8°C 91% 3.4 mph SSW5.5 kmh SSW 5.0 mph8.0 kmh 30.28 in1025.4 mb 0.00 in0.0 mm 0.00 in0.0 mm 0.00 in0.0 mm
05:37 AM 54.1°F12.3°C 51.5°F10.8°C 91% 4.3 mph SSW6.9 kmh SSW 5.0 mph8.0 kmh 30.28 in1025.4 mb 0.00 in0.0 mm 0.00 in0.0 mm 0.00 in0.0 mm
05:38 AM 54.0°F12.2°C 51.4°F10.8°C 91% 4.1 mph SSW6.6 kmh SSW 6.0 mph9.7 kmh 30.28 in1025.4 mb 0.00 in0.0 mm 0.00 in0.0 mm 0.00 in0.0 mm
05:39 AM 54.1°F12.3°C 51.5°F10.8°C 91% 4.5 mph SSW7.2 kmh SSW 6.0 mph9.7 kmh 30.28 in1025.4 mb 0.00 in0.0 mm 0.00 in0.0 mm 0.00 in0.0 mm
05:40 AM 54.1°F12.3°C 51.5°F10.8°C 91% 3.8 mph SSW6.1 kmh SSW 5.0 mph8.0 kmh 30.28 in1025.4 mb 0.00 in0.0 mm 0.00 in0.0 mm 0.00 in0.0 mm
05:41 AM 54.1°F12.3°C 51.5°F10.8°C 91% 4.0 mph SSW6.4 kmh SSW 5.0 mph8.0 kmh 30.28 in1025.4 mb 0.00 in0.0 mm 0.00 in0.0 mm 0.00 in0.0 mm
05:42 AM 54.1°F12.3°C 51.5°F10.8°C 91% 4.2 mph SSW6.8 kmh SSW 6.0 mph9.7 kmh 30.28 in1025.4 mb 0.00 in0.0 mm 0.00 in0.0 mm 0.00 in0.0 mm
05:43 AM 54.1°F12.3°C 51.5°F10.8°C 91% 4.4 mph SSW7.1 kmh SSW 6.0 mph9.7 kmh 30.28 in1025.4 mb 0.00 in0.0 mm 0.00 in0.0 mm 0.00 in0.0 mm
05:44 AM 54.2°F12.3°C 51.6°F10.9°C 91% 4.6 mph SSW7.4 kmh SSW 6.0 mph9.7 kmh 30.28 in1025.4 mb 0.00 in0.0 mm 0.00 in0.0 mm 0.00 in0.0 mm
05:45 AM 54.2°F12.3°C 51.6°F10.9°C 91% 4.4 mph SSW7.1 kmh SSW 6.0 mph9.7 kmh 30.28 in1025.4 mb 0.00 in0.0 mm 0.00 in0.0 mm 0.00 in0.0 mm
05:46 AM 54.2°F12.3°C 51.6°F10.9°C 91% 4.9 mph SSW7.9 kmh SSW 5.0 mph8.0 kmh 30.28 in1025.4 mb 0.00 in0.0 mm 0.00 in0.0 mm 0.00 in0.0 mm
05:47 AM 54.1°F12.3°C 51.5°F10.8°C 91% 5.2 mph SSW8.4 kmh SSW 6.0 mph9.7 kmh 30.28 in1025.4 mb 0.00 in0.0 mm 0.00 in0.0 mm 0.00 in0.0 mm
05:48 AM 54.2°F12.3°C 51.6°F10.9°C 91% 4.7 mph SSW7.6 kmh SSW 6.0 mph9.7 kmh 30.28 in1025.4 mb 0.00 in0.0 mm 0.00 in0.0 mm 0.00 in0.0 mm
05:49 AM 54.2°F12.3°C 51.3°F10.7°C 90% 3.5 mph SSW5.6 kmh SSW 5.0 mph8.0 kmh 30.28 in1025.4 mb 0.00 in0.0 mm 0.00 in0.0 mm 0.00 in0.0 mm
05:50 AM 54.2°F12.3°C 51.3°F10.7°C 90% 3.7 mph SSW6.0 kmh SSW 6.0 mph9.7 kmh 30.28 in1025.4 mb 0.00 in0.0 mm 0.00 in0.0 mm 0.00 in0.0 mm
05:51 AM 54.2°F12.3°C 51.3°F10.7°C 90% 3.9 mph SSW6.3 kmh SSW 6.0 mph9.7 kmh 30.28 in1025.4 mb 0.00 in0.0 mm 0.00 in0.0 mm 0.00 in0.0 mm
05:52 AM 54.2°F12.3°C 51.3°F10.7°C 90% 3.8 mph SSW6.1 kmh SSW 5.0 mph8.0 kmh 30.28 in1025.4 mb 0.00 in0.0 mm 0.00 in0.0 mm 0.00 in0.0 mm
05:53 AM 54.3°F12.4°C 51.4°F10.8°C 90% 3.0 mph SSW4.8 kmh SSW 5.0 mph8.0 kmh 30.28 in1025.4 mb 0.00 in0.0 mm 0.00 in0.0 mm 0.00 in0.0 mm
05:54 AM 54.3°F12.4°C 51.4°F10.8°C 90% 2.9 mph SSW4.7 kmh SSW 4.0 mph6.4 kmh 30.28 in1025.4 mb 0.00 in0.0 mm 0.00 in0.0 mm 0.00 in0.0 mm
05:55 AM 54.4°F12.4°C 51.8°F11.0°C 91% 3.5 mph SSW5.6 kmh SSW 4.0 mph6.4 kmh 30.28 in1025.4 mb 0.00 in0.0 mm 0.00 in0.0 mm 0.00 in0.0 mm
05:56 AM 54.4°F12.4°C 51.8°F11.0°C 91% 4.7 mph SSW7.6 kmh SSW 6.0 mph9.7 kmh 30.28 in1025.4 mb 0.00 in0.0 mm 0.00 in0.0 mm 0.00 in0.0 mm
05:57 AM 54.4°F12.4°C 51.5°F10.8°C 90% 4.8 mph SSW7.7 kmh SSW 6.0 mph9.7 kmh 30.28 in1025.4 mb 0.00 in0.0 mm 0.00 in0.0 mm 0.00 in0.0 mm
05:58 AM 54.3°F12.4°C 51.4°F10.8°C 90% 5.1 mph SSW8.2 kmh SSW 6.0 mph9.7 kmh 30.28 in1025.4 mb 0.00 in0.0 mm 0.00 in0.0 mm 0.00 in0.0 mm
05:59 AM 54.3°F12.4°C 51.4°F10.8°C 90% 4.2 mph SSW6.8 kmh SSW 6.0 mph9.7 kmh 30.28 in1025.4 mb 0.00 in0.0 mm 0.00 in0.0 mm 0.00 in0.0 mm
06:00 AM 54.3°F12.4°C 51.4°F10.8°C 90% 3.0 mph SSW4.8 kmh SSW 5.0 mph8.0 kmh 30.28 in1025.4 mb 0.00 in0.0 mm 0.00 in0.0 mm 0.00 in0.0 mm
06:01 AM 54.2°F12.3°C 51.3°F10.7°C 90% 4.0 mph SSW6.4 kmh SSW 5.0 mph8.0 kmh 30.28 in1025.4 mb 0.00 in0.0 mm 0.00 in0.0 mm 0.00 in0.0 mm
06:02 AM 54.2°F12.3°C 51.3°F10.7°C 90% 4.6 mph SSW7.4 kmh SSW 5.0 mph8.0 kmh 30.28 in1025.4 mb 0.00 in0.0 mm 0.00 in0.0 mm 0.00 in0.0 mm
06:03 AM 54.2°F12.3°C 51.3°F10.7°C 90% 4.7 mph SSW7.6 kmh SSW 5.0 mph8.0 kmh 30.28 in1025.4 mb 0.00 in0.0 mm 0.00 in0.0 mm 0.00 in0.0 mm
06:04 AM 54.2°F12.3°C 51.3°F10.7°C 90% 4.8 mph SSW7.7 kmh SSW 6.0 mph9.7 kmh 30.28 in1025.4 mb 0.00 in0.0 mm 0.00 in0.0 mm 0.00 in0.0 mm
06:05 AM 54.2°F12.3°C 51.3°F10.7°C 90% 4.4 mph SSW7.1 kmh SSW 6.0 mph9.7 kmh 30.28 in1025.4 mb 0.00 in0.0 mm 0.00 in0.0 mm 0.00 in0.0 mm
06:06 AM 54.2°F12.3°C 51.3°F10.7°C 90% 4.2 mph SSW6.8 kmh SSW 5.0 mph8.0 kmh 30.28 in1025.4 mb 0.00 in0.0 mm 0.00 in0.0 mm 0.00 in0.0 mm
06:07 AM 54.3°F12.4°C 51.4°F10.8°C 90% 5.0 mph SSW8.0 kmh SSW 7.0 mph11.3 kmh 30.28 in1025.4 mb 0.00 in0.0 mm 0.00 in0.0 mm 0.00 in0.0 mm
06:08 AM 54.2°F12.3°C 51.3°F10.7°C 90% 4.5 mph SSW7.2 kmh SSW 7.0 mph11.3 kmh 30.28 in1025.4 mb 0.00 in0.0 mm 0.00 in0.0 mm 0.00 in0.0 mm
06:09 AM 54.3°F12.4°C 51.4°F10.8°C 90% 4.2 mph SSW6.8 kmh SSW 5.0 mph8.0 kmh 30.28 in1025.4 mb 0.00 in0.0 mm 0.00 in0.0 mm 0.00 in0.0 mm
06:10 AM 54.2°F12.3°C 51.3°F10.7°C 90% 4.3 mph SSW6.9 kmh SSW 5.0 mph8.0 kmh 30.28 in1025.4 mb 0.00 in0.0 mm 0.00 in0.0 mm 0.00 in0.0 mm
06:11 AM 54.3°F12.4°C 51.4°F10.8°C 90% 3.5 mph SSW5.6 kmh SSW 5.0 mph8.0 kmh 30.28 in1025.4 mb 0.00 in0.0 mm 0.00 in0.0 mm 0.00 in0.0 mm
06:12 AM 54.3°F12.4°C 51.4°F10.8°C 90% 3.5 mph SSW5.6 kmh SSW 5.0 mph8.0 kmh 30.28 in1025.4 mb 0.00 in0.0 mm 0.00 in0.0 mm 0.00 in0.0 mm
06:13 AM 54.4°F12.4°C 51.5°F10.8°C 90% 3.9 mph SSW6.3 kmh SSW 5.0 mph8.0 kmh 30.28 in1025.4 mb 0.00 in0.0 mm 0.00 in0.0 mm 0.00 in0.0 mm
06:14 AM 54.4°F12.4°C 51.5°F10.8°C 90% 3.7 mph SSW6.0 kmh SSW 5.0 mph8.0 kmh 30.29 in1025.7 mb 0.00 in0.0 mm 0.00 in0.0 mm 0.00 in0.0 mm
06:15 AM 54.4°F12.4°C 51.5°F10.8°C 90% 3.6 mph SSW5.8 kmh SSW 5.0 mph8.0 kmh 30.29 in1025.7 mb 0.00 in0.0 mm 0.00 in0.0 mm 0.00 in0.0 mm
06:16 AM 54.4°F12.4°C 51.5°F10.8°C 90% 3.7 mph SSW6.0 kmh SSW 5.0 mph8.0 kmh 30.28 in1025.4 mb 0.00 in0.0 mm 0.00 in0.0 mm 0.00 in0.0 mm
06:17 AM 54.5°F12.5°C 51.6°F10.9°C 90% 3.7 mph SSW6.0 kmh SSW 5.0 mph8.0 kmh 30.29 in1025.7 mb 0.00 in0.0 mm 0.00 in0.0 mm 0.00 in0.0 mm
06:18 AM 54.5°F12.5°C 51.3°F10.7°C 89% 3.8 mph SSW6.1 kmh SSW 5.0 mph8.0 kmh 30.29 in1025.7 mb 0.00 in0.0 mm 0.00 in0.0 mm 0.00 in0.0 mm
06:19 AM 54.6°F12.6°C 51.4°F10.8°C 89% 3.9 mph SSW6.3 kmh SSW 5.0 mph8.0 kmh 30.29 in1025.7 mb 0.00 in0.0 mm 0.00 in0.0 mm 0.00 in0.0 mm
06:20 AM 54.6°F12.6°C 51.4°F10.8°C 89% 4.3 mph SSW6.9 kmh SSW 5.0 mph8.0 kmh 30.29 in1025.7 mb 0.00 in0.0 mm 0.00 in0.0 mm 0.00 in0.0 mm
06:21 AM 54.6°F12.6°C 51.4°F10.8°C 89% 4.0 mph SSW6.4 kmh SSW 5.0 mph8.0 kmh 30.29 in1025.7 mb 0.00 in0.0 mm 0.00 in0.0 mm 0.00 in0.0 mm
06:22 AM 54.7°F12.6°C 51.5°F10.8°C 89% 3.7 mph SSW6.0 kmh SSW 5.0 mph8.0 kmh 30.29 in1025.7 mb 0.00 in0.0 mm 0.00 in0.0 mm 0.00 in0.0 mm
06:23 AM 54.7°F12.6°C 51.5°F10.8°C 89% 3.5 mph SSW5.6 kmh SSW 5.0 mph8.0 kmh 30.29 in1025.7 mb 0.00 in0.0 mm 0.00 in0.0 mm 0.00 in0.0 mm
06:24 AM 54.8°F12.7°C 51.6°F10.9°C 89% 4.2 mph SSW6.8 kmh SSW 5.0 mph8.0 kmh 30.29 in1025.7 mb 0.00 in0.0 mm 0.00 in0.0 mm 0.00 in0.0 mm
06:25 AM 54.8°F12.7°C 51.6°F10.9°C 89% 4.1 mph SSW6.6 kmh SSW 6.0 mph9.7 kmh 30.29 in1025.7 mb 0.00 in0.0 mm 0.00 in0.0 mm 0.00 in0.0 mm
06:26 AM 54.9°F12.7°C 51.7°F10.9°C 89% 3.8 mph SSW6.1 kmh SSW 6.0 mph9.7 kmh 30.29 in1025.7 mb 0.00 in0.0 mm 0.00 in0.0 mm 0.00 in0.0 mm
06:27 AM 54.9°F12.7°C 51.7°F10.9°C 89% 2.5 mph SSW4.0 kmh SSW 5.0 mph8.0 kmh 30.29 in1025.7 mb 0.00 in0.0 mm 0.00 in0.0 mm 0.00 in0.0 mm
06:28 AM 55.0°F12.8°C 51.8°F11.0°C 89% 3.2 mph SSW5.1 kmh SSW 4.0 mph6.4 kmh 30.29 in1025.7 mb 0.00 in0.0 mm 0.00 in0.0 mm 0.00 in0.0 mm
06:29 AM 55.0°F12.8°C 51.8°F11.0°C 89% 3.0 mph SSW4.8 kmh SSW 4.0 mph6.4 kmh 30.29 in1025.7 mb 0.00 in0.0 mm 0.00 in0.0 mm 0.00 in0.0 mm
06:30 AM 55.1°F12.8°C 51.9°F11.1°C 89% 3.0 mph SSW4.8 kmh SSW 3.0 mph4.8 kmh 30.29 in1025.7 mb 0.00 in0.0 mm 0.00 in0.0 mm 0.00 in0.0 mm
06:31 AM 55.2°F12.9°C 52.0°F11.1°C 89% 2.5 mph SSW4.0 kmh SSW 3.0 mph4.8 kmh 30.29 in1025.7 mb 0.00 in0.0 mm 0.00 in0.0 mm 0.00 in0.0 mm
06:32 AM 55.2°F12.9°C 52.0°F11.1°C 89% 2.6 mph SSW4.2 kmh SSW 4.0 mph6.4 kmh 30.29 in1025.7 mb 0.00 in0.0 mm 0.00 in0.0 mm 0.00 in0.0 mm
06:33 AM 55.3°F12.9°C 52.1°F11.2°C 89% 2.5 mph SSW4.0 kmh SSW 4.0 mph6.4 kmh 30.29 in1025.7 mb 0.00 in0.0 mm 0.00 in0.0 mm 0.00 in0.0 mm
06:34 AM 55.3°F12.9°C 52.1°F11.2°C 89% 3.3 mph SSW5.3 kmh SSW 4.0 mph6.4 kmh 30.29 in1025.7 mb 0.00 in0.0 mm 0.00 in0.0 mm 0.00 in0.0 mm
06:35 AM 55.4°F13.0°C 52.2°F11.2°C 89% 3.3 mph SSW5.3 kmh SSW 4.0 mph6.4 kmh 30.29 in1025.7 mb 0.00 in0.0 mm 0.00 in0.0 mm 0.00 in0.0 mm
06:36 AM 55.4°F13.0°C 51.9°F11.1°C 88% 2.2 mph SSW3.5 kmh SSW 4.0 mph6.4 kmh 30.29 in1025.7 mb 0.00 in0.0 mm 0.00 in0.0 mm 0.00 in0.0 mm
06:37 AM 55.4°F13.0°C 51.9°F11.1°C 88% 2.0 mph SSW3.2 kmh SSW 3.0 mph4.8 kmh 30.29 in1025.7 mb 0.00 in0.0 mm 0.00 in0.0 mm 0.00 in0.0 mm
06:38 AM 55.5°F13.1°C 52.0°F11.1°C 88% 2.2 mph SSW3.5 kmh SSW 3.0 mph4.8 kmh 30.29 in1025.7 mb 0.00 in0.0 mm 0.00 in0.0 mm 0.00 in0.0 mm
06:39 AM 55.5°F13.1°C 52.0°F11.1°C 88% 2.3 mph SSW3.7 kmh SSW 3.0 mph4.8 kmh 30.29 in1025.7 mb 0.00 in0.0 mm 0.00 in0.0 mm 0.00 in0.0 mm
06:40 AM 55.6°F13.1°C 52.1°F11.2°C 88% 2.5 mph SSW4.0 kmh SSW 3.0 mph4.8 kmh 30.29 in1025.7 mb 0.00 in0.0 mm 0.00 in0.0 mm 0.00 in0.0 mm
06:41 AM 55.6°F13.1°C 52.1°F11.2°C 88% 2.1 mph SSW3.4 kmh SSW 3.0 mph4.8 kmh 30.29 in1025.7 mb 0.00 in0.0 mm 0.00 in0.0 mm 0.00 in0.0 mm
06:42 AM 55.7°F13.2°C 52.2°F11.2°C 88% 2.3 mph SSW3.7 kmh SSW 3.0 mph4.8 kmh 30.29 in1025.7 mb 0.00 in0.0 mm 0.00 in0.0 mm 0.00 in0.0 mm
06:43 AM 55.9°F13.3°C 52.4°F11.3°C 88% 1.0 mph SSW1.6 kmh SSW 3.0 mph4.8 kmh 30.29 in1025.7 mb 0.00 in0.0 mm 0.00 in0.0 mm 0.00 in0.0 mm
06:44 AM 55.9°F13.3°C 52.4°F11.3°C 88% 1.9 mph SSW3.1 kmh SSW 3.0 mph4.8 kmh 30.29 in1025.7 mb 0.00 in0.0 mm 0.00 in0.0 mm 0.00 in0.0 mm
06:45 AM 56.0°F13.3°C 52.5°F11.4°C 88% 2.5 mph SSW4.0 kmh SSW 4.0 mph6.4 kmh 30.29 in1025.7 mb 0.00 in0.0 mm 0.00 in0.0 mm 0.00 in0.0 mm
06:46 AM 56.0°F13.3°C 52.5°F11.4°C 88% 2.6 mph SSW4.2 kmh SSW 5.0 mph8.0 kmh 30.29 in1025.7 mb 0.00 in0.0 mm 0.00 in0.0 mm 0.00 in0.0 mm
06:47 AM 56.0°F13.3°C 52.5°F11.4°C 88% 2.3 mph SSW3.7 kmh SSW 5.0 mph8.0 kmh 30.29 in1025.7 mb 0.00 in0.0 mm 0.00 in0.0 mm 0.00 in0.0 mm
06:48 AM 56.0°F13.3°C 52.2°F11.2°C 87% 2.3 mph SSW3.7 kmh SSW 3.0 mph4.8 kmh 30.29 in1025.7 mb 0.00 in0.0 mm 0.00 in0.0 mm 0.00 in0.0 mm
06:49 AM 56.1°F13.4°C 52.3°F11.3°C 87% 2.6 mph SSW4.2 kmh SSW 4.0 mph6.4 kmh 30.29 in1025.7 mb 0.00 in0.0 mm 0.00 in0.0 mm 0.00 in0.0 mm
06:50 AM 56.2°F13.4°C 52.4°F11.3°C 87% 3.6 mph SSW5.8 kmh SSW 4.0 mph6.4 kmh 30.29 in1025.7 mb 0.00 in0.0 mm 0.00 in0.0 mm 0.00 in0.0 mm
06:51 AM 56.2°F13.4°C 52.4°F11.3°C 87% 2.8 mph SSW4.5 kmh SSW 4.0 mph6.4 kmh 30.29 in1025.7 mb 0.00 in0.0 mm 0.00 in0.0 mm 0.00 in0.0 mm
06:52 AM 56.2°F13.4°C 52.4°F11.3°C 87% 2.1 mph SSW3.4 kmh SSW 4.0 mph6.4 kmh 30.29 in1025.7 mb 0.00 in0.0 mm 0.00 in0.0 mm 0.00 in0.0 mm
06:53 AM 56.2°F13.4°C 52.4°F11.3°C 87% 1.3 mph SSW2.1 kmh SSW 3.0 mph4.8 kmh 30.29 in1025.7 mb 0.00 in0.0 mm 0.00 in0.0 mm 0.00 in0.0 mm
06:54 AM 56.3°F13.5°C 52.5°F11.4°C 87% 0.9 mph SSW1.4 kmh SSW 2.0 mph3.2 kmh 30.29 in1025.7 mb 0.00 in0.0 mm 0.00 in0.0 mm 0.00 in0.0 mm
06:55 AM 56.3°F13.5°C 52.5°F11.4°C 87% 1.0 mph SSW1.6 kmh SSW 2.0 mph3.2 kmh 30.29 in1025.7 mb 0.00 in0.0 mm 0.00 in0.0 mm 0.00 in0.0 mm
06:56 AM 56.4°F13.6°C 52.6°F11.4°C 87% 1.5 mph SSW2.4 kmh SSW 3.0 mph4.8 kmh 30.29 in1025.7 mb 0.00 in0.0 mm 0.00 in0.0 mm 0.00 in0.0 mm
06:57 AM 56.4°F13.6°C 52.6°F11.4°C 87% 1.7 mph SSW2.7 kmh SSW 3.0 mph4.8 kmh 30.29 in1025.7 mb 0.00 in0.0 mm 0.00 in0.0 mm 0.00 in0.0 mm
06:58 AM 56.5°F13.6°C 52.7°F11.5°C 87% 1.8 mph SSW2.9 kmh SSW 2.0 mph3.2 kmh 30.29 in1025.7 mb 0.00 in0.0 mm 0.00 in0.0 mm 0.00 in0.0 mm
06:59 AM 56.6°F13.7°C 52.8°F11.6°C 87% 2.0 mph SSW3.2 kmh SSW 3.0 mph4.8 kmh 30.29 in1025.7 mb 0.00 in0.0 mm 0.00 in0.0 mm 0.00 in0.0 mm
07:00 AM 56.6°F13.7°C 52.5°F11.4°C 86% 2.2 mph SSW3.5 kmh SSW 3.0 mph4.8 kmh 30.29 in1025.7 mb 0.00 in0.0 mm 0.00 in0.0 mm 0.00 in0.0 mm
07:01 AM 56.6°F13.7°C 52.5°F11.4°C 86% 1.7 mph SSW2.7 kmh SSW 3.0 mph4.8 kmh 30.29 in1025.7 mb 0.00 in0.0 mm 0.00 in0.0 mm 0.00 in0.0 mm
07:02 AM 56.7°F13.7°C 52.6°F11.4°C 86% 1.6 mph SSW2.6 kmh SSW 3.0 mph4.8 kmh 30.29 in1025.7 mb 0.00 in0.0 mm 0.00 in0.0 mm 0.00 in0.0 mm
07:03 AM 56.7°F13.7°C 52.6°F11.4°C 86% 1.6 mph SSW2.6 kmh SSW 3.0 mph4.8 kmh 30.29 in1025.7 mb 0.00 in0.0 mm 0.00 in0.0 mm 0.00 in0.0 mm
07:04 AM 56.9°F13.8°C 52.8°F11.6°C 86% 1.9 mph SSW3.1 kmh SSW 3.0 mph4.8 kmh 30.29 in1025.7 mb 0.00 in0.0 mm 0.00 in0.0 mm 0.00 in0.0 mm
07:05 AM 56.9°F13.8°C 52.8°F11.6°C 86% 2.0 mph SSW3.2 kmh SSW 3.0 mph4.8 kmh 30.29 in1025.7 mb 0.00 in0.0 mm 0.00 in0.0 mm 0.00 in0.0 mm
07:06 AM 57.0°F13.9°C 52.9°F11.6°C 86% 1.7 mph SSW2.7 kmh SSW 3.0 mph4.8 kmh 30.29 in1025.7 mb 0.00 in0.0 mm 0.00 in0.0 mm 0.00 in0.0 mm
07:07 AM 57.0°F13.9°C 52.9°F11.6°C 86% 2.3 mph SSW3.7 kmh SSW 3.0 mph4.8 kmh 30.29 in1025.7 mb 0.00 in0.0 mm 0.00 in0.0 mm 0.00 in0.0 mm
07:08 AM 57.1°F13.9°C 53.0°F11.7°C 86% 2.5 mph SSW4.0 kmh SSW 4.0 mph6.4 kmh 30.29 in1025.7 mb 0.00 in0.0 mm 0.00 in0.0 mm 0.00 in0.0 mm
07:09 AM 57.1°F13.9°C 52.6°F11.4°C 85% 2.2 mph SSW3.5 kmh SSW 4.0 mph6.4 kmh 30.29 in1025.7 mb 0.00 in0.0 mm 0.00 in0.0 mm 0.00 in0.0 mm
07:10 AM 57.2°F14.0°C 52.7°F11.5°C 85% 1.8 mph SSW2.9 kmh SSW 3.0 mph4.8 kmh 30.29 in1025.7 mb 0.00 in0.0 mm 0.00 in0.0 mm 0.00 in0.0 mm
07:11 AM 57.3°F14.1°C 52.8°F11.6°C 85% 2.5 mph SSW4.0 kmh SSW 4.0 mph6.4 kmh 30.29 in1025.7 mb 0.00 in0.0 mm 0.00 in0.0 mm 0.00 in0.0 mm
07:12 AM 57.3°F14.1°C 52.8°F11.6°C 85% 2.3 mph SSW3.7 kmh SSW 4.0 mph6.4 kmh 30.29 in1025.7 mb 0.00 in0.0 mm 0.00 in0.0 mm 0.00 in0.0 mm
07:13 AM 57.4°F14.1°C 52.9°F11.6°C 85% 2.0 mph SSW3.2 kmh SSW 3.0 mph4.8 kmh 30.29 in1025.7 mb 0.00 in0.0 mm 0.00 in0.0 mm 0.00 in0.0 mm
07:14 AM 57.5°F14.2°C 53.0°F11.7°C 85% 2.6 mph SSW4.2 kmh SSW 3.0 mph4.8 kmh 30.29 in1025.7 mb 0.00 in0.0 mm 0.00 in0.0 mm 0.00 in0.0 mm
07:15 AM 57.5°F14.2°C 53.0°F11.7°C 85% 2.2 mph SSW3.5 kmh SSW 3.0 mph4.8 kmh 30.29 in1025.7 mb 0.00 in0.0 mm 0.00 in0.0 mm 0.00 in0.0 mm
07:16 AM 57.6°F14.2°C 52.8°F11.6°C 84% 1.5 mph SSW2.4 kmh SSW 3.0 mph4.8 kmh 30.29 in1025.7 mb 0.00 in0.0 mm 0.00 in0.0 mm 0.00 in0.0 mm
07:17 AM 57.7°F14.3°C 52.9°F11.6°C 84% 2.4 mph SSW3.9 kmh SSW 3.0 mph4.8 kmh 30.29 in1025.7 mb 0.00 in0.0 mm 0.00 in0.0 mm 0.00 in0.0 mm
07:18 AM 57.8°F14.3°C 53.3°F11.8°C 85% 1.4 mph SSW2.3 kmh SSW 3.0 mph4.8 kmh 30.29 in1025.7 mb 0.00 in0.0 mm 0.00 in0.0 mm 0.00 in0.0 mm
07:19 AM 57.8°F14.3°C 53.3°F11.8°C 85% 1.7 mph SSW2.7 kmh SSW 2.0 mph3.2 kmh 30.29 in1025.7 mb 0.00 in0.0 mm 0.00 in0.0 mm 0.00 in0.0 mm
07:20 AM 58.0°F14.4°C 53.5°F11.9°C 85% 1.3 mph SSW2.1 kmh SSW 3.0 mph4.8 kmh 30.29 in1025.7 mb 0.00 in0.0 mm 0.00 in0.0 mm 0.00 in0.0 mm
07:21 AM 58.0°F14.4°C 53.5°F11.9°C 85% 2.2 mph SSW3.5 kmh SSW 4.0 mph6.4 kmh 30.29 in1025.7 mb 0.00 in0.0 mm 0.00 in0.0 mm 0.00 in0.0 mm
07:22 AM 58.2°F14.6°C 53.4°F11.9°C 84% 2.1 mph SSW3.4 kmh SSW 4.0 mph6.4 kmh 30.29 in1025.7 mb 0.00 in0.0 mm 0.00 in0.0 mm 0.00 in0.0 mm
07:23 AM 58.3°F14.6°C 53.5°F11.9°C 84% 2.7 mph SSW4.3 kmh SSW 4.0 mph6.4 kmh 30.29 in1025.7 mb 0.00 in0.0 mm 0.00 in0.0 mm 0.00 in0.0 mm
07:24 AM 58.3°F14.6°C 53.5°F11.9°C 84% 1.6 mph SSW2.6 kmh SSW 4.0 mph6.4 kmh 30.29 in1025.7 mb 0.00 in0.0 mm 0.00 in0.0 mm 0.00 in0.0 mm
07:25 AM 58.3°F14.6°C 53.2°F11.8°C 83% 0.8 mph SSW1.3 kmh SSW 2.0 mph3.2 kmh 30.29 in1025.7 mb 0.00 in0.0 mm 0.00 in0.0 mm 0.00 in0.0 mm
07:26 AM 58.3°F14.6°C 53.2°F11.8°C 83% 1.0 mph SSW1.6 kmh SSW 2.0 mph3.2 kmh 30.29 in1025.7 mb 0.00 in0.0 mm 0.00 in0.0 mm 0.00 in0.0 mm
07:27 AM 58.4°F14.7°C 53.3°F11.8°C 83% 3.0 mph SSW4.8 kmh SSW 4.0 mph6.4 kmh 30.30 in1026.1 mb 0.00 in0.0 mm 0.00 in0.0 mm 0.00 in0.0 mm
07:28 AM 58.5°F14.7°C 53.4°F11.9°C 83% 2.0 mph SSW3.2 kmh SSW 3.0 mph4.8 kmh 30.29 in1025.7 mb 0.00 in0.0 mm 0.00 in0.0 mm 0.00 in0.0 mm
07:29 AM 58.5°F14.7°C 53.0°F11.7°C 82% 3.7 mph SSW6.0 kmh SSW 4.0 mph6.4 kmh 30.30 in1026.1 mb 0.00 in0.0 mm 0.00 in0.0 mm 0.00 in0.0 mm
07:30 AM 58.5°F14.7°C 53.0°F11.7°C 82% 3.1 mph SSW5.0 kmh SSW 4.0 mph6.4 kmh 30.29 in1025.7 mb 0.00 in0.0 mm 0.00 in0.0 mm 0.00 in0.0 mm
07:31 AM 58.4°F14.7°C 52.6°F11.4°C 81% 4.0 mph SSW6.4 kmh SSW 5.0 mph8.0 kmh 30.29 in1025.7 mb 0.00 in0.0 mm 0.00 in0.0 mm 0.00 in0.0 mm
07:32 AM 58.5°F14.7°C 52.7°F11.5°C 81% 4.0 mph SSW6.4 kmh SSW 5.0 mph8.0 kmh 30.30 in1026.1 mb 0.00 in0.0 mm 0.00 in0.0 mm 0.00 in0.0 mm
07:33 AM 58.4°F14.7°C 52.6°F11.4°C 81% 4.0 mph SSW6.4 kmh SSW 4.0 mph6.4 kmh 30.29 in1025.7 mb 0.00 in0.0 mm 0.00 in0.0 mm 0.00 in0.0 mm
07:34 AM 58.4°F14.7°C 52.3°F11.3°C 80% 3.3 mph SSW5.3 kmh SSW 5.0 mph8.0 kmh 30.30 in1026.1 mb 0.00 in0.0 mm 0.00 in0.0 mm 0.00 in0.0 mm
07:35 AM 58.4°F14.7°C 52.3°F11.3°C 80% 4.5 mph SSW7.2 kmh SSW 5.0 mph8.0 kmh 30.30 in1026.1 mb 0.00 in0.0 mm 0.00 in0.0 mm 0.00 in0.0 mm
07:36 AM 58.4°F14.7°C 52.3°F11.3°C 80% 4.1 mph SSW6.6 kmh SSW 5.0 mph8.0 kmh 30.30 in1026.1 mb 0.00 in0.0 mm 0.00 in0.0 mm 0.00 in0.0 mm
07:37 AM 58.3°F14.6°C 52.2°F11.2°C 80% 4.3 mph S6.9 kmh S 5.0 mph8.0 kmh 30.30 in1026.1 mb 0.00 in0.0 mm 0.00 in0.0 mm 0.00 in0.0 mm
07:38 AM 58.3°F14.6°C 52.2°F11.2°C 80% 4.1 mph S6.6 kmh S 5.0 mph8.0 kmh 30.30 in1026.1 mb 0.00 in0.0 mm 0.00 in0.0 mm 0.00 in0.0 mm
07:39 AM 58.3°F14.6°C 52.2°F11.2°C 80% 4.2 mph S6.8 kmh S 5.0 mph8.0 kmh 30.30 in1026.1 mb 0.00 in0.0 mm 0.00 in0.0 mm 0.00 in0.0 mm
07:40 AM 58.2°F14.6°C 52.1°F11.2°C 80% 3.8 mph SSW6.1 kmh SSW 5.0 mph8.0 kmh 30.30 in1026.1 mb 0.00 in0.0 mm 0.00 in0.0 mm 0.00 in0.0 mm
07:41 AM 58.2°F14.6°C 52.1°F11.2°C 80% 3.5 mph SSW5.6 kmh SSW 5.0 mph8.0 kmh 30.30 in1026.1 mb 0.00 in0.0 mm 0.00 in0.0 mm 0.00 in0.0 mm
07:42 AM 58.2°F14.6°C 52.1°F11.2°C 80% 3.8 mph SSW6.1 kmh SSW 5.0 mph8.0 kmh 30.30 in1026.1 mb 0.00 in0.0 mm 0.00 in0.0 mm 0.00 in0.0 mm
07:43 AM 58.2°F14.6°C 52.1°F11.2°C 80% 3.8 mph SSW6.1 kmh SSW 5.0 mph8.0 kmh 30.30 in1026.1 mb 0.00 in0.0 mm 0.00 in0.0 mm 0.00 in0.0 mm
07:44 AM 58.2°F14.6°C 52.1°F11.2°C 80% 3.8 mph SSW6.1 kmh SSW 5.0 mph8.0 kmh 30.30 in1026.1 mb 0.00 in0.0 mm 0.00 in0.0 mm 0.00 in0.0 mm
07:45 AM 58.3°F14.6°C 52.2°F11.2°C 80% 3.1 mph SSW5.0 kmh SSW 5.0 mph8.0 kmh 30.30 in1026.1 mb 0.00 in0.0 mm 0.00 in0.0 mm 0.00 in0.0 mm
07:46 AM 58.3°F14.6°C 52.2°F11.2°C 80% 3.8 mph SSW6.1 kmh SSW 5.0 mph8.0 kmh 30.30 in1026.1 mb 0.00 in0.0 mm 0.00 in0.0 mm 0.00 in0.0 mm
07:47 AM 58.3°F14.6°C 52.2°F11.2°C 80% 3.8 mph SSW6.1 kmh SSW 5.0 mph8.0 kmh 30.30 in1026.1 mb 0.00 in0.0 mm 0.00 in0.0 mm 0.00 in0.0 mm
07:48 AM 58.4°F14.7°C 52.3°F11.3°C 80% 2.8 mph SSW4.5 kmh SSW 5.0 mph8.0 kmh 30.30 in1026.1 mb 0.00 in0.0 mm 0.00 in0.0 mm 0.00 in0.0 mm
07:49 AM 58.4°F14.7°C 52.3°F11.3°C 80% 4.0 mph SSW6.4 kmh SSW 5.0 mph8.0 kmh 30.30 in1026.1 mb 0.00 in0.0 mm 0.00 in0.0 mm 0.00 in0.0 mm
07:50 AM 58.4°F14.7°C 51.9°F11.1°C 79% 3.5 mph SSW5.6 kmh SSW 5.0 mph8.0 kmh 30.30 in1026.1 mb 0.00 in0.0 mm 0.00 in0.0 mm 0.00 in0.0 mm
07:51 AM 58.4°F14.7°C 51.9°F11.1°C 79% 3.9 mph SSW6.3 kmh SSW 5.0 mph8.0 kmh 30.30 in1026.1 mb 0.00 in0.0 mm 0.00 in0.0 mm 0.00 in0.0 mm
07:52 AM 58.4°F14.7°C 51.9°F11.1°C 79% 3.6 mph SSW5.8 kmh SSW 5.0 mph8.0 kmh 30.30 in1026.1 mb 0.00 in0.0 mm 0.00 in0.0 mm 0.00 in0.0 mm
07:53 AM 58.5°F14.7°C 52.0°F11.1°C 79% 3.3 mph SSW5.3 kmh SSW 4.0 mph6.4 kmh 30.30 in1026.1 mb 0.00 in0.0 mm 0.00 in0.0 mm 0.00 in0.0 mm
07:54 AM 58.4°F14.7°C 51.9°F11.1°C 79% 4.0 mph SSW6.4 kmh SSW 6.0 mph9.7 kmh 30.30 in1026.1 mb 0.00 in0.0 mm 0.00 in0.0 mm 0.00 in0.0 mm
07:55 AM 58.4°F14.7°C 51.6°F10.9°C 78% 5.0 mph SSW8.0 kmh SSW 6.0 mph9.7 kmh 30.30 in1026.1 mb 0.00 in0.0 mm 0.00 in0.0 mm 0.00 in0.0 mm
07:56 AM 58.4°F14.7°C 51.6°F10.9°C 78% 5.0 mph SSW8.0 kmh SSW 6.0 mph9.7 kmh 30.30 in1026.1 mb 0.00 in0.0 mm 0.00 in0.0 mm 0.00 in0.0 mm
07:57 AM 58.4°F14.7°C 51.6°F10.9°C 78% 5.5 mph SSW8.9 kmh SSW 6.0 mph9.7 kmh 30.30 in1026.1 mb 0.00 in0.0 mm 0.00 in0.0 mm 0.00 in0.0 mm
07:58 AM 58.4°F14.7°C 51.6°F10.9°C 78% 4.1 mph SSW6.6 kmh SSW 6.0 mph9.7 kmh 30.30 in1026.1 mb 0.00 in0.0 mm 0.00 in0.0 mm 0.00 in0.0 mm
07:59 AM 58.4°F14.7°C 51.6°F10.9°C 78% 4.9 mph SSW7.9 kmh SSW 6.0 mph9.7 kmh 30.30 in1026.1 mb 0.00 in0.0 mm 0.00 in0.0 mm 0.00 in0.0 mm
08:00 AM 58.4°F14.7°C 51.6°F10.9°C 78% 4.4 mph SSW7.1 kmh SSW 6.0 mph9.7 kmh 30.30 in1026.1 mb 0.00 in0.0 mm 0.00 in0.0 mm 0.00 in0.0 mm
08:01 AM 58.5°F14.7°C 51.7°F10.9°C 78% 5.2 mph SW8.4 kmh SW 6.0 mph9.7 kmh 30.30 in1026.1 mb 0.00 in0.0 mm 0.00 in0.0 mm 0.00 in0.0 mm
08:02 AM 58.5°F14.7°C 51.7°F10.9°C 78% 4.4 mph S7.1 kmh S 6.0 mph9.7 kmh 30.30 in1026.1 mb 0.00 in0.0 mm 0.00 in0.0 mm 0.00 in0.0 mm
08:03 AM 58.6°F14.8°C 51.8°F11.0°C 78% 3.7 mph S6.0 kmh S 6.0 mph9.7 kmh 30.30 in1026.1 mb 0.00 in0.0 mm 0.00 in0.0 mm 0.00 in0.0 mm
08:04 AM 58.6°F14.8°C 51.4°F10.8°C 77% 5.3 mph SSW8.5 kmh SSW 6.0 mph9.7 kmh 30.30 in1026.1 mb 0.00 in0.0 mm 0.00 in0.0 mm 0.00 in0.0 mm
08:05 AM 58.6°F14.8°C 51.4°F10.8°C 77% 5.2 mph S8.4 kmh S 6.0 mph9.7 kmh 30.30 in1026.1 mb 0.00 in0.0 mm 0.00 in0.0 mm 0.00 in0.0 mm
08:06 AM 58.6°F14.8°C 51.4°F10.8°C 77% 4.5 mph S7.2 kmh S 6.0 mph9.7 kmh 30.30 in1026.1 mb 0.00 in0.0 mm 0.00 in0.0 mm 0.00 in0.0 mm
08:07 AM 58.6°F14.8°C 51.4°F10.8°C 77% 4.5 mph S7.2 kmh S 6.0 mph9.7 kmh 30.30 in1026.1 mb 0.00 in0.0 mm 0.00 in0.0 mm 0.00 in0.0 mm
08:08 AM 58.7°F14.8°C 51.5°F10.8°C 77% 4.1 mph S6.6 kmh S 6.0 mph9.7 kmh 30.30 in1026.1 mb 0.00 in0.0 mm 0.00 in0.0 mm 0.00 in0.0 mm
08:09 AM 58.7°F14.8°C 51.5°F10.8°C 77% 3.8 mph S6.1 kmh S 6.0 mph9.7 kmh 30.31 in1026.4 mb 0.00 in0.0 mm 0.00 in0.0 mm 0.00 in0.0 mm
08:10 AM 58.8°F14.9°C 51.2°F10.7°C 76% 5.0 mph S8.0 kmh S 6.0 mph9.7 kmh 30.30 in1026.1 mb 0.00 in0.0 mm 0.00 in0.0 mm 0.00 in0.0 mm
08:11 AM 58.9°F14.9°C 51.3°F10.7°C 76% 4.0 mph S6.4 kmh S 5.0 mph8.0 kmh 30.31 in1026.4 mb 0.00 in0.0 mm 0.00 in0.0 mm 0.00 in0.0 mm
08:12 AM 58.9°F14.9°C 51.3°F10.7°C 76% 4.7 mph SSE7.6 kmh SSE 6.0 mph9.7 kmh 30.31 in1026.4 mb 0.00 in0.0 mm 0.00 in0.0 mm 0.00 in0.0 mm
08:13 AM 58.9°F14.9°C 51.3°F10.7°C 76% 3.3 mph SSE5.3 kmh SSE 6.0 mph9.7 kmh 30.31 in1026.4 mb 0.00 in0.0 mm 0.00 in0.0 mm 0.00 in0.0 mm
08:14 AM 59.1°F15.1°C 51.5°F10.8°C 76% 3.7 mph S6.0 kmh S 6.0 mph9.7 kmh 30.31 in1026.4 mb 0.00 in0.0 mm 0.00 in0.0 mm 0.00 in0.0 mm
08:15 AM 59.2°F15.1°C 51.6°F10.9°C 76% 4.2 mph S6.8 kmh S 5.0 mph8.0 kmh 30.31 in1026.4 mb 0.00 in0.0 mm 0.00 in0.0 mm 0.00 in0.0 mm
08:16 AM 59.3°F15.2°C 51.7°F10.9°C 76% 4.2 mph SSE6.8 kmh SSE 6.0 mph9.7 kmh 30.31 in1026.4 mb 0.00 in0.0 mm 0.00 in0.0 mm 0.00 in0.0 mm
08:17 AM 59.3°F15.2°C 51.7°F10.9°C 76% 4.4 mph S7.1 kmh S 6.0 mph9.7 kmh 30.31 in1026.4 mb 0.00 in0.0 mm 0.00 in0.0 mm 0.00 in0.0 mm
08:18 AM 59.4°F15.2°C 51.8°F11.0°C 76% 4.6 mph S7.4 kmh S 7.0 mph11.3 kmh 30.31 in1026.4 mb 0.00 in0.0 mm 0.00 in0.0 mm 0.00 in0.0 mm
08:19 AM 59.4°F15.2°C 51.8°F11.0°C 76% 4.4 mph S7.1 kmh S 7.0 mph11.3 kmh 30.31 in1026.4 mb 0.00 in0.0 mm 0.00 in0.0 mm 0.00 in0.0 mm
08:20 AM 59.4°F15.2°C 51.8°F11.0°C 76% 3.9 mph S6.3 kmh S 6.0 mph9.7 kmh 30.31 in1026.4 mb 0.00 in0.0 mm 0.00 in0.0 mm 0.00 in0.0 mm
08:21 AM 59.5°F15.3°C 51.6°F10.9°C 75% 4.6 mph S7.4 kmh S 6.0 mph9.7 kmh 30.31 in1026.4 mb 0.00 in0.0 mm 0.00 in0.0 mm 0.00 in0.0 mm
08:22 AM 59.5°F15.3°C 51.6°F10.9°C 75% 4.6 mph S7.4 kmh S 6.0 mph9.7 kmh 30.31 in1026.4 mb 0.00 in0.0 mm 0.00 in0.0 mm 0.00 in0.0 mm
08:23 AM 59.5°F15.3°C 51.6°F10.9°C 75% 3.2 mph S5.1 kmh S 6.0 mph9.7 kmh 30.31 in1026.4 mb 0.00 in0.0 mm 0.00 in0.0 mm 0.00 in0.0 mm
08:24 AM 59.5°F15.3°C 51.6°F10.9°C 75% 2.5 mph S4.0 kmh S 4.0 mph6.4 kmh 30.31 in1026.4 mb 0.00 in0.0 mm 0.00 in0.0 mm 0.00 in0.0 mm
08:25 AM 59.5°F15.3°C 51.6°F10.9°C 75% 3.5 mph S5.6 kmh S 4.0 mph6.4 kmh 30.31 in1026.4 mb 0.00 in0.0 mm 0.00 in0.0 mm 0.00 in0.0 mm
08:26 AM 59.6°F15.3°C 51.7°F10.9°C 75% 4.3 mph SSE6.9 kmh SSE 6.0 mph9.7 kmh 30.31 in1026.4 mb 0.00 in0.0 mm 0.00 in0.0 mm 0.00 in0.0 mm
08:27 AM 59.7°F15.4°C 51.8°F11.0°C 75% 4.3 mph SSE6.9 kmh SSE 6.0 mph9.7 kmh 30.31 in1026.4 mb 0.00 in0.0 mm 0.00 in0.0 mm 0.00 in0.0 mm
08:28 AM 59.8°F15.4°C 51.9°F11.1°C 75% 3.6 mph SE5.8 kmh SE 6.0 mph9.7 kmh 30.31 in1026.4 mb 0.00 in0.0 mm 0.00 in0.0 mm 0.00 in0.0 mm
08:29 AM 59.8°F15.4°C 51.9°F11.1°C 75% 2.5 mph SSE4.0 kmh SSE 6.0 mph9.7 kmh 30.31 in1026.4 mb 0.00 in0.0 mm 0.00 in0.0 mm 0.00 in0.0 mm
08:30 AM 59.9°F15.5°C 52.0°F11.1°C 75% 3.4 mph S5.5 kmh S 5.0 mph8.0 kmh 30.31 in1026.4 mb 0.00 in0.0 mm 0.00 in0.0 mm 0.00 in0.0 mm
08:31 AM 59.9°F15.5°C 52.0°F11.1°C 75% 2.3 mph S3.7 kmh S 5.0 mph8.0 kmh 30.31 in1026.4 mb 0.00 in0.0 mm 0.00 in0.0 mm 0.00 in0.0 mm
08:32 AM 60.0°F15.6°C 51.7°F10.9°C 74% 2.4 mph S3.9 kmh S 4.0 mph6.4 kmh 30.31 in1026.4 mb 0.00 in0.0 mm 0.00 in0.0 mm 0.00 in0.0 mm
08:33 AM 60.2°F15.7°C 52.2°F11.2°C 75% 4.1 mph S6.6 kmh S 6.0 mph9.7 kmh 30.31 in1026.4 mb 0.00 in0.0 mm 0.00 in0.0 mm 0.00 in0.0 mm
08:34 AM 60.2°F15.7°C 51.9°F11.1°C 74% 4.7 mph SSE7.6 kmh SSE 6.0 mph9.7 kmh 30.31 in1026.4 mb 0.00 in0.0 mm 0.00 in0.0 mm 0.00 in0.0 mm
08:35 AM 60.2°F15.7°C 51.9°F11.1°C 74% 3.9 mph SE6.3 kmh SE 6.0 mph9.7 kmh 30.31 in1026.4 mb 0.00 in0.0 mm 0.00 in0.0 mm 0.00 in0.0 mm
08:36 AM 60.4°F15.8°C 52.1°F11.2°C 74% 4.0 mph SSE6.4 kmh SSE 5.0 mph8.0 kmh 30.31 in1026.4 mb 0.00 in0.0 mm 0.00 in0.0 mm 0.00 in0.0 mm
08:37 AM 60.4°F15.8°C 52.1°F11.2°C 74% 3.8 mph SSE6.1 kmh SSE 6.0 mph9.7 kmh 30.31 in1026.4 mb 0.00 in0.0 mm 0.00 in0.0 mm 0.00 in0.0 mm
08:38 AM 60.5°F15.8°C 52.2°F11.2°C 74% 4.9 mph SSE7.9 kmh SSE 6.0 mph9.7 kmh 30.31 in1026.4 mb 0.00 in0.0 mm 0.00 in0.0 mm 0.00 in0.0 mm
08:39 AM 60.5°F15.8°C 52.2°F11.2°C 74% 4.5 mph SSE7.2 kmh SSE 6.0 mph9.7 kmh 30.31 in1026.4 mb 0.00 in0.0 mm 0.00 in0.0 mm 0.00 in0.0 mm
08:40 AM 60.6°F15.9°C 52.3°F11.3°C 74% 5.1 mph SSE8.2 kmh SSE 8.0 mph12.9 kmh 30.31 in1026.4 mb 0.00 in0.0 mm 0.00 in0.0 mm 0.00 in0.0 mm
08:41 AM 60.8°F16.0°C 52.1°F11.2°C 73% 3.3 mph SSE5.3 kmh SSE 8.0 mph12.9 kmh 30.31 in1026.4 mb 0.00 in0.0 mm 0.00 in0.0 mm 0.00 in0.0 mm
08:42 AM 60.8°F16.0°C 52.1°F11.2°C 73% 1.8 mph SE2.9 kmh SE 5.0 mph8.0 kmh 30.31 in1026.4 mb 0.00 in0.0 mm 0.00 in0.0 mm 0.00 in0.0 mm
08:43 AM 60.9°F16.1°C 52.2°F11.2°C 73% 3.4 mph S5.5 kmh S 6.0 mph9.7 kmh 30.31 in1026.4 mb 0.00 in0.0 mm 0.00 in0.0 mm 0.00 in0.0 mm
08:44 AM 61.0°F16.1°C 51.9°F11.1°C 72% 5.1 mph S8.2 kmh S 7.0 mph11.3 kmh 30.31 in1026.4 mb 0.00 in0.0 mm 0.00 in0.0 mm 0.00 in0.0 mm
08:45 AM 61.0°F16.1°C 51.9°F11.1°C 72% 3.1 mph S5.0 kmh S 7.0 mph11.3 kmh 30.31 in1026.4 mb 0.00 in0.0 mm 0.00 in0.0 mm 0.00 in0.0 mm
08:46 AM 61.0°F16.1°C 51.9°F11.1°C 72% 2.5 mph S4.0 kmh S 5.0 mph8.0 kmh 30.31 in1026.4 mb 0.00 in0.0 mm 0.00 in0.0 mm 0.00 in0.0 mm
08:47 AM 61.0°F16.1°C 51.9°F11.1°C 72% 3.1 mph S5.0 kmh S 5.0 mph8.0 kmh 30.31 in1026.4 mb 0.00 in0.0 mm 0.00 in0.0 mm 0.00 in0.0 mm
08:48 AM 61.1°F16.2°C 52.0°F11.1°C 72% 4.9 mph SSW7.9 kmh SSW 7.0 mph11.3 kmh 30.31 in1026.4 mb 0.00 in0.0 mm 0.00 in0.0 mm 0.00 in0.0 mm
08:49 AM 61.1°F16.2°C 52.0°F11.1°C 72% 4.7 mph WSW7.6 kmh WSW 7.0 mph11.3 kmh 30.31 in1026.4 mb 0.00 in0.0 mm 0.00 in0.0 mm 0.00 in0.0 mm
08:50 AM 61.1°F16.2°C 52.7°F11.5°C 74% 3.7 mph WSW6.0 kmh WSW 7.0 mph11.3 kmh 30.31 in1026.4 mb 0.00 in0.0 mm 0.00 in0.0 mm 0.00 in0.0 mm
08:51 AM 61.1°F16.2°C 53.1°F11.7°C 75% 5.3 mph WSW8.5 kmh WSW 7.0 mph11.3 kmh 30.31 in1026.4 mb 0.00 in0.0 mm 0.00 in0.0 mm 0.00 in0.0 mm
08:52 AM 60.9°F16.1°C 52.6°F11.4°C 74% 4.2 mph WSW6.8 kmh WSW 7.0 mph11.3 kmh 30.31 in1026.4 mb 0.00 in0.0 mm 0.00 in0.0 mm 0.00 in0.0 mm
08:53 AM 60.9°F16.1°C 52.9°F11.6°C 75% 3.3 mph WSW5.3 kmh WSW 5.0 mph8.0 kmh 30.31 in1026.4 mb 0.00 in0.0 mm 0.00 in0.0 mm 0.00 in0.0 mm
08:54 AM 60.8°F16.0°C 52.8°F11.6°C 75% 4.3 mph WSW6.9 kmh WSW 7.0 mph11.3 kmh 30.31 in1026.4 mb 0.00 in0.0 mm 0.00 in0.0 mm 0.00 in0.0 mm
08:55 AM 60.7°F15.9°C 52.7°F11.5°C 75% 6.0 mph WSW9.7 kmh WSW 8.0 mph12.9 kmh 30.31 in1026.4 mb 0.00 in0.0 mm 0.00 in0.0 mm 0.00 in0.0 mm
08:56 AM 60.6°F15.9°C 52.3°F11.3°C 74% 4.8 mph SW7.7 kmh SW 8.0 mph12.9 kmh 30.31 in1026.4 mb 0.00 in0.0 mm 0.00 in0.0 mm 0.00 in0.0 mm
08:57 AM 60.5°F15.8°C 52.2°F11.2°C 74% 4.8 mph WSW7.7 kmh WSW 7.0 mph11.3 kmh 30.31 in1026.4 mb 0.00 in0.0 mm 0.00 in0.0 mm 0.00 in0.0 mm
08:58 AM 60.6°F15.9°C 52.6°F11.4°C 75% 4.4 mph WSW7.1 kmh WSW 7.0 mph11.3 kmh 30.31 in1026.4 mb 0.00 in0.0 mm 0.00 in0.0 mm 0.00 in0.0 mm
08:59 AM 60.5°F15.8°C 52.5°F11.4°C 75% 4.5 mph WSW7.2 kmh WSW 5.0 mph8.0 kmh 30.31 in1026.4 mb 0.00 in0.0 mm 0.00 in0.0 mm 0.00 in0.0 mm
09:00 AM 60.5°F15.8°C 52.9°F11.6°C 76% 4.5 mph WSW7.2 kmh WSW 7.0 mph11.3 kmh 30.31 in1026.4 mb 0.00 in0.0 mm 0.00 in0.0 mm 0.00 in0.0 mm
09:01 AM 60.4°F15.8°C 52.4°F11.3°C 75% 6.2 mph WSW10.0 kmh WSW 7.0 mph11.3 kmh 30.31 in1026.4 mb 0.00 in0.0 mm 0.00 in0.0 mm 0.00 in0.0 mm
09:02 AM 60.4°F15.8°C 52.4°F11.3°C 75% 6.1 mph WSW9.8 kmh WSW 7.0 mph11.3 kmh 30.31 in1026.4 mb 0.00 in0.0 mm 0.00 in0.0 mm 0.00 in0.0 mm
09:03 AM 60.4°F15.8°C 52.4°F11.3°C 75% 5.0 mph WSW8.0 kmh WSW 6.0 mph9.7 kmh 30.31 in1026.4 mb 0.00 in0.0 mm 0.00 in0.0 mm 0.00 in0.0 mm
09:04 AM 60.5°F15.8°C 52.5°F11.4°C 75% 5.0 mph WSW8.0 kmh WSW 7.0 mph11.3 kmh 30.31 in1026.4 mb 0.00 in0.0 mm 0.00 in0.0 mm 0.00 in0.0 mm
09:05 AM 60.4°F15.8°C 52.8°F11.6°C 76% 5.8 mph WSW9.3 kmh WSW 7.0 mph11.3 kmh 30.31 in1026.4 mb 0.00 in0.0 mm 0.00 in0.0 mm 0.00 in0.0 mm
09:06 AM 60.5°F15.8°C 52.5°F11.4°C 75% 6.0 mph WSW9.7 kmh WSW 7.0 mph11.3 kmh 30.31 in1026.4 mb 0.00 in0.0 mm 0.00 in0.0 mm 0.00 in0.0 mm
09:07 AM 60.4°F15.8°C 52.4°F11.3°C 75% 5.8 mph WSW9.3 kmh WSW 7.0 mph11.3 kmh 30.31 in1026.4 mb 0.00 in0.0 mm 0.00 in0.0 mm 0.00 in0.0 mm
09:08 AM 60.4°F15.8°C 52.4°F11.3°C 75% 4.5 mph WSW7.2 kmh WSW 7.0 mph11.3 kmh 30.31 in1026.4 mb 0.00 in0.0 mm 0.00 in0.0 mm 0.00 in0.0 mm
09:09 AM 60.4°F15.8°C 52.4°F11.3°C 75% 4.3 mph WSW6.9 kmh WSW 7.0 mph11.3 kmh 30.31 in1026.4 mb 0.00 in0.0 mm 0.00 in0.0 mm 0.00 in0.0 mm
09:10 AM 60.4°F15.8°C 52.4°F11.3°C 75% 3.9 mph WSW6.3 kmh WSW 5.0 mph8.0 kmh 30.31 in1026.4 mb 0.00 in0.0 mm 0.00 in0.0 mm 0.00 in0.0 mm
09:11 AM 60.4°F15.8°C 52.4°F11.3°C 75% 3.6 mph WSW5.8 kmh WSW 5.0 mph8.0 kmh 30.31 in1026.4 mb 0.00 in0.0 mm 0.00 in0.0 mm 0.00 in0.0 mm
09:12 AM 60.5°F15.8°C 52.5°F11.4°C 75% 3.5 mph WSW5.6 kmh WSW 5.0 mph8.0 kmh 30.31 in1026.4 mb 0.00 in0.0 mm 0.00 in0.0 mm 0.00 in0.0 mm
09:13 AM 60.5°F15.8°C 52.5°F11.4°C 75% 3.9 mph WSW6.3 kmh WSW 5.0 mph8.0 kmh 30.32 in1026.8 mb 0.00 in0.0 mm 0.00 in0.0 mm 0.00 in0.0 mm
09:14 AM 60.5°F15.8°C 52.2°F11.2°C 74% 4.3 mph WSW6.9 kmh WSW 5.0 mph8.0 kmh 30.31 in1026.4 mb 0.00 in0.0 mm 0.00 in0.0 mm 0.00 in0.0 mm
09:15 AM 60.5°F15.8°C 52.2°F11.2°C 74% 4.5 mph WSW7.2 kmh WSW 7.0 mph11.3 kmh 30.31 in1026.4 mb 0.00 in0.0 mm 0.00 in0.0 mm 0.00 in0.0 mm
09:16 AM 60.6°F15.9°C 52.6°F11.4°C 75% 4.4 mph WSW7.1 kmh WSW 7.0 mph11.3 kmh 30.31 in1026.4 mb 0.00 in0.0 mm 0.00 in0.0 mm 0.00 in0.0 mm
09:17 AM 60.6°F15.9°C 52.6°F11.4°C 75% 4.0 mph WSW6.4 kmh WSW 5.0 mph8.0 kmh 30.32 in1026.8 mb 0.00 in0.0 mm 0.00 in0.0 mm 0.00 in0.0 mm
09:18 AM 60.7°F15.9°C 52.4°F11.3°C 74% 4.2 mph WSW6.8 kmh WSW 5.0 mph8.0 kmh 30.32 in1026.8 mb 0.00 in0.0 mm 0.00 in0.0 mm 0.00 in0.0 mm
09:19 AM 60.7°F15.9°C 52.4°F11.3°C 74% 4.0 mph WSW6.4 kmh WSW 5.0 mph8.0 kmh 30.32 in1026.8 mb 0.00 in0.0 mm 0.00 in0.0 mm 0.00 in0.0 mm
09:20 AM 60.8°F16.0°C 52.5°F11.4°C 74% 3.3 mph WSW5.3 kmh WSW 5.0 mph8.0 kmh 30.32 in1026.8 mb 0.00 in0.0 mm 0.00 in0.0 mm 0.00 in0.0 mm
09:21 AM 60.8°F16.0°C 52.5°F11.4°C 74% 2.9 mph WSW4.7 kmh WSW 4.0 mph6.4 kmh 30.32 in1026.8 mb 0.00 in0.0 mm 0.00 in0.0 mm 0.00 in0.0 mm
09:22 AM 60.8°F16.0°C 52.5°F11.4°C 74% 2.8 mph WSW4.5 kmh WSW 4.0 mph6.4 kmh 30.32 in1026.8 mb 0.00 in0.0 mm 0.00 in0.0 mm 0.00 in0.0 mm
09:23 AM 60.8°F16.0°C 52.1°F11.2°C 73% 2.5 mph WSW4.0 kmh WSW 4.0 mph6.4 kmh 30.32 in1026.8 mb 0.00 in0.0 mm 0.00 in0.0 mm 0.00 in0.0 mm
09:24 AM 60.8°F16.0°C 52.1°F11.2°C 73% 3.3 mph WSW5.3 kmh WSW 4.0 mph6.4 kmh 30.32 in1026.8 mb 0.00 in0.0 mm 0.00 in0.0 mm 0.00 in0.0 mm
09:25 AM 60.8°F16.0°C 52.1°F11.2°C 73% 3.0 mph WSW4.8 kmh WSW 4.0 mph6.4 kmh 30.32 in1026.8 mb 0.00 in0.0 mm 0.00 in0.0 mm 0.00 in0.0 mm
09:26 AM 60.8°F16.0°C 52.1°F11.2°C 73% 3.0 mph WSW4.8 kmh WSW 4.0 mph6.4 kmh 30.32 in1026.8 mb 0.00 in0.0 mm 0.00 in0.0 mm 0.00 in0.0 mm
09:27 AM 60.8°F16.0°C 52.1°F11.2°C 73% 3.0 mph WSW4.8 kmh WSW 4.0 mph6.4 kmh 30.32 in1026.8 mb 0.00 in0.0 mm 0.00 in0.0 mm 0.00 in0.0 mm
09:28 AM 60.8°F16.0°C 52.1°F11.2°C 73% 3.2 mph WSW5.1 kmh WSW 4.0 mph6.4 kmh 30.32 in1026.8 mb 0.00 in0.0 mm 0.00 in0.0 mm 0.00 in0.0 mm
09:29 AM 60.9°F16.1°C 51.8°F11.0°C 72% 2.8 mph WSW4.5 kmh WSW 4.0 mph6.4 kmh 30.32 in1026.8 mb 0.00 in0.0 mm 0.00 in0.0 mm 0.00 in0.0 mm
09:30 AM 60.9°F16.1°C 51.8°F11.0°C 72% 3.4 mph WSW5.5 kmh WSW 4.0 mph6.4 kmh 30.32 in1026.8 mb 0.00 in0.0 mm 0.00 in0.0 mm 0.00 in0.0 mm
09:31 AM 60.9°F16.1°C 52.2°F11.2°C 73% 3.7 mph WSW6.0 kmh WSW 4.0 mph6.4 kmh 30.32 in1026.8 mb 0.00 in0.0 mm 0.00 in0.0 mm 0.00 in0.0 mm
09:32 AM 61.0°F16.1°C 51.9°F11.1°C 72% 3.3 mph WSW5.3 kmh WSW 4.0 mph6.4 kmh 30.32 in1026.8 mb 0.00 in0.0 mm 0.00 in0.0 mm 0.00 in0.0 mm
09:33 AM 61.0°F16.1°C 51.9°F11.1°C 72% 4.3 mph WSW6.9 kmh WSW 5.0 mph8.0 kmh 30.32 in1026.8 mb 0.00 in0.0 mm 0.00 in0.0 mm 0.00 in0.0 mm
09:34 AM 61.1°F16.2°C 51.6°F10.9°C 71% 4.8 mph WSW7.7 kmh WSW 7.0 mph11.3 kmh 30.32 in1026.8 mb 0.00 in0.0 mm 0.00 in0.0 mm 0.00 in0.0 mm
09:35 AM 61.2°F16.2°C 51.3°F10.7°C 70% 4.4 mph WSW7.1 kmh WSW 7.0 mph11.3 kmh 30.32 in1026.8 mb 0.00 in0.0 mm 0.00 in0.0 mm 0.00 in0.0 mm
09:36 AM 61.3°F16.3°C 51.8°F11.0°C 71% 4.7 mph WSW7.6 kmh WSW 5.0 mph8.0 kmh 30.32 in1026.8 mb 0.00 in0.0 mm 0.00 in0.0 mm 0.00 in0.0 mm
09:37 AM 61.4°F16.3°C 51.5°F10.8°C 70% 5.5 mph WSW8.9 kmh WSW 7.0 mph11.3 kmh 30.32 in1026.8 mb 0.00 in0.0 mm 0.00 in0.0 mm 0.00 in0.0 mm
09:38 AM 61.5°F16.4°C 51.6°F10.9°C 70% 4.5 mph WSW7.2 kmh WSW 7.0 mph11.3 kmh 30.32 in1026.8 mb 0.00 in0.0 mm 0.00 in0.0 mm 0.00 in0.0 mm
09:39 AM 61.5°F16.4°C 52.0°F11.1°C 71% 3.9 mph WSW6.3 kmh WSW 5.0 mph8.0 kmh 30.32 in1026.8 mb 0.00 in0.0 mm 0.00 in0.0 mm 0.00 in0.0 mm
09:40 AM 61.6°F16.4°C 51.7°F10.9°C 70% 4.6 mph WSW7.4 kmh WSW 5.0 mph8.0 kmh 30.32 in1026.8 mb 0.00 in0.0 mm 0.00 in0.0 mm 0.00 in0.0 mm
09:41 AM 61.6°F16.4°C 51.3°F10.7°C 69% 3.4 mph WSW5.5 kmh WSW 5.0 mph8.0 kmh 30.32 in1026.8 mb 0.00 in0.0 mm 0.00 in0.0 mm 0.00 in0.0 mm
09:42 AM 61.7°F16.5°C 51.4°F10.8°C 69% 4.0 mph WSW6.4 kmh WSW 4.0 mph6.4 kmh 30.32 in1026.8 mb 0.00 in0.0 mm 0.00 in0.0 mm 0.00 in0.0 mm
09:43 AM 61.8°F16.6°C 51.5°F10.8°C 69% 4.0 mph WSW6.4 kmh WSW 5.0 mph8.0 kmh 30.32 in1026.8 mb 0.00 in0.0 mm 0.00 in0.0 mm 0.00 in0.0 mm
09:44 AM 61.9°F16.6°C 51.6°F10.9°C 69% 4.6 mph WSW7.4 kmh WSW 5.0 mph8.0 kmh 30.32 in1026.8 mb 0.00 in0.0 mm 0.00 in0.0 mm 0.00 in0.0 mm
09:45 AM 62.0°F16.7°C 51.3°F10.7°C 68% 4.5 mph WSW7.2 kmh WSW 5.0 mph8.0 kmh 30.32 in1026.8 mb 0.00 in0.0 mm 0.00 in0.0 mm 0.00 in0.0 mm
09:46 AM 62.0°F16.7°C 51.3°F10.7°C 68% 3.9 mph WSW6.3 kmh WSW 5.0 mph8.0 kmh 30.32 in1026.8 mb 0.00 in0.0 mm 0.00 in0.0 mm 0.00 in0.0 mm
09:47 AM 62.1°F16.7°C 51.8°F11.0°C 69% 4.3 mph WSW6.9 kmh WSW 5.0 mph8.0 kmh 30.32 in1026.8 mb 0.00 in0.0 mm 0.00 in0.0 mm 0.00 in0.0 mm
09:48 AM 62.1°F16.7°C 51.4°F10.8°C 68% 4.0 mph WSW6.4 kmh WSW 5.0 mph8.0 kmh 30.32 in1026.8 mb 0.00 in0.0 mm 0.00 in0.0 mm 0.00 in0.0 mm
09:49 AM 62.1°F16.7°C 51.4°F10.8°C 68% 4.0 mph WSW6.4 kmh WSW 5.0 mph8.0 kmh 30.32 in1026.8 mb 0.00 in0.0 mm 0.00 in0.0 mm 0.00 in0.0 mm
09:50 AM 62.2°F16.8°C 51.5°F10.8°C 68% 4.6 mph WSW7.4 kmh WSW 5.0 mph8.0 kmh 30.32 in1026.8 mb 0.00 in0.0 mm 0.00 in0.0 mm 0.00 in0.0 mm
09:51 AM 62.2°F16.8°C 51.5°F10.8°C 68% 4.9 mph WSW7.9 kmh WSW 7.0 mph11.3 kmh 30.32 in1026.8 mb 0.00 in0.0 mm 0.00 in0.0 mm 0.00 in0.0 mm
09:52 AM 62.2°F16.8°C 51.5°F10.8°C 68% 5.1 mph WSW8.2 kmh WSW 7.0 mph11.3 kmh 30.32 in1026.8 mb 0.00 in0.0 mm 0.00 in0.0 mm 0.00 in0.0 mm
09:53 AM 62.3°F16.8°C 51.6°F10.9°C 68% 5.0 mph WSW8.0 kmh WSW 7.0 mph11.3 kmh 30.32 in1026.8 mb 0.00 in0.0 mm 0.00 in0.0 mm 0.00 in0.0 mm
09:54 AM 62.3°F16.8°C 51.2°F10.7°C 67% 4.2 mph WSW6.8 kmh WSW 7.0 mph11.3 kmh 30.32 in1026.8 mb 0.00 in0.0 mm 0.00 in0.0 mm 0.00 in0.0 mm
09:55 AM 62.4°F16.9°C 51.7°F10.9°C 68% 3.9 mph WSW6.3 kmh WSW 5.0 mph8.0 kmh 30.32 in1026.8 mb 0.00 in0.0 mm 0.00 in0.0 mm 0.00 in0.0 mm
09:56 AM 62.4°F16.9°C 51.3°F10.7°C 67% 5.1 mph WSW8.2 kmh WSW 7.0 mph11.3 kmh 30.32 in1026.8 mb 0.00 in0.0 mm 0.00 in0.0 mm 0.00 in0.0 mm
09:57 AM 62.4°F16.9°C 51.3°F10.7°C 67% 4.5 mph WSW7.2 kmh WSW 7.0 mph11.3 kmh 30.32 in1026.8 mb 0.00 in0.0 mm 0.00 in0.0 mm 0.00 in0.0 mm
09:58 AM 62.4°F16.9°C 51.3°F10.7°C 67% 5.8 mph WSW9.3 kmh WSW 7.0 mph11.3 kmh 30.32 in1026.8 mb 0.00 in0.0 mm 0.00 in0.0 mm 0.00 in0.0 mm
09:59 AM 62.5°F16.9°C 51.4°F10.8°C 67% 7.0 mph WSW11.3 kmh WSW 7.0 mph11.3 kmh 30.32 in1026.8 mb 0.00 in0.0 mm 0.00 in0.0 mm 0.00 in0.0 mm
10:00 AM 62.5°F16.9°C 51.0°F10.6°C 66% 6.0 mph WSW9.7 kmh WSW 7.0 mph11.3 kmh 30.31 in1026.4 mb 0.00 in0.0 mm 0.00 in0.0 mm 0.00 in0.0 mm
10:01 AM 62.5°F16.9°C 51.0°F10.6°C 66% 5.0 mph WSW8.0 kmh WSW 7.0 mph11.3 kmh 30.32 in1026.8 mb 0.00 in0.0 mm 0.00 in0.0 mm 0.00 in0.0 mm
10:02 AM 62.6°F17.0°C 51.1°F10.6°C 66% 4.5 mph WSW7.2 kmh WSW 5.0 mph8.0 kmh 30.32 in1026.8 mb 0.00 in0.0 mm 0.00 in0.0 mm 0.00 in0.0 mm
10:03 AM 62.7°F17.1°C 51.2°F10.7°C 66% 4.8 mph WSW7.7 kmh WSW 5.0 mph8.0 kmh 30.32 in1026.8 mb 0.00 in0.0 mm 0.00 in0.0 mm 0.00 in0.0 mm
10:04 AM 62.7°F17.1°C 50.8°F10.4°C 65% 5.1 mph WSW8.2 kmh WSW 7.0 mph11.3 kmh 30.32 in1026.8 mb 0.00 in0.0 mm 0.00 in0.0 mm 0.00 in0.0 mm
10:05 AM 62.8°F17.1°C 50.9°F10.5°C 65% 4.7 mph WSW7.6 kmh WSW 7.0 mph11.3 kmh 30.32 in1026.8 mb 0.00 in0.0 mm 0.00 in0.0 mm 0.00 in0.0 mm
10:06 AM 62.9°F17.2°C 50.9°F10.5°C 65% 5.2 mph WSW8.4 kmh WSW 7.0 mph11.3 kmh 30.32 in1026.8 mb 0.00 in0.0 mm 0.00 in0.0 mm 0.00 in0.0 mm
10:07 AM 63.0°F17.2°C 51.0°F10.6°C 65% 4.7 mph WSW7.6 kmh WSW 7.0 mph11.3 kmh 30.32 in1026.8 mb 0.00 in0.0 mm 0.00 in0.0 mm 0.00 in0.0 mm
10:08 AM 63.1°F17.3°C 51.6°F10.9°C 66% 5.2 mph WSW8.4 kmh WSW 7.0 mph11.3 kmh 30.32 in1026.8 mb 0.00 in0.0 mm 0.00 in0.0 mm 0.00 in0.0 mm
10:09 AM 63.0°F17.2°C 51.0°F10.6°C 65% 3.6 mph WSW5.8 kmh WSW 6.0 mph9.7 kmh 30.32 in1026.8 mb 0.00 in0.0 mm 0.00 in0.0 mm 0.00 in0.0 mm
10:10 AM 63.1°F17.3°C 51.1°F10.6°C 65% 3.8 mph WSW6.1 kmh WSW 6.0 mph9.7 kmh 30.32 in1026.8 mb 0.00 in0.0 mm 0.00 in0.0 mm 0.00 in0.0 mm
10:11 AM 63.1°F17.3°C 51.1°F10.6°C 65% 3.9 mph WSW6.3 kmh WSW 6.0 mph9.7 kmh 30.32 in1026.8 mb 0.00 in0.0 mm 0.00 in0.0 mm 0.00 in0.0 mm
10:12 AM 63.1°F17.3°C 50.7°F10.4°C 64% 4.2 mph WSW6.8 kmh WSW 6.0 mph9.7 kmh 30.32 in1026.8 mb 0.00 in0.0 mm 0.00 in0.0 mm 0.00 in0.0 mm
10:13 AM 63.2°F17.3°C 50.8°F10.4°C 64% 4.9 mph WSW7.9 kmh WSW 6.0 mph9.7 kmh 30.32 in1026.8 mb 0.00 in0.0 mm 0.00 in0.0 mm 0.00 in0.0 mm
10:14 AM 63.2°F17.3°C 50.8°F10.4°C 64% 3.6 mph WSW5.8 kmh WSW 6.0 mph9.7 kmh 30.32 in1026.8 mb 0.00 in0.0 mm 0.00 in0.0 mm 0.00 in0.0 mm
10:15 AM 63.2°F17.3°C 50.8°F10.4°C 64% 4.1 mph WSW6.6 kmh WSW 6.0 mph9.7 kmh 30.32 in1026.8 mb 0.00 in0.0 mm 0.00 in0.0 mm 0.00 in0.0 mm
10:16 AM 63.2°F17.3°C 50.8°F10.4°C 64% 3.8 mph WSW6.1 kmh WSW 6.0 mph9.7 kmh 30.32 in1026.8 mb 0.00 in0.0 mm 0.00 in0.0 mm 0.00 in0.0 mm
10:17 AM 63.3°F17.4°C 50.9°F10.5°C 64% 4.6 mph WSW7.4 kmh WSW 6.0 mph9.7 kmh 30.32 in1026.8 mb 0.00 in0.0 mm 0.00 in0.0 mm 0.00 in0.0 mm
10:18 AM 63.4°F17.4°C 51.4°F10.8°C 65% 5.1 mph WSW8.2 kmh WSW 6.0 mph9.7 kmh 30.32 in1026.8 mb 0.00 in0.0 mm 0.00 in0.0 mm 0.00 in0.0 mm
10:19 AM 63.3°F17.4°C 50.9°F10.5°C 64% 4.9 mph WSW7.9 kmh WSW 6.0 mph9.7 kmh 30.32 in1026.8 mb 0.00 in0.0 mm 0.00 in0.0 mm 0.00 in0.0 mm
10:20 AM 63.4°F17.4°C 51.0°F10.6°C 64% 4.0 mph WSW6.4 kmh WSW 6.0 mph9.7 kmh 30.32 in1026.8 mb 0.00 in0.0 mm 0.00 in0.0 mm 0.00 in0.0 mm
10:21 AM 63.4°F17.4°C 51.4°F10.8°C 65% 4.7 mph WSW7.6 kmh WSW 6.0 mph9.7 kmh 30.32 in1026.8 mb 0.00 in0.0 mm 0.00 in0.0 mm 0.00 in0.0 mm
10:22 AM 63.4°F17.4°C 51.0°F10.6°C 64% 3.7 mph WSW6.0 kmh WSW 6.0 mph9.7 kmh 30.32 in1026.8 mb 0.00 in0.0 mm 0.00 in0.0 mm 0.00 in0.0 mm
10:23 AM 63.5°F17.5°C 51.5°F10.8°C 65% 4.9 mph WSW7.9 kmh WSW 6.0 mph9.7 kmh 30.32 in1026.8 mb 0.00 in0.0 mm 0.00 in0.0 mm 0.00 in0.0 mm
10:24 AM 63.5°F17.5°C 51.1°F10.6°C 64% 4.0 mph W6.4 kmh W 6.0 mph9.7 kmh 30.32 in1026.8 mb 0.00 in0.0 mm 0.00 in0.0 mm 0.00 in0.0 mm
10:25 AM 63.5°F17.5°C 51.1°F10.6°C 64% 4.0 mph W6.4 kmh W 6.0 mph9.7 kmh 30.32 in1026.8 mb 0.00 in0.0 mm 0.00 in0.0 mm 0.00 in0.0 mm
10:26 AM 63.5°F17.5°C 50.2°F10.1°C 62% 5.0 mph W8.0 kmh W 6.0 mph9.7 kmh 30.32 in1026.8 mb 0.00 in0.0 mm 0.00 in0.0 mm 0.00 in0.0 mm
10:27 AM 63.6°F17.6°C 50.8°F10.4°C 63% 5.1 mph WSW8.2 kmh WSW 6.0 mph9.7 kmh 30.32 in1026.8 mb 0.00 in0.0 mm 0.00 in0.0 mm 0.00 in0.0 mm
10:28 AM 63.6°F17.6°C 50.8°F10.4°C 63% 5.0 mph WSW8.0 kmh WSW 6.0 mph9.7 kmh 30.32 in1026.8 mb 0.00 in0.0 mm 0.00 in0.0 mm 0.00 in0.0 mm
10:29 AM 63.6°F17.6°C 50.8°F10.4°C 63% 4.3 mph WSW6.9 kmh WSW 6.0 mph9.7 kmh 30.32 in1026.8 mb 0.00 in0.0 mm 0.00 in0.0 mm 0.00 in0.0 mm
10:30 AM 63.6°F17.6°C 50.8°F10.4°C 63% 3.6 mph WSW5.8 kmh WSW 6.0 mph9.7 kmh 30.32 in1026.8 mb 0.00 in0.0 mm 0.00 in0.0 mm 0.00 in0.0 mm
10:31 AM 63.7°F17.6°C 50.9°F10.5°C 63% 4.6 mph WSW7.4 kmh WSW 6.0 mph9.7 kmh 30.32 in1026.8 mb 0.00 in0.0 mm 0.00 in0.0 mm 0.00 in0.0 mm
10:32 AM 63.8°F17.7°C 51.0°F10.6°C 63% 4.5 mph WSW7.2 kmh WSW 6.0 mph9.7 kmh 30.32 in1026.8 mb 0.00 in0.0 mm 0.00 in0.0 mm 0.00 in0.0 mm
10:33 AM 63.8°F17.7°C 51.0°F10.6°C 63% 3.1 mph WSW5.0 kmh WSW 6.0 mph9.7 kmh 30.32 in1026.8 mb 0.00 in0.0 mm 0.00 in0.0 mm 0.00 in0.0 mm
10:34 AM 63.9°F17.7°C 50.2°F10.1°C 61% 3.8 mph WSW6.1 kmh WSW 5.0 mph8.0 kmh 30.32 in1026.8 mb 0.00 in0.0 mm 0.00 in0.0 mm 0.00 in0.0 mm
10:35 AM 64.0°F17.8°C 50.3°F10.2°C 61% 4.0 mph WSW6.4 kmh WSW 5.0 mph8.0 kmh 30.32 in1026.8 mb 0.00 in0.0 mm 0.00 in0.0 mm 0.00 in0.0 mm
10:36 AM 64.1°F17.8°C 49.9°F9.9°C 60% 3.0 mph WSW4.8 kmh WSW 5.0 mph8.0 kmh 30.32 in1026.8 mb 0.00 in0.0 mm 0.00 in0.0 mm 0.00 in0.0 mm
10:37 AM 64.1°F17.8°C 50.4°F10.2°C 61% 3.4 mph WSW5.5 kmh WSW 4.0 mph6.4 kmh 30.32 in1026.8 mb 0.00 in0.0 mm 0.00 in0.0 mm 0.00 in0.0 mm
10:38 AM 64.1°F17.8°C 50.4°F10.2°C 61% 4.1 mph WSW6.6 kmh WSW 5.0 mph8.0 kmh 30.32 in1026.8 mb 0.00 in0.0 mm 0.00 in0.0 mm 0.00 in0.0 mm
10:39 AM 64.2°F17.9°C 50.9°F10.5°C 62% 4.0 mph WSW6.4 kmh WSW 5.0 mph8.0 kmh 30.32 in1026.8 mb 0.00 in0.0 mm 0.00 in0.0 mm 0.00 in0.0 mm
10:40 AM 64.2°F17.9°C 50.5°F10.3°C 61% 3.5 mph WSW5.6 kmh WSW 5.0 mph8.0 kmh 30.32 in1026.8 mb 0.00 in0.0 mm 0.00 in0.0 mm 0.00 in0.0 mm
10:41 AM 64.3°F17.9°C 51.0°F10.6°C 62% 4.4 mph WSW7.1 kmh WSW 7.0 mph11.3 kmh 30.32 in1026.8 mb 0.00 in0.0 mm 0.00 in0.0 mm 0.00 in0.0 mm
10:42 AM 64.3°F17.9°C 50.6°F10.3°C 61% 4.6 mph WSW7.4 kmh WSW 7.0 mph11.3 kmh 30.32 in1026.8 mb 0.00 in0.0 mm 0.00 in0.0 mm 0.00 in0.0 mm
10:43 AM 64.2°F17.9°C 50.9°F10.5°C 62% 4.2 mph WSW6.8 kmh WSW 5.0 mph8.0 kmh 30.32 in1026.8 mb 0.00 in0.0 mm 0.00 in0.0 mm 0.00 in0.0 mm
10:44 AM 64.2°F17.9°C 50.5°F10.3°C 61% 4.9 mph WSW7.9 kmh WSW 7.0 mph11.3 kmh 30.32 in1026.8 mb 0.00 in0.0 mm 0.00 in0.0 mm 0.00 in0.0 mm
10:45 AM 64.2°F17.9°C 50.9°F10.5°C 62% 3.9 mph WSW6.3 kmh WSW 7.0 mph11.3 kmh 30.32 in1026.8 mb 0.00 in0.0 mm 0.00 in0.0 mm 0.00 in0.0 mm
10:46 AM 64.3°F17.9°C 51.0°F10.6°C 62% 4.3 mph WSW6.9 kmh WSW 5.0 mph8.0 kmh 30.32 in1026.8 mb 0.00 in0.0 mm 0.00 in0.0 mm 0.00 in0.0 mm
10:47 AM 64.4°F18.0°C 51.1°F10.6°C 62% 3.9 mph WSW6.3 kmh WSW 5.0 mph8.0 kmh 30.32 in1026.8 mb 0.00 in0.0 mm 0.00 in0.0 mm 0.00 in0.0 mm
10:48 AM 64.5°F18.1°C 51.2°F10.7°C 62% 5.1 mph WSW8.2 kmh WSW 7.0 mph11.3 kmh 30.32 in1026.8 mb 0.00 in0.0 mm 0.00 in0.0 mm 0.00 in0.0 mm
10:49 AM 64.5°F18.1°C 50.7°F10.4°C 61% 5.0 mph WSW8.0 kmh WSW 7.0 mph11.3 kmh 30.32 in1026.8 mb 0.00 in0.0 mm 0.00 in0.0 mm 0.00 in0.0 mm
10:50 AM 64.7°F18.2°C 51.8°F11.0°C 63% 4.0 mph WSW6.4 kmh WSW 5.0 mph8.0 kmh 30.32 in1026.8 mb 0.00 in0.0 mm 0.00 in0.0 mm 0.00 in0.0 mm
10:51 AM 64.8°F18.2°C 51.5°F10.8°C 62% 4.9 mph WSW7.9 kmh WSW 7.0 mph11.3 kmh 30.32 in1026.8 mb 0.00 in0.0 mm 0.00 in0.0 mm 0.00 in0.0 mm
10:52 AM 64.9°F18.3°C 51.1°F10.6°C 61% 5.1 mph WSW8.2 kmh WSW 7.0 mph11.3 kmh 30.32 in1026.8 mb 0.00 in0.0 mm 0.00 in0.0 mm 0.00 in0.0 mm
10:53 AM 64.9°F18.3°C 50.7°F10.4°C 60% 4.5 mph WSW7.2 kmh WSW 7.0 mph11.3 kmh 30.32 in1026.8 mb 0.00 in0.0 mm 0.00 in0.0 mm 0.00 in0.0 mm
10:54 AM 65.0°F18.3°C 51.2°F10.7°C 61% 5.8 mph WSW9.3 kmh WSW 7.0 mph11.3 kmh 30.32 in1026.8 mb 0.00 in0.0 mm 0.00 in0.0 mm 0.00 in0.0 mm
10:55 AM 65.0°F18.3°C 50.8°F10.4°C 60% 6.6 mph WSW10.6 kmh WSW 9.0 mph14.5 kmh 30.32 in1026.8 mb 0.00 in0.0 mm 0.00 in0.0 mm 0.00 in0.0 mm
10:56 AM 65.0°F18.3°C 51.2°F10.7°C 61% 5.5 mph WSW8.9 kmh WSW 9.0 mph14.5 kmh 30.32 in1026.8 mb 0.00 in0.0 mm 0.00 in0.0 mm 0.00 in0.0 mm
10:57 AM 65.2°F18.4°C 51.4°F10.8°C 61% 4.8 mph SW7.7 kmh SW 9.0 mph14.5 kmh 30.32 in1026.8 mb 0.00 in0.0 mm 0.00 in0.0 mm 0.00 in0.0 mm
10:58 AM 65.4°F18.6°C 51.6°F10.9°C 61% 4.6 mph SW7.4 kmh SW 6.0 mph9.7 kmh 30.32 in1026.8 mb 0.00 in0.0 mm 0.00 in0.0 mm 0.00 in0.0 mm
10:59 AM 65.4°F18.6°C 51.1°F10.6°C 60% 6.0 mph WSW9.7 kmh WSW 7.0 mph11.3 kmh 30.32 in1026.8 mb 0.00 in0.0 mm 0.00 in0.0 mm 0.00 in0.0 mm
11:00 AM 65.5°F18.6°C 51.2°F10.7°C 60% 5.0 mph WSW8.0 kmh WSW 7.0 mph11.3 kmh 30.32 in1026.8 mb 0.00 in0.0 mm 0.00 in0.0 mm 0.00 in0.0 mm
11:01 AM 65.6°F18.7°C 51.8°F11.0°C 61% 5.1 mph WSW8.2 kmh WSW 7.0 mph11.3 kmh 30.32 in1026.8 mb 0.00 in0.0 mm 0.00 in0.0 mm 0.00 in0.0 mm
11:02 AM 65.6°F18.7°C 51.8°F11.0°C 61% 6.9 mph WSW11.1 kmh WSW 8.0 mph12.9 kmh 30.32 in1026.8 mb 0.00 in0.0 mm 0.00 in0.0 mm 0.00 in0.0 mm
11:03 AM 65.6°F18.7°C 51.8°F11.0°C 61% 6.2 mph WSW10.0 kmh WSW 8.0 mph12.9 kmh 30.32 in1026.8 mb 0.00 in0.0 mm 0.00 in0.0 mm 0.00 in0.0 mm
11:04 AM 65.7°F18.7°C 51.9°F11.1°C 61% 4.8 mph WSW7.7 kmh WSW 8.0 mph12.9 kmh 30.32 in1026.8 mb 0.00 in0.0 mm 0.00 in0.0 mm 0.00 in0.0 mm
11:05 AM 65.7°F18.7°C 51.9°F11.1°C 61% 3.7 mph WSW6.0 kmh WSW 7.0 mph11.3 kmh 30.32 in1026.8 mb 0.00 in0.0 mm 0.00 in0.0 mm 0.00 in0.0 mm
11:06 AM 65.7°F18.7°C 51.4°F10.8°C 60% 5.8 mph WSW9.3 kmh WSW 8.0 mph12.9 kmh 30.31 in1026.4 mb 0.00 in0.0 mm 0.00 in0.0 mm 0.00 in0.0 mm
11:07 AM 65.7°F18.7°C 51.4°F10.8°C 60% 5.2 mph WSW8.4 kmh WSW 8.0 mph12.9 kmh 30.31 in1026.4 mb 0.00 in0.0 mm 0.00 in0.0 mm 0.00 in0.0 mm
11:08 AM 65.7°F18.7°C 51.9°F11.1°C 61% 4.2 mph WSW6.8 kmh WSW 7.0 mph11.3 kmh 30.31 in1026.4 mb 0.00 in0.0 mm 0.00 in0.0 mm 0.00 in0.0 mm
11:09 AM 65.7°F18.7°C 51.9°F11.1°C 61% 5.0 mph WSW8.0 kmh WSW 7.0 mph11.3 kmh 30.32 in1026.8 mb 0.00 in0.0 mm 0.00 in0.0 mm 0.00 in0.0 mm
11:10 AM 65.7°F18.7°C 51.9°F11.1°C 61% 4.6 mph WSW7.4 kmh WSW 7.0 mph11.3 kmh 30.32 in1026.8 mb 0.00 in0.0 mm 0.00 in0.0 mm 0.00 in0.0 mm
11:11 AM 65.8°F18.8°C 52.0°F11.1°C 61% 3.6 mph WSW5.8 kmh WSW 5.0 mph8.0 kmh 30.31 in1026.4 mb 0.00 in0.0 mm 0.00 in0.0 mm 0.00 in0.0 mm
11:12 AM 65.8°F18.8°C 52.0°F11.1°C 61% 4.0 mph WSW6.4 kmh WSW 6.0 mph9.7 kmh 30.31 in1026.4 mb 0.00 in0.0 mm 0.00 in0.0 mm 0.00 in0.0 mm
11:13 AM 65.8°F18.8°C 52.0°F11.1°C 61% 3.7 mph WSW6.0 kmh WSW 6.0 mph9.7 kmh 30.31 in1026.4 mb 0.00 in0.0 mm 0.00 in0.0 mm 0.00 in0.0 mm
11:14 AM 65.8°F18.8°C 52.0°F11.1°C 61% 4.4 mph WSW7.1 kmh WSW 6.0 mph9.7 kmh 30.31 in1026.4 mb 0.00 in0.0 mm 0.00 in0.0 mm 0.00 in0.0 mm
11:15 AM 65.8°F18.8°C 52.0°F11.1°C 61% 4.7 mph WSW7.6 kmh WSW 7.0 mph11.3 kmh 30.31 in1026.4 mb 0.00 in0.0 mm 0.00 in0.0 mm 0.00 in0.0 mm
11:16 AM 65.8°F18.8°C 52.0°F11.1°C 61% 3.7 mph WSW6.0 kmh WSW 7.0 mph11.3 kmh 30.31 in1026.4 mb 0.00 in0.0 mm 0.00 in0.0 mm 0.00 in0.0 mm
11:17 AM 65.8°F18.8°C 52.4°F11.3°C 62% 3.3 mph WSW5.3 kmh WSW 5.0 mph8.0 kmh 30.31 in1026.4 mb 0.00 in0.0 mm 0.00 in0.0 mm 0.00 in0.0 mm
11:18 AM 65.8°F18.8°C 52.0°F11.1°C 61% 3.6 mph WSW5.8 kmh WSW 5.0 mph8.0 kmh 30.31 in1026.4 mb 0.00 in0.0 mm 0.00 in0.0 mm 0.00 in0.0 mm
11:19 AM 65.9°F18.8°C 52.5°F11.4°C 62% 3.0 mph WSW4.8 kmh WSW 4.0 mph6.4 kmh 30.31 in1026.4 mb 0.00 in0.0 mm 0.00 in0.0 mm 0.00 in0.0 mm
11:20 AM 65.9°F18.8°C 52.5°F11.4°C 62% 3.5 mph WSW5.6 kmh WSW 4.0 mph6.4 kmh 30.31 in1026.4 mb 0.00 in0.0 mm 0.00 in0.0 mm 0.00 in0.0 mm
11:21 AM 65.9°F18.8°C 52.5°F11.4°C 62% 3.3 mph WSW5.3 kmh WSW 4.0 mph6.4 kmh 30.31 in1026.4 mb 0.00 in0.0 mm 0.00 in0.0 mm 0.00 in0.0 mm
11:22 AM 65.9°F18.8°C 52.9°F11.6°C 63% 3.2 mph WSW5.1 kmh WSW 4.0 mph6.4 kmh 30.31 in1026.4 mb 0.00 in0.0 mm 0.00 in0.0 mm 0.00 in0.0 mm
11:23 AM 65.9°F18.8°C 52.5°F11.4°C 62% 3.0 mph W4.8 kmh W 4.0 mph6.4 kmh 30.31 in1026.4 mb 0.00 in0.0 mm 0.00 in0.0 mm 0.00 in0.0 mm
11:24 AM 65.9°F18.8°C 52.5°F11.4°C 62% 3.0 mph W4.8 kmh W 4.0 mph6.4 kmh 30.31 in1026.4 mb 0.00 in0.0 mm 0.00 in0.0 mm 0.00 in0.0 mm
11:25 AM 66.0°F18.9°C 52.6°F11.4°C 62% 2.9 mph W4.7 kmh W 4.0 mph6.4 kmh 30.31 in1026.4 mb 0.00 in0.0 mm 0.00 in0.0 mm 0.00 in0.0 mm
11:26 AM 66.0°F18.9°C 52.6°F11.4°C 62% 2.7 mph W4.3 kmh W 4.0 mph6.4 kmh 30.31 in1026.4 mb 0.00 in0.0 mm 0.00 in0.0 mm 0.00 in0.0 mm
11:27 AM 66.0°F18.9°C 52.6°F11.4°C 62% 2.0 mph W3.2 kmh W 3.0 mph4.8 kmh 30.31 in1026.4 mb 0.00 in0.0 mm 0.00 in0.0 mm 0.00 in0.0 mm
11:28 AM 66.0°F18.9°C 52.6°F11.4°C 62% 3.0 mph W4.8 kmh W 3.0 mph4.8 kmh 30.31 in1026.4 mb 0.00 in0.0 mm 0.00 in0.0 mm 0.00 in0.0 mm
11:29 AM 66.0°F18.9°C 52.6°F11.4°C 62% 2.2 mph W3.5 kmh W 3.0 mph4.8 kmh 30.31 in1026.4 mb 0.00 in0.0 mm 0.00 in0.0 mm 0.00 in0.0 mm
11:30 AM 66.0°F18.9°C 52.6°F11.4°C 62% 2.0 mph W3.2 kmh W 3.0 mph4.8 kmh 30.31 in1026.4 mb 0.00 in0.0 mm 0.00 in0.0 mm 0.00 in0.0 mm
11:31 AM 66.1°F18.9°C 52.7°F11.5°C 62% 2.0 mph W3.2 kmh W 3.0 mph4.8 kmh 30.31 in1026.4 mb 0.00 in0.0 mm 0.00 in0.0 mm 0.00 in0.0 mm
11:32 AM 66.2°F19.0°C 53.2°F11.8°C 63% 2.0 mph W3.2 kmh W 2.0 mph3.2 kmh 30.31 in1026.4 mb 0.00 in0.0 mm 0.00 in0.0 mm 0.00 in0.0 mm
11:33 AM 66.3°F19.1°C 52.9°F11.6°C 62% 1.7 mph W2.7 kmh W 3.0 mph4.8 kmh 30.31 in1026.4 mb 0.00 in0.0 mm 0.00 in0.0 mm 0.00 in0.0 mm
11:34 AM 66.5°F19.2°C 53.5°F11.9°C 63% 2.1 mph W3.4 kmh W 3.0 mph4.8 kmh 30.31 in1026.4 mb 0.00 in0.0 mm 0.00 in0.0 mm 0.00 in0.0 mm
11:35 AM 66.6°F19.2°C 53.6°F12.0°C 63% 2.1 mph W3.4 kmh W 3.0 mph4.8 kmh 30.31 in1026.4 mb 0.00 in0.0 mm 0.00 in0.0 mm 0.00 in0.0 mm
11:36 AM 66.7°F19.3°C 53.3°F11.8°C 62% 2.5 mph W4.0 kmh W 3.0 mph4.8 kmh 30.31 in1026.4 mb 0.00 in0.0 mm 0.00 in0.0 mm 0.00 in0.0 mm
11:37 AM 66.8°F19.3°C 53.4°F11.9°C 62% 1.9 mph W3.1 kmh W 3.0 mph4.8 kmh 30.31 in1026.4 mb 0.00 in0.0 mm 0.00 in0.0 mm 0.00 in0.0 mm
11:38 AM 66.8°F19.3°C 52.9°F11.6°C 61% 1.9 mph W3.1 kmh W 3.0 mph4.8 kmh 30.31 in1026.4 mb 0.00 in0.0 mm 0.00 in0.0 mm 0.00 in0.0 mm
11:39 AM 66.8°F19.3°C 52.9°F11.6°C 61% 2.3 mph W3.7 kmh W 3.0 mph4.8 kmh 30.31 in1026.4 mb 0.00 in0.0 mm 0.00 in0.0 mm 0.00 in0.0 mm
11:40 AM 66.8°F19.3°C 52.0°F11.1°C 59% 3.0 mph W4.8 kmh W 3.0 mph4.8 kmh 30.31 in1026.4 mb 0.00 in0.0 mm 0.00 in0.0 mm 0.00 in0.0 mm
11:41 AM 66.7°F19.3°C 52.4°F11.3°C 60% 3.0 mph W4.8 kmh W 4.0 mph6.4 kmh 30.31 in1026.4 mb 0.00 in0.0 mm 0.00 in0.0 mm 0.00 in0.0 mm
11:42 AM 66.5°F19.2°C 52.2°F11.2°C 60% 3.0 mph WNW4.8 kmh WNW 4.0 mph6.4 kmh 30.31 in1026.4 mb 0.00 in0.0 mm 0.00 in0.0 mm 0.00 in0.0 mm
11:43 AM 66.4°F19.1°C 52.1°F11.2°C 60% 3.3 mph WNW5.3 kmh WNW 4.0 mph6.4 kmh 30.31 in1026.4 mb 0.00 in0.0 mm 0.00 in0.0 mm 0.00 in0.0 mm
11:44 AM 66.3°F19.1°C 52.4°F11.3°C 61% 3.4 mph WNW5.5 kmh WNW 4.0 mph6.4 kmh 30.31 in1026.4 mb 0.00 in0.0 mm 0.00 in0.0 mm 0.00 in0.0 mm
11:45 AM 66.2°F19.0°C 52.3°F11.3°C 61% 3.4 mph NW5.5 kmh NW 4.0 mph6.4 kmh 30.31 in1026.4 mb 0.00 in0.0 mm 0.00 in0.0 mm 0.00 in0.0 mm
11:46 AM 66.3°F19.1°C 52.9°F11.6°C 62% 3.6 mph NW5.8 kmh NW 4.0 mph6.4 kmh 30.31 in1026.4 mb 0.00 in0.0 mm 0.00 in0.0 mm 0.00 in0.0 mm
11:47 AM 66.3°F19.1°C 52.9°F11.6°C 62% 3.5 mph NW5.6 kmh NW 4.0 mph6.4 kmh 30.31 in1026.4 mb 0.00 in0.0 mm 0.00 in0.0 mm 0.00 in0.0 mm
11:48 AM 66.4°F19.1°C 53.0°F11.7°C 62% 3.8 mph NW6.1 kmh NW 5.0 mph8.0 kmh 30.31 in1026.4 mb 0.00 in0.0 mm 0.00 in0.0 mm 0.00 in0.0 mm
11:49 AM 66.5°F19.2°C 53.1°F11.7°C 62% 3.6 mph NW5.8 kmh NW 5.0 mph8.0 kmh 30.31 in1026.4 mb 0.00 in0.0 mm 0.00 in0.0 mm 0.00 in0.0 mm
11:50 AM 66.5°F19.2°C 52.6°F11.4°C 61% 3.4 mph NW5.5 kmh NW 5.0 mph8.0 kmh 30.31 in1026.4 mb 0.00 in0.0 mm 0.00 in0.0 mm 0.00 in0.0 mm
11:51 AM 66.5°F19.2°C 52.6°F11.4°C 61% 3.2 mph NW5.1 kmh NW 4.0 mph6.4 kmh 30.31 in1026.4 mb 0.00 in0.0 mm 0.00 in0.0 mm 0.00 in0.0 mm
11:52 AM 66.5°F19.2°C 52.2°F11.2°C 60% 2.7 mph NW4.3 kmh NW 4.0 mph6.4 kmh 30.31 in1026.4 mb 0.00 in0.0 mm 0.00 in0.0 mm 0.00 in0.0 mm
11:53 AM 66.5°F19.2°C 52.6°F11.4°C 61% 2.4 mph NW3.9 kmh NW 4.0 mph6.4 kmh 30.31 in1026.4 mb 0.00 in0.0 mm 0.00 in0.0 mm 0.00 in0.0 mm
11:54 AM 66.7°F19.3°C 52.4°F11.3°C 60% 1.7 mph NW2.7 kmh NW 3.0 mph4.8 kmh 30.31 in1026.4 mb 0.00 in0.0 mm 0.00 in0.0 mm 0.00 in0.0 mm
11:55 AM 66.8°F19.3°C 52.9°F11.6°C 61% 2.0 mph NW3.2 kmh NW 3.0 mph4.8 kmh 30.31 in1026.4 mb 0.00 in0.0 mm 0.00 in0.0 mm 0.00 in0.0 mm
11:56 AM 66.8°F19.3°C 52.5°F11.4°C 60% 2.0 mph NW3.2 kmh NW 3.0 mph4.8 kmh 30.31 in1026.4 mb 0.00 in0.0 mm 0.00 in0.0 mm 0.00 in0.0 mm
11:57 AM 67.0°F19.4°C 53.1°F11.7°C 61% 3.0 mph NW4.8 kmh NW 4.0 mph6.4 kmh 30.31 in1026.4 mb 0.00 in0.0 mm 0.00 in0.0 mm 0.00 in0.0 mm
11:58 AM 67.0°F19.4°C 51.7°F10.9°C 58% 3.0 mph W4.8 kmh W 4.0 mph6.4 kmh 30.31 in1026.4 mb 0.00 in0.0 mm 0.00 in0.0 mm 0.00 in0.0 mm
11:59 AM 67.0°F19.4°C 51.7°F10.9°C 58% 1.8 mph WSW2.9 kmh WSW 2.0 mph3.2 kmh 30.31 in1026.4 mb 0.00 in0.0 mm 0.00 in0.0 mm 0.00 in0.0 mm
12:00 PM 67.1°F19.5°C 52.3°F11.3°C 59% 1.9 mph WSW3.1 kmh WSW 3.0 mph4.8 kmh 30.31 in1026.4 mb 0.00 in0.0 mm 0.00 in0.0 mm 0.00 in0.0 mm
12:01 PM 67.1°F19.5°C 51.8°F11.0°C 58% 1.7 mph WSW2.7 kmh WSW 3.0 mph4.8 kmh 30.31 in1026.4 mb 0.00 in0.0 mm 0.00 in0.0 mm 0.00 in0.0 mm
12:02 PM 67.2°F19.6°C 51.9°F11.1°C 58% 1.6 mph WSW2.6 kmh WSW 3.0 mph4.8 kmh 30.31 in1026.4 mb 0.00 in0.0 mm 0.00 in0.0 mm 0.00 in0.0 mm
12:03 PM 67.3°F19.6°C 52.5°F11.4°C 59% 1.5 mph WSW2.4 kmh WSW 3.0 mph4.8 kmh 30.31 in1026.4 mb 0.00 in0.0 mm 0.00 in0.0 mm 0.00 in0.0 mm
12:04 PM 67.4°F19.7°C 52.6°F11.4°C 59% 0.9 mph WSW1.4 kmh WSW 2.0 mph3.2 kmh 30.31 in1026.4 mb 0.00 in0.0 mm 0.00 in0.0 mm 0.00 in0.0 mm
12:05 PM 67.5°F19.7°C 52.2°F11.2°C 58% 1.0 mph W1.6 kmh W 2.0 mph3.2 kmh 30.31 in1026.4 mb 0.00 in0.0 mm 0.00 in0.0 mm 0.00 in0.0 mm
12:06 PM 67.6°F19.8°C 52.3°F11.3°C 58% 1.0 mph W1.6 kmh W 2.0 mph3.2 kmh 30.31 in1026.4 mb 0.00 in0.0 mm 0.00 in0.0 mm 0.00 in0.0 mm
12:07 PM 67.6°F19.8°C 52.3°F11.3°C 58% 0.5 mph WSW0.8 kmh WSW 1.0 mph1.6 kmh 30.31 in1026.4 mb 0.00 in0.0 mm 0.00 in0.0 mm 0.00 in0.0 mm
12:08 PM 67.7°F19.8°C 52.4°F11.3°C 58% 0.9 mph WSW1.4 kmh WSW 2.0 mph3.2 kmh 30.31 in1026.4 mb 0.00 in0.0 mm 0.00 in0.0 mm 0.00 in0.0 mm
12:09 PM 67.8°F19.9°C 52.5°F11.4°C 58% 2.0 mph WSW3.2 kmh WSW 3.0 mph4.8 kmh 30.31 in1026.4 mb 0.00 in0.0 mm 0.00 in0.0 mm 0.00 in0.0 mm
12:10 PM 67.8°F19.9°C 52.5°F11.4°C 58% 2.1 mph WSW3.4 kmh WSW 3.0 mph4.8 kmh 30.31 in1026.4 mb 0.00 in0.0 mm 0.00 in0.0 mm 0.00 in0.0 mm
12:11 PM 67.9°F19.9°C 52.1°F11.2°C 57% 1.6 mph WSW2.6 kmh WSW 3.0 mph4.8 kmh 30.31 in1026.4 mb 0.00 in0.0 mm 0.00 in0.0 mm 0.00 in0.0 mm
12:12 PM 67.9°F19.9°C 52.1°F11.2°C 57% 1.7 mph WSW2.7 kmh WSW 2.0 mph3.2 kmh 30.31 in1026.4 mb 0.00 in0.0 mm 0.00 in0.0 mm 0.00 in0.0 mm
12:13 PM 68.0°F20.0°C 52.2°F11.2°C 57% 1.9 mph WSW3.1 kmh WSW 3.0 mph4.8 kmh 30.31 in1026.4 mb 0.00 in0.0 mm 0.00 in0.0 mm 0.00 in0.0 mm
12:14 PM 67.9°F19.9°C 52.1°F11.2°C 57% 2.0 mph W3.2 kmh W 3.0 mph4.8 kmh 30.31 in1026.4 mb 0.00 in0.0 mm 0.00 in0.0 mm 0.00 in0.0 mm
12:15 PM 67.9°F19.9°C 52.1°F11.2°C 57% 2.0 mph W3.2 kmh W 3.0 mph4.8 kmh 30.31 in1026.4 mb 0.00 in0.0 mm 0.00 in0.0 mm 0.00 in0.0 mm
12:16 PM 68.0°F20.0°C 52.2°F11.2°C 57% 2.1 mph WSW3.4 kmh WSW 3.0 mph4.8 kmh 30.31 in1026.4 mb 0.00 in0.0 mm 0.00 in0.0 mm 0.00 in0.0 mm
12:17 PM 68.1°F20.1°C 52.3°F11.3°C 57% 1.8 mph WSW2.9 kmh WSW 3.0 mph4.8 kmh 30.31 in1026.4 mb 0.00 in0.0 mm 0.00 in0.0 mm 0.00 in0.0 mm
12:18 PM 68.0°F20.0°C 52.2°F11.2°C 57% 2.1 mph WSW3.4 kmh WSW 3.0 mph4.8 kmh 30.31 in1026.4 mb 0.00 in0.0 mm 0.00 in0.0 mm 0.00 in0.0 mm
12:19 PM 68.0°F20.0°C 52.2°F11.2°C 57% 2.4 mph WSW3.9 kmh WSW 3.0 mph4.8 kmh 30.31 in1026.4 mb 0.00 in0.0 mm 0.00 in0.0 mm 0.00 in0.0 mm
12:20 PM 68.0°F20.0°C 51.7°F10.9°C 56% 2.0 mph W3.2 kmh W 3.0 mph4.8 kmh 30.31 in1026.4 mb 0.00 in0.0 mm 0.00 in0.0 mm 0.00 in0.0 mm
12:21 PM 68.1°F20.1°C 52.3°F11.3°C 57% 2.0 mph W3.2 kmh W 3.0 mph4.8 kmh 30.31 in1026.4 mb 0.00 in0.0 mm 0.00 in0.0 mm 0.00 in0.0 mm
12:22 PM 68.1°F20.1°C 52.3°F11.3°C 57% 2.2 mph WSW3.5 kmh WSW 3.0 mph4.8 kmh 30.31 in1026.4 mb 0.00 in0.0 mm 0.00 in0.0 mm 0.00 in0.0 mm
12:23 PM 68.1°F20.1°C 51.3°F10.7°C 55% 2.4 mph WSW3.9 kmh WSW 3.0 mph4.8 kmh 30.31 in1026.4 mb 0.00 in0.0 mm 0.00 in0.0 mm 0.00 in0.0 mm
12:24 PM 68.1°F20.1°C 51.8°F11.0°C 56% 2.4 mph WSW3.9 kmh WSW 3.0 mph4.8 kmh 30.31 in1026.4 mb 0.00 in0.0 mm 0.00 in0.0 mm 0.00 in0.0 mm
12:25 PM 68.1°F20.1°C 51.3°F10.7°C 55% 2.3 mph WSW3.7 kmh WSW 3.0 mph4.8 kmh 30.31 in1026.4 mb 0.00 in0.0 mm 0.00 in0.0 mm 0.00 in0.0 mm
12:26 PM 68.1°F20.1°C 51.8°F11.0°C 56% 2.1 mph WSW3.4 kmh WSW 3.0 mph4.8 kmh 30.31 in1026.4 mb 0.00 in0.0 mm 0.00 in0.0 mm 0.00 in0.0 mm
12:27 PM 68.2°F20.1°C 52.4°F11.3°C 57% 2.9 mph W4.7 kmh W 3.0 mph4.8 kmh 30.31 in1026.4 mb 0.00 in0.0 mm 0.00 in0.0 mm 0.00 in0.0 mm
12:28 PM 68.3°F20.2°C 53.4°F11.9°C 59% 3.0 mph WNW4.8 kmh WNW 4.0 mph6.4 kmh 30.31 in1026.4 mb 0.00 in0.0 mm 0.00 in0.0 mm 0.00 in0.0 mm
12:29 PM 68.4°F20.2°C 53.5°F11.9°C 59% 3.0 mph WNW4.8 kmh WNW 3.0 mph4.8 kmh 30.31 in1026.4 mb 0.00 in0.0 mm 0.00 in0.0 mm 0.00 in0.0 mm
12:30 PM 68.5°F20.3°C 54.1°F12.3°C 60% 3.9 mph N6.3 kmh N 5.0 mph8.0 kmh 30.31 in1026.4 mb 0.00 in0.0 mm 0.00 in0.0 mm 0.00 in0.0 mm
12:31 PM 68.5°F20.3°C 53.1°F11.7°C 58% 4.0 mph NNE6.4 kmh NNE 6.0 mph9.7 kmh 30.31 in1026.4 mb 0.00 in0.0 mm 0.00 in0.0 mm 0.00 in0.0 mm
12:32 PM 68.5°F20.3°C 53.1°F11.7°C 58% 3.1 mph NNE5.0 kmh NNE 6.0 mph9.7 kmh 30.31 in1026.4 mb 0.00 in0.0 mm 0.00 in0.0 mm 0.00 in0.0 mm
12:33 PM 68.5°F20.3°C 52.7°F11.5°C 57% 5.0 mph NNE8.0 kmh NNE 7.0 mph11.3 kmh 30.31 in1026.4 mb 0.00 in0.0 mm 0.00 in0.0 mm 0.00 in0.0 mm
12:34 PM 68.6°F20.3°C 52.7°F11.5°C 57% 4.2 mph NE6.8 kmh NE 7.0 mph11.3 kmh 30.31 in1026.4 mb 0.00 in0.0 mm 0.00 in0.0 mm 0.00 in0.0 mm
12:35 PM 68.7°F20.4°C 52.8°F11.6°C 57% 3.0 mph NNE4.8 kmh NNE 4.0 mph6.4 kmh 30.31 in1026.4 mb 0.00 in0.0 mm 0.00 in0.0 mm 0.00 in0.0 mm
12:36 PM 68.8°F20.4°C 52.9°F11.6°C 57% 4.0 mph 6.4 kmh 4.0 mph6.4 kmh 30.31 in1026.4 mb 0.00 in0.0 mm 0.00 in0.0 mm 0.00 in0.0 mm
12:37 PM 68.7°F20.4°C 53.3°F11.8°C 58% 4.0 mph NNW6.4 kmh NNW 4.0 mph6.4 kmh 30.31 in1026.4 mb 0.00 in0.0 mm 0.00 in0.0 mm 0.00 in0.0 mm
12:38 PM 68.7°F20.4°C 51.9°F11.1°C 55% 2.8 mph NNW4.5 kmh NNW 5.0 mph8.0 kmh 30.31 in1026.4 mb 0.00 in0.0 mm 0.00 in0.0 mm 0.00 in0.0 mm
12:39 PM 68.7°F20.4°C 53.3°F11.8°C 58% 2.4 mph NNW3.9 kmh NNW 5.0 mph8.0 kmh 30.31 in1026.4 mb 0.00 in0.0 mm 0.00 in0.0 mm 0.00 in0.0 mm
12:40 PM 68.7°F20.4°C 52.4°F11.3°C 56% 3.0 mph NNW4.8 kmh NNW 3.0 mph4.8 kmh 30.31 in1026.4 mb 0.00 in0.0 mm 0.00 in0.0 mm 0.00 in0.0 mm
12:41 PM 68.6°F20.3°C 52.3°F11.3°C 56% 3.0 mph NNW4.8 kmh NNW 4.0 mph6.4 kmh 30.31 in1026.4 mb 0.00 in0.0 mm 0.00 in0.0 mm 0.00 in0.0 mm
12:42 PM 68.5°F20.3°C 52.2°F11.2°C 56% 4.0 mph NNW6.4 kmh NNW 4.0 mph6.4 kmh 30.31 in1026.4 mb 0.00 in0.0 mm 0.00 in0.0 mm 0.00 in0.0 mm
12:43 PM 68.5°F20.3°C 52.2°F11.2°C 56% 3.2 mph N5.1 kmh N 5.0 mph8.0 kmh 30.31 in1026.4 mb 0.00 in0.0 mm 0.00 in0.0 mm 0.00 in0.0 mm
12:44 PM 68.6°F20.3°C 52.7°F11.5°C 57% 4.9 mph N7.9 kmh N 6.0 mph9.7 kmh 30.31 in1026.4 mb 0.00 in0.0 mm 0.00 in0.0 mm 0.00 in0.0 mm
12:45 PM 68.6°F20.3°C 53.7°F12.1°C 59% 5.4 mph N8.7 kmh N 8.0 mph12.9 kmh 30.31 in1026.4 mb 0.00 in0.0 mm 0.00 in0.0 mm 0.00 in0.0 mm
12:46 PM 68.6°F20.3°C 54.6°F12.6°C 61% 5.7 mph N9.2 kmh N 8.0 mph12.9 kmh 30.31 in1026.4 mb 0.00 in0.0 mm 0.00 in0.0 mm 0.00 in0.0 mm
12:47 PM 68.5°F20.3°C 54.1°F12.3°C 60% 5.6 mph N9.0 kmh N 8.0 mph12.9 kmh 30.31 in1026.4 mb 0.00 in0.0 mm 0.00 in0.0 mm 0.00 in0.0 mm
12:48 PM 68.6°F20.3°C 53.7°F12.1°C 59% 5.6 mph N9.0 kmh N 8.0 mph12.9 kmh 30.31 in1026.4 mb 0.00 in0.0 mm 0.00 in0.0 mm 0.00 in0.0 mm
12:49 PM 68.7°F20.4°C 54.2°F12.3°C 60% 6.5 mph N10.5 kmh N 9.0 mph14.5 kmh 30.31 in1026.4 mb 0.00 in0.0 mm 0.00 in0.0 mm 0.00 in0.0 mm
12:50 PM 68.7°F20.4°C 54.7°F12.6°C 61% 6.6 mph N10.6 kmh N 9.0 mph14.5 kmh 30.31 in1026.4 mb 0.00 in0.0 mm 0.00 in0.0 mm 0.00 in0.0 mm
12:51 PM 68.6°F20.3°C 54.2°F12.3°C 60% 6.1 mph N9.8 kmh N 9.0 mph14.5 kmh 30.31 in1026.4 mb 0.00 in0.0 mm 0.00 in0.0 mm 0.00 in0.0 mm
12:52 PM 68.6°F20.3°C 54.6°F12.6°C 61% 5.5 mph N8.9 kmh N 8.0 mph12.9 kmh 30.31 in1026.4 mb 0.00 in0.0 mm 0.00 in0.0 mm 0.00 in0.0 mm
12:53 PM 68.6°F20.3°C 54.2°F12.3°C 60% 7.4 mph N11.9 kmh N 9.0 mph14.5 kmh 30.31 in1026.4 mb 0.00 in0.0 mm 0.00 in0.0 mm 0.00 in0.0 mm
12:54 PM 68.6°F20.3°C 53.7°F12.1°C 59% 8.0 mph 12.9 kmh 9.0 mph14.5 kmh 30.31 in1026.4 mb 0.00 in0.0 mm 0.00 in0.0 mm 0.00 in0.0 mm
12:55 PM 68.5°F20.3°C 53.6°F12.0°C 59% 7.0 mph 11.3 kmh 9.0 mph14.5 kmh 30.31 in1026.4 mb 0.00 in0.0 mm 0.00 in0.0 mm 0.00 in0.0 mm
12:56 PM 68.5°F20.3°C 53.1°F11.7°C 58% 7.8 mph N12.6 kmh N 9.0 mph14.5 kmh 30.31 in1026.4 mb 0.00 in0.0 mm 0.00 in0.0 mm 0.00 in0.0 mm
12:57 PM 68.5°F20.3°C 53.1°F11.7°C 58% 7.5 mph N12.1 kmh N 9.0 mph14.5 kmh 30.31 in1026.4 mb 0.00 in0.0 mm 0.00 in0.0 mm 0.00 in0.0 mm
12:58 PM 68.5°F20.3°C 53.6°F12.0°C 59% 8.5 mph N13.7 kmh N 10.0 mph16.1 kmh 30.31 in1026.4 mb 0.00 in0.0 mm 0.00 in0.0 mm 0.00 in0.0 mm
12:59 PM 68.4°F20.2°C 54.9°F12.7°C 62% 8.0 mph 12.9 kmh 10.0 mph16.1 kmh 30.31 in1026.4 mb 0.00 in0.0 mm 0.00 in0.0 mm 0.00 in0.0 mm
01:00 PM 68.4°F20.2°C 54.9°F12.7°C 62% 8.0 mph 12.9 kmh 10.0 mph16.1 kmh 30.31 in1026.4 mb 0.00 in0.0 mm 0.00 in0.0 mm 0.00 in0.0 mm
01:01 PM 68.3°F20.2°C 55.2°F12.9°C 63% 6.5 mph N10.5 kmh N 9.0 mph14.5 kmh 30.31 in1026.4 mb 0.00 in0.0 mm 0.00 in0.0 mm 0.00 in0.0 mm
01:02 PM 68.3°F20.2°C 55.6°F13.1°C 64% 6.5 mph N10.5 kmh N 9.0 mph14.5 kmh 30.31 in1026.4 mb 0.00 in0.0 mm 0.00 in0.0 mm 0.00 in0.0 mm
01:03 PM 68.2°F20.1°C 55.1°F12.8°C 63% 8.0 mph 12.9 kmh 9.0 mph14.5 kmh 30.31 in1026.4 mb 0.00 in0.0 mm 0.00 in0.0 mm 0.00 in0.0 mm
01:04 PM 68.1°F20.1°C 55.5°F13.1°C 64% 7.0 mph 11.3 kmh 9.0 mph14.5 kmh 30.31 in1026.4 mb 0.00 in0.0 mm 0.00 in0.0 mm 0.00 in0.0 mm
01:05 PM 68.0°F20.0°C 55.4°F13.0°C 64% 6.8 mph N10.9 kmh N 8.0 mph12.9 kmh 30.31 in1026.4 mb 0.00 in0.0 mm 0.00 in0.0 mm 0.00 in0.0 mm
01:06 PM 68.0°F20.0°C 55.8°F13.2°C 65% 5.9 mph N9.5 kmh N 8.0 mph12.9 kmh 30.31 in1026.4 mb 0.00 in0.0 mm 0.00 in0.0 mm 0.00 in0.0 mm
01:07 PM 68.0°F20.0°C 55.8°F13.2°C 65% 5.8 mph N9.3 kmh N 8.0 mph12.9 kmh 30.31 in1026.4 mb 0.00 in0.0 mm 0.00 in0.0 mm 0.00 in0.0 mm
01:08 PM 68.0°F20.0°C 55.8°F13.2°C 65% 5.0 mph 8.0 kmh 6.0 mph9.7 kmh 30.31 in1026.4 mb 0.00 in0.0 mm 0.00 in0.0 mm 0.00 in0.0 mm
01:09 PM 68.1°F20.1°C 55.9°F13.3°C 65% 5.0 mph 8.0 kmh 8.0 mph12.9 kmh 30.31 in1026.4 mb 0.00 in0.0 mm 0.00 in0.0 mm 0.00 in0.0 mm
01:10 PM 68.1°F20.1°C 55.5°F13.1°C 64% 7.0 mph 11.3 kmh 9.0 mph14.5 kmh 30.31 in1026.4 mb 0.00 in0.0 mm 0.00 in0.0 mm 0.00 in0.0 mm
01:11 PM 68.1°F20.1°C 55.5°F13.1°C 64% 6.0 mph 9.7 kmh 9.0 mph14.5 kmh 30.31 in1026.4 mb 0.00 in0.0 mm 0.00 in0.0 mm 0.00 in0.0 mm
01:12 PM 68.1°F20.1°C 54.6°F12.6°C 62% 7.0 mph N11.3 kmh N 8.0 mph12.9 kmh 30.31 in1026.4 mb 0.00 in0.0 mm 0.00 in0.0 mm 0.00 in0.0 mm
01:13 PM 68.1°F20.1°C 54.1°F12.3°C 61% 7.3 mph N11.7 kmh N 9.0 mph14.5 kmh 30.31 in1026.4 mb 0.00 in0.0 mm 0.00 in0.0 mm 0.00 in0.0 mm
01:14 PM 68.0°F20.0°C 54.5°F12.5°C 62% 8.0 mph 12.9 kmh 9.0 mph14.5 kmh 30.31 in1026.4 mb 0.00 in0.0 mm 0.00 in0.0 mm 0.00 in0.0 mm
01:15 PM 68.1°F20.1°C 55.5°F13.1°C 64% 5.0 mph 8.0 kmh 7.0 mph11.3 kmh 30.31 in1026.4 mb 0.00 in0.0 mm 0.00 in0.0 mm 0.00 in0.0 mm
01:16 PM 68.1°F20.1°C 54.6°F12.6°C 62% 5.8 mph N9.3 kmh N 6.0 mph9.7 kmh 30.31 in1026.4 mb 0.00 in0.0 mm 0.00 in0.0 mm 0.00 in0.0 mm
01:17 PM 68.1°F20.1°C 55.0°F12.8°C 63% 6.5 mph N10.5 kmh N 8.0 mph12.9 kmh 30.31 in1026.4 mb 0.00 in0.0 mm 0.00 in0.0 mm 0.00 in0.0 mm
01:18 PM 68.1°F20.1°C 55.5°F13.1°C 64% 6.2 mph N10.0 kmh N 8.0 mph12.9 kmh 30.31 in1026.4 mb 0.00 in0.0 mm 0.00 in0.0 mm 0.00 in0.0 mm
01:19 PM 68.0°F20.0°C 54.9°F12.7°C 63% 7.1 mph N11.4 kmh N 9.0 mph14.5 kmh 30.31 in1026.4 mb 0.00 in0.0 mm 0.00 in0.0 mm 0.00 in0.0 mm
01:20 PM 68.0°F20.0°C 54.9°F12.7°C 63% 6.6 mph N10.6 kmh N 9.0 mph14.5 kmh 30.31 in1026.4 mb 0.00 in0.0 mm 0.00 in0.0 mm 0.00 in0.0 mm
01:21 PM 68.0°F20.0°C 54.9°F12.7°C 63% 6.2 mph 10.0 kmh 8.0 mph12.9 kmh 30.31 in1026.4 mb 0.00 in0.0 mm 0.00 in0.0 mm 0.00 in0.0 mm
01:22 PM 68.0°F20.0°C 54.9°F12.7°C 63% 5.8 mph N9.3 kmh N 8.0 mph12.9 kmh 30.31 in1026.4 mb 0.00 in0.0 mm 0.00 in0.0 mm 0.00 in0.0 mm
01:23 PM 68.0°F20.0°C 54.9°F12.7°C 63% 5.7 mph N9.2 kmh N 8.0 mph12.9 kmh 30.31 in1026.4 mb 0.00 in0.0 mm 0.00 in0.0 mm 0.00 in0.0 mm
01:24 PM 68.1°F20.1°C 54.6°F12.6°C 62% 5.7 mph N9.2 kmh N 8.0 mph12.9 kmh 30.31 in1026.4 mb 0.00 in0.0 mm 0.00 in0.0 mm 0.00 in0.0 mm
01:25 PM 68.1°F20.1°C 55.0°F12.8°C 63% 5.0 mph 8.0 kmh 8.0 mph12.9 kmh 30.31 in1026.4 mb 0.00 in0.0 mm 0.00 in0.0 mm 0.00 in0.0 mm
01:26 PM 68.1°F20.1°C 55.0°F12.8°C 63% 6.0 mph 9.7 kmh 8.0 mph12.9 kmh 30.30 in1026.1 mb 0.00 in0.0 mm 0.00 in0.0 mm 0.00 in0.0 mm
01:27 PM 68.1°F20.1°C 55.0°F12.8°C 63% 6.0 mph 9.7 kmh 8.0 mph12.9 kmh 30.31 in1026.4 mb 0.00 in0.0 mm 0.00 in0.0 mm 0.00 in0.0 mm
01:28 PM 68.1°F20.1°C 55.0°F12.8°C 63% 5.8 mph N9.3 kmh N 8.0 mph12.9 kmh 30.30 in1026.1 mb 0.00 in0.0 mm 0.00 in0.0 mm 0.00 in0.0 mm
01:29 PM 68.1°F20.1°C 55.0°F12.8°C 63% 6.0 mph N9.7 kmh N 8.0 mph12.9 kmh 30.30 in1026.1 mb 0.00 in0.0 mm 0.00 in0.0 mm 0.00 in0.0 mm
01:30 PM 68.2°F20.1°C 54.7°F12.6°C 62% 6.2 mph 10.0 kmh 8.0 mph12.9 kmh 30.30 in1026.1 mb 0.00 in0.0 mm 0.00 in0.0 mm 0.00 in0.0 mm
01:31 PM 68.2°F20.1°C 55.1°F12.8°C 63% 5.4 mph N8.7 kmh N 8.0 mph12.9 kmh 30.30 in1026.1 mb 0.00 in0.0 mm 0.00 in0.0 mm 0.00 in0.0 mm
01:32 PM 68.3°F20.2°C 55.6°F13.1°C 64% 4.5 mph N7.2 kmh N 7.0 mph11.3 kmh 30.30 in1026.1 mb 0.00 in0.0 mm 0.00 in0.0 mm 0.00 in0.0 mm
01:33 PM 68.4°F20.2°C 55.7°F13.2°C 64% 4.5 mph N7.2 kmh N 6.0 mph9.7 kmh 30.30 in1026.1 mb 0.00 in0.0 mm 0.00 in0.0 mm 0.00 in0.0 mm
01:34 PM 68.5°F20.3°C 55.8°F13.2°C 64% 4.7 mph N7.6 kmh N 6.0 mph9.7 kmh 30.30 in1026.1 mb 0.00 in0.0 mm 0.00 in0.0 mm 0.00 in0.0 mm
01:35 PM 68.5°F20.3°C 55.4°F13.0°C 63% 4.5 mph N7.2 kmh N 6.0 mph9.7 kmh 30.30 in1026.1 mb 0.00 in0.0 mm 0.00 in0.0 mm 0.00 in0.0 mm
01:36 PM 68.6°F20.3°C 55.5°F13.1°C 63% 4.3 mph N6.9 kmh N 6.0 mph9.7 kmh 30.30 in1026.1 mb 0.00 in0.0 mm 0.00 in0.0 mm 0.00 in0.0 mm
01:37 PM 68.6°F20.3°C 55.5°F13.1°C 63% 4.5 mph N7.2 kmh N 6.0 mph9.7 kmh 30.30 in1026.1 mb 0.00 in0.0 mm 0.00 in0.0 mm 0.00 in0.0 mm
01:38 PM 68.7°F20.4°C 55.1°F12.8°C 62% 4.0 mph 6.4 kmh 6.0 mph9.7 kmh 30.30 in1026.1 mb 0.00 in0.0 mm 0.00 in0.0 mm 0.00 in0.0 mm
01:39 PM 68.7°F20.4°C 55.1°F12.8°C 62% 4.0 mph 6.4 kmh 6.0 mph9.7 kmh 30.30 in1026.1 mb 0.00 in0.0 mm 0.00 in0.0 mm 0.00 in0.0 mm
01:40 PM 68.7°F20.4°C 55.1°F12.8°C 62% 5.0 mph 8.0 kmh 6.0 mph9.7 kmh 30.30 in1026.1 mb 0.00 in0.0 mm 0.00 in0.0 mm 0.00 in0.0 mm
01:41 PM 68.7°F20.4°C 55.1°F12.8°C 62% 4.1 mph N6.6 kmh N 6.0 mph9.7 kmh 30.30 in1026.1 mb 0.00 in0.0 mm 0.00 in0.0 mm 0.00 in0.0 mm
01:42 PM 68.8°F20.4°C 55.2°F12.9°C 62% 4.4 mph N7.1 kmh N 6.0 mph9.7 kmh 30.30 in1026.1 mb 0.00 in0.0 mm 0.00 in0.0 mm 0.00 in0.0 mm
01:43 PM 68.9°F20.5°C 54.9°F12.7°C 61% 5.0 mph 8.0 kmh 6.0 mph9.7 kmh 30.30 in1026.1 mb 0.00 in0.0 mm 0.00 in0.0 mm 0.00 in0.0 mm
01:44 PM 68.8°F20.4°C 54.8°F12.7°C 61% 5.0 mph 8.0 kmh 8.0 mph12.9 kmh 30.30 in1026.1 mb 0.00 in0.0 mm 0.00 in0.0 mm 0.00 in0.0 mm
01:45 PM 68.9°F20.5°C 54.4°F12.4°C 60% 7.0 mph 11.3 kmh 8.0 mph12.9 kmh 30.30 in1026.1 mb 0.00 in0.0 mm 0.00 in0.0 mm 0.00 in0.0 mm
01:46 PM 68.9°F20.5°C 54.4°F12.4°C 60% 7.0 mph N11.3 kmh N 8.0 mph12.9 kmh 30.30 in1026.1 mb 0.00 in0.0 mm 0.00 in0.0 mm 0.00 in0.0 mm
01:47 PM 68.9°F20.5°C 54.0°F12.2°C 59% 5.7 mph N9.2 kmh N 8.0 mph12.9 kmh 30.30 in1026.1 mb 0.00 in0.0 mm 0.00 in0.0 mm 0.00 in0.0 mm
01:48 PM 68.9°F20.5°C 54.0°F12.2°C 59% 5.6 mph N9.0 kmh N 7.0 mph11.3 kmh 30.30 in1026.1 mb 0.00 in0.0 mm 0.00 in0.0 mm 0.00 in0.0 mm
01:49 PM 68.9°F20.5°C 54.4°F12.4°C 60% 5.4 mph N8.7 kmh N 8.0 mph12.9 kmh 30.30 in1026.1 mb 0.00 in0.0 mm 0.00 in0.0 mm 0.00 in0.0 mm
01:50 PM 68.9°F20.5°C 54.4°F12.4°C 60% 6.0 mph 9.7 kmh 8.0 mph12.9 kmh 30.30 in1026.1 mb 0.00 in0.0 mm 0.00 in0.0 mm 0.00 in0.0 mm
01:51 PM 68.9°F20.5°C 54.4°F12.4°C 60% 6.0 mph 9.7 kmh 8.0 mph12.9 kmh 30.30 in1026.1 mb 0.00 in0.0 mm 0.00 in0.0 mm 0.00 in0.0 mm
01:52 PM 68.9°F20.5°C 54.4°F12.4°C 60% 5.0 mph 8.0 kmh 7.0 mph11.3 kmh 30.30 in1026.1 mb 0.00 in0.0 mm 0.00 in0.0 mm 0.00 in0.0 mm
01:53 PM 68.9°F20.5°C 54.0°F12.2°C 59% 5.1 mph N8.2 kmh N 6.0 mph9.7 kmh 30.30 in1026.1 mb 0.00 in0.0 mm 0.00 in0.0 mm 0.00 in0.0 mm
01:54 PM 68.9°F20.5°C 54.4°F12.4°C 60% 5.0 mph 8.0 kmh 7.0 mph11.3 kmh 30.30 in1026.1 mb 0.00 in0.0 mm 0.00 in0.0 mm 0.00 in0.0 mm
01:55 PM 69.0°F20.6°C 55.0°F12.8°C 61% 5.0 mph 8.0 kmh 6.0 mph9.7 kmh 30.30 in1026.1 mb 0.00 in0.0 mm 0.00 in0.0 mm 0.00 in0.0 mm
01:56 PM 69.0°F20.6°C 55.0°F12.8°C 61% 3.7 mph N6.0 kmh N 5.0 mph8.0 kmh 30.30 in1026.1 mb 0.00 in0.0 mm 0.00 in0.0 mm 0.00 in0.0 mm
01:57 PM 69.1°F20.6°C 55.1°F12.8°C 61% 4.3 mph N6.9 kmh N 5.0 mph8.0 kmh 30.30 in1026.1 mb 0.00 in0.0 mm 0.00 in0.0 mm 0.00 in0.0 mm
01:58 PM 69.1°F20.6°C 55.5°F13.1°C 62% 4.2 mph N6.8 kmh N 5.0 mph8.0 kmh 30.30 in1026.1 mb 0.00 in0.0 mm 0.00 in0.0 mm 0.00 in0.0 mm
01:59 PM 69.1°F20.6°C 55.5°F13.1°C 62% 4.5 mph N7.2 kmh N 6.0 mph9.7 kmh 30.30 in1026.1 mb 0.00 in0.0 mm 0.00 in0.0 mm 0.00 in0.0 mm
02:00 PM 69.1°F20.6°C 56.0°F13.3°C 63% 4.0 mph N6.4 kmh N 6.0 mph9.7 kmh 30.30 in1026.1 mb 0.00 in0.0 mm 0.00 in0.0 mm 0.00 in0.0 mm
02:01 PM 69.1°F20.6°C 56.0°F13.3°C 63% 3.7 mph N6.0 kmh N 5.0 mph8.0 kmh 30.30 in1026.1 mb 0.00 in0.0 mm 0.00 in0.0 mm 0.00 in0.0 mm
02:02 PM 69.2°F20.7°C 56.1°F13.4°C 63% 4.4 mph N7.1 kmh N 6.0 mph9.7 kmh 30.30 in1026.1 mb 0.00 in0.0 mm 0.00 in0.0 mm 0.00 in0.0 mm
02:03 PM 69.2°F20.7°C 56.1°F13.4°C 63% 3.5 mph N5.6 kmh N 6.0 mph9.7 kmh 30.30 in1026.1 mb 0.00 in0.0 mm 0.00 in0.0 mm 0.00 in0.0 mm
02:04 PM 69.2°F20.7°C 55.6°F13.1°C 62% 3.8 mph N6.1 kmh N 6.0 mph9.7 kmh 30.30 in1026.1 mb 0.00 in0.0 mm 0.00 in0.0 mm 0.00 in0.0 mm
02:05 PM 69.3°F20.7°C 55.7°F13.2°C 62% 4.0 mph NNW6.4 kmh NNW 5.0 mph8.0 kmh 30.30 in1026.1 mb 0.00 in0.0 mm 0.00 in0.0 mm 0.00 in0.0 mm
02:06 PM 69.4°F20.8°C 55.8°F13.2°C 62% 4.0 mph 6.4 kmh 6.0 mph9.7 kmh 30.30 in1026.1 mb 0.00 in0.0 mm 0.00 in0.0 mm 0.00 in0.0 mm
02:07 PM 69.4°F20.8°C 55.8°F13.2°C 62% 3.4 mph N5.5 kmh N 5.0 mph8.0 kmh 30.30 in1026.1 mb 0.00 in0.0 mm 0.00 in0.0 mm 0.00 in0.0 mm
02:08 PM 69.4°F20.8°C 55.8°F13.2°C 62% 4.4 mph N7.1 kmh N 6.0 mph9.7 kmh 30.30 in1026.1 mb 0.00 in0.0 mm 0.00 in0.0 mm 0.00 in0.0 mm
02:09 PM 69.4°F20.8°C 55.4°F13.0°C 61% 4.2 mph N6.8 kmh N 6.0 mph9.7 kmh 30.30 in1026.1 mb 0.00 in0.0 mm 0.00 in0.0 mm 0.00 in0.0 mm
02:10 PM 69.5°F20.8°C 55.5°F13.1°C 61% 4.8 mph N7.7 kmh N 6.0 mph9.7 kmh 30.30 in1026.1 mb 0.00 in0.0 mm 0.00 in0.0 mm 0.00 in0.0 mm
02:11 PM 69.4°F20.8°C 56.2°F13.4°C 63% 5.0 mph NNW8.0 kmh NNW 6.0 mph9.7 kmh 30.30 in1026.1 mb 0.00 in0.0 mm 0.00 in0.0 mm 0.00 in0.0 mm
02:12 PM 69.5°F20.8°C 56.8°F13.8°C 64% 7.0 mph NNW11.3 kmh NNW 9.0 mph14.5 kmh 30.30 in1026.1 mb 0.00 in0.0 mm 0.00 in0.0 mm 0.00 in0.0 mm
02:13 PM 69.3°F20.7°C 57.0°F13.9°C 65% 6.0 mph NNW9.7 kmh NNW 8.0 mph12.9 kmh 30.30 in1026.1 mb 0.00 in0.0 mm 0.00 in0.0 mm 0.00 in0.0 mm
02:14 PM 69.2°F20.7°C 55.6°F13.1°C 62% 8.0 mph NNW12.9 kmh NNW 9.0 mph14.5 kmh 30.30 in1026.1 mb 0.00 in0.0 mm 0.00 in0.0 mm 0.00 in0.0 mm
02:15 PM 69.0°F20.6°C 55.9°F13.3°C 63% 8.0 mph NNW12.9 kmh NNW 9.0 mph14.5 kmh 30.30 in1026.1 mb 0.00 in0.0 mm 0.00 in0.0 mm 0.00 in0.0 mm
02:16 PM 68.9°F20.5°C 56.6°F13.7°C 65% 8.1 mph NNW13.0 kmh NNW 9.0 mph14.5 kmh 30.30 in1026.1 mb 0.00 in0.0 mm 0.00 in0.0 mm 0.00 in0.0 mm
02:17 PM 68.9°F20.5°C 56.2°F13.4°C 64% 8.1 mph NNW13.0 kmh NNW 9.0 mph14.5 kmh 30.30 in1026.1 mb 0.00 in0.0 mm 0.00 in0.0 mm 0.00 in0.0 mm
02:18 PM 68.7°F20.4°C 56.0°F13.3°C 64% 7.0 mph NNW11.3 kmh NNW 9.0 mph14.5 kmh 30.30 in1026.1 mb 0.00 in0.0 mm 0.00 in0.0 mm 0.00 in0.0 mm
02:19 PM 68.6°F20.3°C 56.4°F13.6°C 65% 7.0 mph NNW11.3 kmh NNW 8.0 mph12.9 kmh 30.29 in1025.7 mb 0.00 in0.0 mm 0.00 in0.0 mm 0.00 in0.0 mm
02:20 PM 68.6°F20.3°C 56.4°F13.6°C 65% 6.7 mph NNW10.8 kmh NNW 8.0 mph12.9 kmh 30.29 in1025.7 mb 0.00 in0.0 mm 0.00 in0.0 mm 0.00 in0.0 mm
02:21 PM 68.5°F20.3°C 56.3°F13.5°C 65% 7.7 mph NNW12.4 kmh NNW 8.0 mph12.9 kmh 30.30 in1026.1 mb 0.00 in0.0 mm 0.00 in0.0 mm 0.00 in0.0 mm
02:22 PM 68.5°F20.3°C 55.8°F13.2°C 64% 7.9 mph NNW12.7 kmh NNW 9.0 mph14.5 kmh 30.29 in1025.7 mb 0.00 in0.0 mm 0.00 in0.0 mm 0.00 in0.0 mm
02:23 PM 68.5°F20.3°C 55.4°F13.0°C 63% 7.4 mph NNW11.9 kmh NNW 9.0 mph14.5 kmh 30.30 in1026.1 mb 0.00 in0.0 mm 0.00 in0.0 mm 0.00 in0.0 mm
02:24 PM 68.4°F20.2°C 55.3°F12.9°C 63% 7.0 mph NNW11.3 kmh NNW 9.0 mph14.5 kmh 30.30 in1026.1 mb 0.00 in0.0 mm 0.00 in0.0 mm 0.00 in0.0 mm
02:25 PM 68.5°F20.3°C 54.1°F12.3°C 60% 7.0 mph NNW11.3 kmh NNW 8.0 mph12.9 kmh 30.29 in1025.7 mb 0.00 in0.0 mm 0.00 in0.0 mm 0.00 in0.0 mm
02:26 PM 68.5°F20.3°C 55.0°F12.8°C 62% 6.0 mph NNW9.7 kmh NNW 6.0 mph9.7 kmh 30.29 in1025.7 mb 0.00 in0.0 mm 0.00 in0.0 mm 0.00 in0.0 mm
02:27 PM 68.6°F20.3°C 55.9°F13.3°C 64% 7.0 mph NNW11.3 kmh NNW 8.0 mph12.9 kmh 30.29 in1025.7 mb 0.00 in0.0 mm 0.00 in0.0 mm 0.00 in0.0 mm
02:28 PM 68.7°F20.4°C 54.7°F12.6°C 61% 6.0 mph NNW9.7 kmh NNW 8.0 mph12.9 kmh 30.29 in1025.7 mb 0.00 in0.0 mm 0.00 in0.0 mm 0.00 in0.0 mm
02:29 PM 68.8°F20.4°C 55.7°F13.2°C 63% 6.2 mph NNW10.0 kmh NNW 9.0 mph14.5 kmh 30.29 in1025.7 mb 0.00 in0.0 mm 0.00 in0.0 mm 0.00 in0.0 mm
02:30 PM 68.8°F20.4°C 54.8°F12.7°C 61% 7.0 mph NNW11.3 kmh NNW 8.0 mph12.9 kmh 30.29 in1025.7 mb 0.00 in0.0 mm 0.00 in0.0 mm 0.00 in0.0 mm
02:31 PM 68.9°F20.5°C 55.8°F13.2°C 63% 8.0 mph NNW12.9 kmh NNW 9.0 mph14.5 kmh 30.29 in1025.7 mb 0.00 in0.0 mm 0.00 in0.0 mm 0.00 in0.0 mm
02:32 PM 68.8°F20.4°C 55.2°F12.9°C 62% 8.2 mph NNW13.2 kmh NNW 9.0 mph14.5 kmh 30.29 in1025.7 mb 0.00 in0.0 mm 0.00 in0.0 mm 0.00 in0.0 mm
02:33 PM 68.9°F20.5°C 55.3°F12.9°C 62% 8.0 mph NNW12.9 kmh NNW 9.0 mph14.5 kmh 30.29 in1025.7 mb 0.00 in0.0 mm 0.00 in0.0 mm 0.00 in0.0 mm
02:34 PM 68.9°F20.5°C 54.4°F12.4°C 60% 6.6 mph NNW10.6 kmh NNW 9.0 mph14.5 kmh 30.29 in1025.7 mb 0.00 in0.0 mm 0.00 in0.0 mm 0.00 in0.0 mm
02:35 PM 69.1°F20.6°C 55.5°F13.1°C 62% 6.0 mph NNW9.7 kmh NNW 8.0 mph12.9 kmh 30.29 in1025.7 mb 0.00 in0.0 mm 0.00 in0.0 mm 0.00 in0.0 mm
02:36 PM 69.1°F20.6°C 56.0°F13.3°C 63% 6.0 mph NNW9.7 kmh NNW 8.0 mph12.9 kmh 30.29 in1025.7 mb 0.00 in0.0 mm 0.00 in0.0 mm 0.00 in0.0 mm
02:37 PM 69.1°F20.6°C 55.5°F13.1°C 62% 6.3 mph NNW10.1 kmh NNW 8.0 mph12.9 kmh 30.29 in1025.7 mb 0.00 in0.0 mm 0.00 in0.0 mm 0.00 in0.0 mm
02:38 PM 69.1°F20.6°C 55.5°F13.1°C 62% 6.0 mph NNW9.7 kmh NNW 8.0 mph12.9 kmh 30.29 in1025.7 mb 0.00 in0.0 mm 0.00 in0.0 mm 0.00 in0.0 mm
02:39 PM 69.1°F20.6°C 56.4°F13.6°C 64% 8.0 mph NNW12.9 kmh NNW 9.0 mph14.5 kmh 30.29 in1025.7 mb 0.00 in0.0 mm 0.00 in0.0 mm 0.00 in0.0 mm
02:40 PM 69.1°F20.6°C 56.0°F13.3°C 63% 5.9 mph NNW9.5 kmh NNW 6.0 mph9.7 kmh 30.29 in1025.7 mb 0.00 in0.0 mm 0.00 in0.0 mm 0.00 in0.0 mm
02:41 PM 69.1°F20.6°C 56.4°F13.6°C 64% 6.7 mph NNW10.8 kmh NNW 10.0 mph16.1 kmh 30.29 in1025.7 mb 0.00 in0.0 mm 0.00 in0.0 mm 0.00 in0.0 mm
02:42 PM 69.1°F20.6°C 57.3°F14.1°C 66% 8.0 mph NNW12.9 kmh NNW 10.0 mph16.1 kmh 30.29 in1025.7 mb 0.00 in0.0 mm 0.00 in0.0 mm 0.00 in0.0 mm
02:43 PM 69.2°F20.7°C 57.8°F14.3°C 67% 8.6 mph NNW13.8 kmh NNW 10.0 mph16.1 kmh 30.29 in1025.7 mb 0.00 in0.0 mm 0.00 in0.0 mm 0.00 in0.0 mm
02:44 PM 69.2°F20.7°C 56.9°F13.8°C 65% 8.8 mph N14.2 kmh N 10.0 mph16.1 kmh 30.29 in1025.7 mb 0.00 in0.0 mm 0.00 in0.0 mm 0.00 in0.0 mm
02:45 PM 69.2°F20.7°C 57.3°F14.1°C 66% 7.6 mph N12.2 kmh N 10.0 mph16.1 kmh 30.29 in1025.7 mb 0.00 in0.0 mm 0.00 in0.0 mm 0.00 in0.0 mm
02:46 PM 69.2°F20.7°C 57.3°F14.1°C 66% 6.7 mph N10.8 kmh N 10.0 mph16.1 kmh 30.29 in1025.7 mb 0.00 in0.0 mm 0.00 in0.0 mm 0.00 in0.0 mm
02:47 PM 69.2°F20.7°C 57.3°F14.1°C 66% 7.0 mph 11.3 kmh 9.0 mph14.5 kmh 30.29 in1025.7 mb 0.00 in0.0 mm 0.00 in0.0 mm 0.00 in0.0 mm
02:48 PM 69.1°F20.6°C 55.5°F13.1°C 62% 8.0 mph 12.9 kmh 9.0 mph14.5 kmh 30.29 in1025.7 mb 0.00 in0.0 mm 0.00 in0.0 mm 0.00 in0.0 mm
02:49 PM 69.1°F20.6°C 55.1°F12.8°C 61% 7.0 mph 11.3 kmh 9.0 mph14.5 kmh 30.29 in1025.7 mb 0.00 in0.0 mm 0.00 in0.0 mm 0.00 in0.0 mm
02:50 PM 69.1°F20.6°C 55.5°F13.1°C 62% 6.0 mph 9.7 kmh 9.0 mph14.5 kmh 30.29 in1025.7 mb 0.00 in0.0 mm 0.00 in0.0 mm 0.00 in0.0 mm
02:51 PM 69.1°F20.6°C 56.0°F13.3°C 63% 6.0 mph 9.7 kmh 8.0 mph12.9 kmh 30.29 in1025.7 mb 0.00 in0.0 mm 0.00 in0.0 mm 0.00 in0.0 mm
02:52 PM 69.1°F20.6°C 56.4°F13.6°C 64% 5.6 mph N9.0 kmh N 7.0 mph11.3 kmh 30.29 in1025.7 mb 0.00 in0.0 mm 0.00 in0.0 mm 0.00 in0.0 mm
02:53 PM 69.1°F20.6°C 56.0°F13.3°C 63% 6.2 mph N10.0 kmh N 9.0 mph14.5 kmh 30.29 in1025.7 mb 0.00 in0.0 mm 0.00 in0.0 mm 0.00 in0.0 mm
02:54 PM 69.2°F20.7°C 56.5°F13.6°C 64% 6.9 mph N11.1 kmh N 9.0 mph14.5 kmh 30.29 in1025.7 mb 0.00 in0.0 mm 0.00 in0.0 mm 0.00 in0.0 mm
02:55 PM 69.1°F20.6°C 56.0°F13.3°C 63% 6.2 mph N10.0 kmh N 9.0 mph14.5 kmh 30.29 in1025.7 mb 0.00 in0.0 mm 0.00 in0.0 mm 0.00 in0.0 mm
02:56 PM 69.1°F20.6°C 56.0°F13.3°C 63% 5.4 mph N8.7 kmh N 9.0 mph14.5 kmh 30.29 in1025.7 mb 0.00 in0.0 mm 0.00 in0.0 mm 0.00 in0.0 mm
02:57 PM 69.1°F20.6°C 56.0°F13.3°C 63% 4.9 mph N7.9 kmh N 8.0 mph12.9 kmh 30.29 in1025.7 mb 0.00 in0.0 mm 0.00 in0.0 mm 0.00 in0.0 mm
02:58 PM 69.1°F20.6°C 55.5°F13.1°C 62% 5.0 mph N8.0 kmh N 8.0 mph12.9 kmh 30.29 in1025.7 mb 0.00 in0.0 mm 0.00 in0.0 mm 0.00 in0.0 mm
02:59 PM 69.2°F20.7°C 55.6°F13.1°C 62% 4.0 mph 6.4 kmh 6.0 mph9.7 kmh 30.29 in1025.7 mb 0.00 in0.0 mm 0.00 in0.0 mm 0.00 in0.0 mm
03:00 PM 69.2°F20.7°C 55.6°F13.1°C 62% 4.0 mph 6.4 kmh 6.0 mph9.7 kmh 30.29 in1025.7 mb 0.00 in0.0 mm 0.00 in0.0 mm 0.00 in0.0 mm
03:01 PM 69.3°F20.7°C 55.3°F12.9°C 61% 3.0 mph 4.8 kmh 5.0 mph8.0 kmh 30.29 in1025.7 mb 0.00 in0.0 mm 0.00 in0.0 mm 0.00 in0.0 mm
03:02 PM 69.4°F20.8°C 55.4°F13.0°C 61% 4.0 mph 6.4 kmh 6.0 mph9.7 kmh 30.29 in1025.7 mb 0.00 in0.0 mm 0.00 in0.0 mm 0.00 in0.0 mm
03:03 PM 69.6°F20.9°C 55.5°F13.1°C 61% 4.0 mph 6.4 kmh 5.0 mph8.0 kmh 30.29 in1025.7 mb 0.00 in0.0 mm 0.00 in0.0 mm 0.00 in0.0 mm
03:04 PM 69.7°F20.9°C 55.2°F12.9°C 60% 3.7 mph N6.0 kmh N 5.0 mph8.0 kmh 30.29 in1025.7 mb 0.00 in0.0 mm 0.00 in0.0 mm 0.00 in0.0 mm
03:05 PM 69.8°F21.0°C 54.8°F12.7°C 59% 5.0 mph 8.0 kmh 6.0 mph9.7 kmh 30.29 in1025.7 mb 0.00 in0.0 mm 0.00 in0.0 mm 0.00 in0.0 mm
03:06 PM 69.9°F21.1°C 55.4°F13.0°C 60% 4.0 mph NNW6.4 kmh NNW 5.0 mph8.0 kmh 30.28 in1025.4 mb 0.00 in0.0 mm 0.00 in0.0 mm 0.00 in0.0 mm
03:07 PM 69.9°F21.1°C 55.4°F13.0°C 60% 5.1 mph NNW8.2 kmh NNW 6.0 mph9.7 kmh 30.28 in1025.4 mb 0.00 in0.0 mm 0.00 in0.0 mm 0.00 in0.0 mm
03:08 PM 70.0°F21.1°C 55.0°F12.8°C 59% 5.0 mph NNW8.0 kmh NNW 6.0 mph9.7 kmh 30.28 in1025.4 mb 0.00 in0.0 mm 0.00 in0.0 mm 0.00 in0.0 mm
03:09 PM 70.1°F21.2°C 55.1°F12.8°C 59% 5.0 mph 8.0 kmh 6.0 mph9.7 kmh 30.29 in1025.7 mb 0.00 in0.0 mm 0.00 in0.0 mm 0.00 in0.0 mm
03:10 PM 70.2°F21.2°C 55.7°F13.2°C 60% 5.0 mph NNW8.0 kmh NNW 6.0 mph9.7 kmh 30.28 in1025.4 mb 0.00 in0.0 mm 0.00 in0.0 mm 0.00 in0.0 mm
03:11 PM 70.3°F21.3°C 54.8°F12.7°C 58% 5.2 mph NNW8.4 kmh NNW 6.0 mph9.7 kmh 30.28 in1025.4 mb 0.00 in0.0 mm 0.00 in0.0 mm 0.00 in0.0 mm
03:12 PM 70.3°F21.3°C 54.8°F12.7°C 58% 5.2 mph N8.4 kmh N 6.0 mph9.7 kmh 30.28 in1025.4 mb 0.00 in0.0 mm 0.00 in0.0 mm 0.00 in0.0 mm
03:13 PM 70.4°F21.3°C 55.8°F13.2°C 60% 5.0 mph NNW8.0 kmh NNW 6.0 mph9.7 kmh 30.28 in1025.4 mb 0.00 in0.0 mm 0.00 in0.0 mm 0.00 in0.0 mm
03:14 PM 70.4°F21.3°C 54.9°F12.7°C 58% 6.0 mph NNW9.7 kmh NNW 8.0 mph12.9 kmh 30.28 in1025.4 mb 0.00 in0.0 mm 0.00 in0.0 mm 0.00 in0.0 mm
03:15 PM 70.5°F21.4°C 56.4°F13.6°C 61% 6.7 mph NNW10.8 kmh NNW 8.0 mph12.9 kmh 30.28 in1025.4 mb 0.00 in0.0 mm 0.00 in0.0 mm 0.00 in0.0 mm
03:16 PM 70.3°F21.3°C 57.1°F13.9°C 63% 8.2 mph NNW13.2 kmh NNW 9.0 mph14.5 kmh 30.28 in1025.4 mb 0.00 in0.0 mm 0.00 in0.0 mm 0.00 in0.0 mm
03:17 PM 70.1°F21.2°C 57.8°F14.3°C 65% 8.3 mph N13.4 kmh N 9.0 mph14.5 kmh 30.28 in1025.4 mb 0.00 in0.0 mm 0.00 in0.0 mm 0.00 in0.0 mm
03:18 PM 70.0°F21.1°C 58.5°F14.7°C 67% 8.4 mph NNW13.5 kmh NNW 10.0 mph16.1 kmh 30.28 in1025.4 mb 0.00 in0.0 mm 0.00 in0.0 mm 0.00 in0.0 mm
03:19 PM 70.0°F21.1°C 58.1°F14.5°C 66% 9.0 mph NNW14.5 kmh NNW 11.0 mph17.7 kmh 30.28 in1025.4 mb 0.00 in0.0 mm 0.00 in0.0 mm 0.00 in0.0 mm
03:20 PM 69.9°F21.1°C 57.6°F14.2°C 65% 8.0 mph NNW12.9 kmh NNW 10.0 mph16.1 kmh 30.28 in1025.4 mb 0.00 in0.0 mm 0.00 in0.0 mm 0.00 in0.0 mm
03:21 PM 69.9°F21.1°C 57.6°F14.2°C 65% 7.0 mph NNW11.3 kmh NNW 11.0 mph17.7 kmh 30.28 in1025.4 mb 0.00 in0.0 mm 0.00 in0.0 mm 0.00 in0.0 mm
03:22 PM 69.9°F21.1°C 57.6°F14.2°C 65% 9.0 mph NNW14.5 kmh NNW 10.0 mph16.1 kmh 30.28 in1025.4 mb 0.00 in0.0 mm 0.00 in0.0 mm 0.00 in0.0 mm
03:23 PM 69.7°F20.9°C 57.0°F13.9°C 64% 8.0 mph NNW12.9 kmh NNW 10.0 mph16.1 kmh 30.28 in1025.4 mb 0.00 in0.0 mm 0.00 in0.0 mm 0.00 in0.0 mm
03:24 PM 69.7°F20.9°C 57.4°F14.1°C 65% 8.6 mph NNW13.8 kmh NNW 9.0 mph14.5 kmh 30.28 in1025.4 mb 0.00 in0.0 mm 0.00 in0.0 mm 0.00 in0.0 mm
03:25 PM 69.5°F20.8°C 57.2°F14.0°C 65% 8.1 mph NNW13.0 kmh NNW 10.0 mph16.1 kmh 30.28 in1025.4 mb 0.00 in0.0 mm 0.00 in0.0 mm 0.00 in0.0 mm
03:26 PM 69.5°F20.8°C 56.3°F13.5°C 63% 6.6 mph NNW10.6 kmh NNW 10.0 mph16.1 kmh 30.28 in1025.4 mb 0.00 in0.0 mm 0.00 in0.0 mm 0.00 in0.0 mm
03:27 PM 69.5°F20.8°C 56.8°F13.8°C 64% 8.4 mph NNW13.5 kmh NNW 10.0 mph16.1 kmh 30.28 in1025.4 mb 0.00 in0.0 mm 0.00 in0.0 mm 0.00 in0.0 mm
03:28 PM 69.5°F20.8°C 56.8°F13.8°C 64% 8.4 mph N13.5 kmh N 10.0 mph16.1 kmh 30.28 in1025.4 mb 0.00 in0.0 mm 0.00 in0.0 mm 0.00 in0.0 mm
03:29 PM 69.6°F20.9°C 57.3°F14.1°C 65% 9.0 mph NNW14.5 kmh NNW 11.0 mph17.7 kmh 30.28 in1025.4 mb 0.00 in0.0 mm 0.00 in0.0 mm 0.00 in0.0 mm
03:30 PM 69.7°F20.9°C 57.0°F13.9°C 64% 8.0 mph NNW12.9 kmh NNW 10.0 mph16.1 kmh 30.28 in1025.4 mb 0.00 in0.0 mm 0.00 in0.0 mm 0.00 in0.0 mm
03:31 PM 69.7°F20.9°C 57.0°F13.9°C 64% 7.5 mph N12.1 kmh N 9.0 mph14.5 kmh 30.28 in1025.4 mb 0.00 in0.0 mm 0.00 in0.0 mm 0.00 in0.0 mm
03:32 PM 69.7°F20.9°C 57.4°F14.1°C 65% 7.0 mph NNW11.3 kmh NNW 10.0 mph16.1 kmh 30.28 in1025.4 mb 0.00 in0.0 mm 0.00 in0.0 mm 0.00 in0.0 mm
03:33 PM 69.7°F20.9°C 56.1°F13.4°C 62% 7.0 mph 11.3 kmh 9.0 mph14.5 kmh 30.28 in1025.4 mb 0.00 in0.0 mm 0.00 in0.0 mm 0.00 in0.0 mm
03:34 PM 69.7°F20.9°C 55.6°F13.1°C 61% 7.0 mph N11.3 kmh N 9.0 mph14.5 kmh 30.28 in1025.4 mb 0.00 in0.0 mm 0.00 in0.0 mm 0.00 in0.0 mm
03:35 PM 69.7°F20.9°C 55.6°F13.1°C 61% 7.6 mph N12.2 kmh N 10.0 mph16.1 kmh 30.28 in1025.4 mb 0.00 in0.0 mm 0.00 in0.0 mm 0.00 in0.0 mm
03:36 PM 69.7°F20.9°C 55.2°F12.9°C 60% 9.1 mph N14.6 kmh N 10.0 mph16.1 kmh 30.28 in1025.4 mb 0.00 in0.0 mm 0.00 in0.0 mm 0.00 in0.0 mm
03:37 PM 69.6°F20.9°C 55.5°F13.1°C 61% 8.0 mph NNW12.9 kmh NNW 9.0 mph14.5 kmh 30.28 in1025.4 mb 0.00 in0.0 mm 0.00 in0.0 mm 0.00 in0.0 mm
03:38 PM 69.6°F20.9°C 56.4°F13.6°C 63% 7.0 mph NNW11.3 kmh NNW 10.0 mph16.1 kmh 30.28 in1025.4 mb 0.00 in0.0 mm 0.00 in0.0 mm 0.00 in0.0 mm
03:39 PM 69.6°F20.9°C 56.4°F13.6°C 63% 7.1 mph NNW11.4 kmh NNW 8.0 mph12.9 kmh 30.28 in1025.4 mb 0.00 in0.0 mm 0.00 in0.0 mm 0.00 in0.0 mm
03:40 PM 69.6°F20.9°C 56.9°F13.8°C 64% 6.3 mph NNW10.1 kmh NNW 8.0 mph12.9 kmh 30.28 in1025.4 mb 0.00 in0.0 mm 0.00 in0.0 mm 0.00 in0.0 mm
03:41 PM 69.8°F21.0°C 57.1°F13.9°C 64% 5.6 mph N9.0 kmh N 8.0 mph12.9 kmh 30.28 in1025.4 mb 0.00 in0.0 mm 0.00 in0.0 mm 0.00 in0.0 mm
03:42 PM 69.8°F21.0°C 56.6°F13.7°C 63% 5.6 mph N9.0 kmh N 8.0 mph12.9 kmh 30.28 in1025.4 mb 0.00 in0.0 mm 0.00 in0.0 mm 0.00 in0.0 mm
03:43 PM 69.9°F21.1°C 55.8°F13.2°C 61% 7.2 mph NNW11.6 kmh NNW 9.0 mph14.5 kmh 30.28 in1025.4 mb 0.00 in0.0 mm 0.00 in0.0 mm 0.00 in0.0 mm
03:44 PM 69.9°F21.1°C 56.3°F13.5°C 62% 8.0 mph NNW12.9 kmh NNW 9.0 mph14.5 kmh 30.27 in1025.1 mb 0.00 in0.0 mm 0.00 in0.0 mm 0.00 in0.0 mm
03:45 PM 69.9°F21.1°C 56.3°F13.5°C 62% 9.0 mph NNW14.5 kmh NNW 10.0 mph16.1 kmh 30.28 in1025.4 mb 0.00 in0.0 mm 0.00 in0.0 mm 0.00 in0.0 mm
03:46 PM 69.9°F21.1°C 57.6°F14.2°C 65% 9.0 mph NNW14.5 kmh NNW 11.0 mph17.7 kmh 30.28 in1025.4 mb 0.00 in0.0 mm 0.00 in0.0 mm 0.00 in0.0 mm
03:47 PM 69.7°F20.9°C 57.0°F13.9°C 64% 9.0 mph NNW14.5 kmh NNW 11.0 mph17.7 kmh 30.27 in1025.1 mb 0.00 in0.0 mm 0.00 in0.0 mm 0.00 in0.0 mm
03:48 PM 69.6°F20.9°C 57.3°F14.1°C 65% 9.0 mph NNW14.5 kmh NNW 11.0 mph17.7 kmh 30.27 in1025.1 mb 0.00 in0.0 mm 0.00 in0.0 mm 0.00 in0.0 mm
03:49 PM 69.5°F20.8°C 56.8°F13.8°C 64% 9.0 mph NNW14.5 kmh NNW 10.0 mph16.1 kmh 30.28 in1025.4 mb 0.00 in0.0 mm 0.00 in0.0 mm 0.00 in0.0 mm
03:50 PM 69.4°F20.8°C 56.7°F13.7°C 64% 9.4 mph NNW15.1 kmh NNW 10.0 mph16.1 kmh 30.27 in1025.1 mb 0.00 in0.0 mm 0.00 in0.0 mm 0.00 in0.0 mm
03:51 PM 69.4°F20.8°C 56.2°F13.4°C 63% 9.9 mph NNW15.9 kmh NNW 10.0 mph16.1 kmh 30.27 in1025.1 mb 0.00 in0.0 mm 0.00 in0.0 mm 0.00 in0.0 mm
03:52 PM 69.3°F20.7°C 56.2°F13.4°C 63% 10.1 mph NNW16.3 kmh NNW 11.0 mph17.7 kmh 30.28 in1025.4 mb 0.00 in0.0 mm 0.00 in0.0 mm 0.00 in0.0 mm
03:53 PM 69.2°F20.7°C 56.1°F13.4°C 63% 10.0 mph NNW16.1 kmh NNW 11.0 mph17.7 kmh 30.27 in1025.1 mb 0.00 in0.0 mm 0.00 in0.0 mm 0.00 in0.0 mm
03:54 PM 69.1°F20.6°C 56.4°F13.6°C 64% 9.5 mph NNW15.3 kmh NNW 12.0 mph19.3 kmh 30.27 in1025.1 mb 0.00 in0.0 mm 0.00 in0.0 mm 0.00 in0.0 mm
03:55 PM 69.0°F20.6°C 55.9°F13.3°C 63% 10.3 mph NNW16.6 kmh NNW 12.0 mph19.3 kmh 30.27 in1025.1 mb 0.00 in0.0 mm 0.00 in0.0 mm 0.00 in0.0 mm
03:56 PM 69.0°F20.6°C 56.3°F13.5°C 64% 9.0 mph NNW14.5 kmh NNW 12.0 mph19.3 kmh 30.27 in1025.1 mb 0.00 in0.0 mm 0.00 in0.0 mm 0.00 in0.0 mm
03:57 PM 69.0°F20.6°C 56.7°F13.7°C 65% 10.0 mph NNW16.1 kmh NNW 11.0 mph17.7 kmh 30.27 in1025.1 mb 0.00 in0.0 mm 0.00 in0.0 mm 0.00 in0.0 mm
03:58 PM 69.0°F20.6°C 56.7°F13.7°C 65% 7.8 mph NNW12.6 kmh NNW 9.0 mph14.5 kmh 30.27 in1025.1 mb 0.00 in0.0 mm 0.00 in0.0 mm 0.00 in0.0 mm
03:59 PM 69.1°F20.6°C 57.3°F14.1°C 66% 7.7 mph NNW12.4 kmh NNW 9.0 mph14.5 kmh 30.27 in1025.1 mb 0.00 in0.0 mm 0.00 in0.0 mm 0.00 in0.0 mm
04:00 PM 69.1°F20.6°C 56.4°F13.6°C 64% 8.7 mph NNW14.0 kmh NNW 10.0 mph16.1 kmh 30.27 in1025.1 mb 0.00 in0.0 mm 0.00 in0.0 mm 0.00 in0.0 mm
04:01 PM 69.1°F20.6°C 56.4°F13.6°C 64% 9.4 mph NNW15.1 kmh NNW 11.0 mph17.7 kmh 30.27 in1025.1 mb 0.00 in0.0 mm 0.00 in0.0 mm 0.00 in0.0 mm
04:02 PM 69.2°F20.7°C 56.5°F13.6°C 64% 9.0 mph NNW14.5 kmh NNW 10.0 mph16.1 kmh 30.27 in1025.1 mb 0.00 in0.0 mm 0.00 in0.0 mm 0.00 in0.0 mm
04:03 PM 69.1°F20.6°C 56.8°F13.8°C 65% 10.0 mph NNW16.1 kmh NNW 10.0 mph16.1 kmh 30.27 in1025.1 mb 0.00 in0.0 mm 0.00 in0.0 mm 0.00 in0.0 mm
04:04 PM 69.1°F20.6°C 56.8°F13.8°C 65% 9.5 mph NNW15.3 kmh NNW 10.0 mph16.1 kmh 30.27 in1025.1 mb 0.00 in0.0 mm 0.00 in0.0 mm 0.00 in0.0 mm
04:05 PM 69.1°F20.6°C 57.3°F14.1°C 66% 9.0 mph NNW14.5 kmh NNW 10.0 mph16.1 kmh 30.27 in1025.1 mb 0.00 in0.0 mm 0.00 in0.0 mm 0.00 in0.0 mm
04:06 PM 69.2°F20.7°C 56.9°F13.8°C 65% 9.0 mph NNW14.5 kmh NNW 10.0 mph16.1 kmh 30.27 in1025.1 mb 0.00 in0.0 mm 0.00 in0.0 mm 0.00 in0.0 mm
04:07 PM 69.1°F20.6°C 56.8°F13.8°C 65% 9.7 mph NNW15.6 kmh NNW 10.0 mph16.1 kmh 30.27 in1025.1 mb 0.00 in0.0 mm 0.00 in0.0 mm 0.00 in0.0 mm
04:08 PM 69.1°F20.6°C 56.8°F13.8°C 65% 9.0 mph NNW14.5 kmh NNW 10.0 mph16.1 kmh 30.27 in1025.1 mb 0.00 in0.0 mm 0.00 in0.0 mm 0.00 in0.0 mm
04:09 PM 69.0°F20.6°C 56.7°F13.7°C 65% 8.0 mph NNW12.9 kmh NNW 9.0 mph14.5 kmh 30.27 in1025.1 mb 0.00 in0.0 mm 0.00 in0.0 mm 0.00 in0.0 mm
04:10 PM 69.0°F20.6°C 56.7°F13.7°C 65% 8.0 mph NNW12.9 kmh NNW 10.0 mph16.1 kmh 30.27 in1025.1 mb 0.00 in0.0 mm 0.00 in0.0 mm 0.00 in0.0 mm
04:11 PM 69.0°F20.6°C 56.7°F13.7°C 65% 8.0 mph NNW12.9 kmh NNW 9.0 mph14.5 kmh 30.27 in1025.1 mb 0.00 in0.0 mm 0.00 in0.0 mm 0.00 in0.0 mm
04:12 PM 69.0°F20.6°C 57.2°F14.0°C 66% 8.8 mph NNW14.2 kmh NNW 10.0 mph16.1 kmh 30.27 in1025.1 mb 0.00 in0.0 mm 0.00 in0.0 mm 0.00 in0.0 mm
04:13 PM 69.0°F20.6°C 56.7°F13.7°C 65% 8.8 mph NNW14.2 kmh NNW 10.0 mph16.1 kmh 30.27 in1025.1 mb 0.00 in0.0 mm 0.00 in0.0 mm 0.00 in0.0 mm
04:14 PM 69.0°F20.6°C 56.3°F13.5°C 64% 8.0 mph NNW12.9 kmh NNW 9.0 mph14.5 kmh 30.27 in1025.1 mb 0.00 in0.0 mm 0.00 in0.0 mm 0.00 in0.0 mm
04:15 PM 69.1°F20.6°C 56.4°F13.6°C 64% 8.0 mph NNW12.9 kmh NNW 10.0 mph16.1 kmh 30.27 in1025.1 mb 0.00 in0.0 mm 0.00 in0.0 mm 0.00 in0.0 mm
04:16 PM 69.1°F20.6°C 56.0°F13.3°C 63% 8.6 mph NNW13.8 kmh NNW 9.0 mph14.5 kmh 30.27 in1025.1 mb 0.00 in0.0 mm 0.00 in0.0 mm 0.00 in0.0 mm
04:17 PM 69.1°F20.6°C 56.4°F13.6°C 64% 8.2 mph NNW13.2 kmh NNW 10.0 mph16.1 kmh 30.27 in1025.1 mb 0.00 in0.0 mm 0.00 in0.0 mm 0.00 in0.0 mm
04:18 PM 69.1°F20.6°C 56.0°F13.3°C 63% 6.9 mph N11.1 kmh N 10.0 mph16.1 kmh 30.27 in1025.1 mb 0.00 in0.0 mm 0.00 in0.0 mm 0.00 in0.0 mm
04:19 PM 69.1°F20.6°C 56.4°F13.6°C 64% 8.8 mph NNW14.2 kmh NNW 10.0 mph16.1 kmh 30.27 in1025.1 mb 0.00 in0.0 mm 0.00 in0.0 mm 0.00 in0.0 mm
04:20 PM 69.1°F20.6°C 56.0°F13.3°C 63% 9.6 mph NNW15.4 kmh NNW 10.0 mph16.1 kmh 30.27 in1025.1 mb 0.00 in0.0 mm 0.00 in0.0 mm 0.00 in0.0 mm
04:21 PM 69.1°F20.6°C 56.4°F13.6°C 64% 8.5 mph NNW13.7 kmh NNW 10.0 mph16.1 kmh 30.26 in1024.7 mb 0.00 in0.0 mm 0.00 in0.0 mm 0.00 in0.0 mm
04:22 PM 69.0°F20.6°C 56.7°F13.7°C 65% 8.8 mph NNW14.2 kmh NNW 11.0 mph17.7 kmh 30.27 in1025.1 mb 0.00 in0.0 mm 0.00 in0.0 mm 0.00 in0.0 mm
04:23 PM 69.0°F20.6°C 56.7°F13.7°C 65% 10.0 mph NNW16.1 kmh NNW 11.0 mph17.7 kmh 30.26 in1024.7 mb 0.00 in0.0 mm 0.00 in0.0 mm 0.00 in0.0 mm
04:24 PM 69.0°F20.6°C 56.3°F13.5°C 64% 9.0 mph NNW14.5 kmh NNW 11.0 mph17.7 kmh 30.26 in1024.7 mb 0.00 in0.0 mm 0.00 in0.0 mm 0.00 in0.0 mm
04:25 PM 69.1°F20.6°C 57.3°F14.1°C 66% 10.0 mph NNW16.1 kmh NNW 12.0 mph19.3 kmh 30.26 in1024.7 mb 0.00 in0.0 mm 0.00 in0.0 mm 0.00 in0.0 mm
04:26 PM 69.2°F20.7°C 56.5°F13.6°C 64% 10.0 mph NNW16.1 kmh NNW 11.0 mph17.7 kmh 30.26 in1024.7 mb 0.00 in0.0 mm 0.00 in0.0 mm 0.00 in0.0 mm
04:27 PM 69.3°F20.7°C 57.9°F14.4°C 67% 10.0 mph NNW16.1 kmh NNW 11.0 mph17.7 kmh 30.26 in1024.7 mb 0.00 in0.0 mm 0.00 in0.0 mm 0.00 in0.0 mm
04:28 PM 69.4°F20.8°C 57.1°F13.9°C 65% 10.0 mph NNW16.1 kmh NNW 12.0 mph19.3 kmh 30.26 in1024.7 mb 0.00 in0.0 mm 0.00 in0.0 mm 0.00 in0.0 mm
04:29 PM 69.4°F20.8°C 57.5°F14.2°C 66% 8.0 mph NNW12.9 kmh NNW 10.0 mph16.1 kmh 30.26 in1024.7 mb 0.00 in0.0 mm 0.00 in0.0 mm 0.00 in0.0 mm
04:30 PM 69.4°F20.8°C 57.5°F14.2°C 66% 8.2 mph NNW13.2 kmh NNW 11.0 mph17.7 kmh 30.26 in1024.7 mb 0.00 in0.0 mm 0.00 in0.0 mm 0.00 in0.0 mm
04:31 PM 69.4°F20.8°C 57.1°F13.9°C 65% 11.0 mph NNW17.7 kmh NNW 12.0 mph19.3 kmh 30.26 in1024.7 mb 0.00 in0.0 mm 0.00 in0.0 mm 0.00 in0.0 mm
04:32 PM 69.4°F20.8°C 56.7°F13.7°C 64% 10.0 mph NNW16.1 kmh NNW 11.0 mph17.7 kmh 30.26 in1024.7 mb 0.00 in0.0 mm 0.00 in0.0 mm 0.00 in0.0 mm
04:33 PM 69.4°F20.8°C 56.7°F13.7°C 64% 9.0 mph NNW14.5 kmh NNW 11.0 mph17.7 kmh 30.26 in1024.7 mb 0.00 in0.0 mm 0.00 in0.0 mm 0.00 in0.0 mm
04:34 PM 69.3°F20.7°C 57.4°F14.1°C 66% 9.9 mph NNW15.9 kmh NNW 11.0 mph17.7 kmh 30.26 in1024.7 mb 0.00 in0.0 mm 0.00 in0.0 mm 0.00 in0.0 mm
04:35 PM 69.3°F20.7°C 56.2°F13.4°C 63% 8.2 mph NNW13.2 kmh NNW 11.0 mph17.7 kmh 30.26 in1024.7 mb 0.00 in0.0 mm 0.00 in0.0 mm 0.00 in0.0 mm
04:36 PM 69.3°F20.7°C 57.0°F13.9°C 65% 9.0 mph NNW14.5 kmh NNW 11.0 mph17.7 kmh 30.26 in1024.7 mb 0.00 in0.0 mm 0.00 in0.0 mm 0.00 in0.0 mm
04:37 PM 69.4°F20.8°C 57.1°F13.9°C 65% 10.0 mph NNW16.1 kmh NNW 12.0 mph19.3 kmh 30.26 in1024.7 mb 0.00 in0.0 mm 0.00 in0.0 mm 0.00 in0.0 mm
04:38 PM 69.4°F20.8°C 56.7°F13.7°C 64% 10.6 mph N17.1 kmh N 11.0 mph17.7 kmh 30.26 in1024.7 mb 0.00 in0.0 mm 0.00 in0.0 mm 0.00 in0.0 mm
04:39 PM 69.5°F20.8°C 56.8°F13.8°C 64% 8.3 mph NNW13.4 kmh NNW 11.0 mph17.7 kmh 30.26 in1024.7 mb 0.00 in0.0 mm 0.00 in0.0 mm 0.00 in0.0 mm
04:40 PM 69.6°F20.9°C 57.3°F14.1°C 65% 10.0 mph NNW16.1 kmh NNW 11.0 mph17.7 kmh 30.26 in1024.7 mb 0.00 in0.0 mm 0.00 in0.0 mm 0.00 in0.0 mm
04:41 PM 69.6°F20.9°C 57.7°F14.3°C 66% 10.0 mph NNW16.1 kmh NNW 12.0 mph19.3 kmh 30.26 in1024.7 mb 0.00 in0.0 mm 0.00 in0.0 mm 0.00 in0.0 mm
04:42 PM 69.5°F20.8°C 57.6°F14.2°C 66% 11.2 mph NNW18.0 kmh NNW 13.0 mph20.9 kmh 30.26 in1024.7 mb 0.00 in0.0 mm 0.00 in0.0 mm 0.00 in0.0 mm
04:43 PM 69.4°F20.8°C 57.1°F13.9°C 65% 11.1 mph NNW17.9 kmh NNW 13.0 mph20.9 kmh 30.26 in1024.7 mb 0.00 in0.0 mm 0.00 in0.0 mm 0.00 in0.0 mm
04:44 PM 69.4°F20.8°C 57.1°F13.9°C 65% 10.0 mph NNW16.1 kmh NNW 12.0 mph19.3 kmh 30.26 in1024.7 mb 0.00 in0.0 mm 0.00 in0.0 mm 0.00 in0.0 mm
04:45 PM 69.4°F20.8°C 56.7°F13.7°C 64% 10.0 mph NNW16.1 kmh NNW 13.0 mph20.9 kmh 30.26 in1024.7 mb 0.00 in0.0 mm 0.00 in0.0 mm 0.00 in0.0 mm
04:46 PM 69.3°F20.7°C 55.7°F13.2°C 62% 12.0 mph NNW19.3 kmh NNW 14.0 mph22.5 kmh 30.26 in1024.7 mb 0.00 in0.0 mm 0.00 in0.0 mm 0.00 in0.0 mm
04:47 PM 69.3°F20.7°C 56.6°F13.7°C 64% 10.7 mph NNW17.2 kmh NNW 12.0 mph19.3 kmh 30.26 in1024.7 mb 0.00 in0.0 mm 0.00 in0.0 mm 0.00 in0.0 mm
04:48 PM 69.3°F20.7°C 57.0°F13.9°C 65% 11.6 mph NNW18.7 kmh NNW 14.0 mph22.5 kmh 30.26 in1024.7 mb 0.00 in0.0 mm 0.00 in0.0 mm 0.00 in0.0 mm
04:49 PM 69.3°F20.7°C 56.6°F13.7°C 64% 11.0 mph NNW17.7 kmh NNW 12.0 mph19.3 kmh 30.26 in1024.7 mb 0.00 in0.0 mm 0.00 in0.0 mm 0.00 in0.0 mm
04:50 PM 69.3°F20.7°C 57.0°F13.9°C 65% 11.0 mph NNW17.7 kmh NNW 13.0 mph20.9 kmh 30.26 in1024.7 mb 0.00 in0.0 mm 0.00 in0.0 mm 0.00 in0.0 mm
04:51 PM 69.2°F20.7°C 56.1°F13.4°C 63% 13.0 mph NNW20.9 kmh NNW 14.0 mph22.5 kmh 30.26 in1024.7 mb 0.00 in0.0 mm 0.00 in0.0 mm 0.00 in0.0 mm
04:52 PM 69.2°F20.7°C 56.5°F13.6°C 64% 13.0 mph NNW20.9 kmh NNW 14.0 mph22.5 kmh 30.26 in1024.7 mb 0.00 in0.0 mm 0.00 in0.0 mm 0.00 in0.0 mm
04:53 PM 69.0°F20.6°C 55.9°F13.3°C 63% 13.0 mph NNW20.9 kmh NNW 14.0 mph22.5 kmh 30.26 in1024.7 mb 0.00 in0.0 mm 0.00 in0.0 mm 0.00 in0.0 mm
04:54 PM 68.9°F20.5°C 56.6°F13.7°C 65% 12.0 mph NNW19.3 kmh NNW 14.0 mph22.5 kmh 30.26 in1024.7 mb 0.00 in0.0 mm 0.00 in0.0 mm 0.00 in0.0 mm
04:55 PM 68.9°F20.5°C 56.6°F13.7°C 65% 12.0 mph NNW19.3 kmh NNW 13.0 mph20.9 kmh 30.26 in1024.7 mb 0.00 in0.0 mm 0.00 in0.0 mm 0.00 in0.0 mm
04:56 PM 69.0°F20.6°C 56.7°F13.7°C 65% 12.4 mph NNW20.0 kmh NNW 14.0 mph22.5 kmh 30.26 in1024.7 mb 0.00 in0.0 mm 0.00 in0.0 mm 0.00 in0.0 mm
04:57 PM 69.0°F20.6°C 56.7°F13.7°C 65% 13.0 mph NNW20.9 kmh NNW 14.0 mph22.5 kmh 30.26 in1024.7 mb 0.00 in0.0 mm 0.00 in0.0 mm 0.00 in0.0 mm
04:58 PM 69.1°F20.6°C 57.3°F14.1°C 66% 11.0 mph NNW17.7 kmh NNW 13.0 mph20.9 kmh 30.26 in1024.7 mb 0.00 in0.0 mm 0.00 in0.0 mm 0.00 in0.0 mm
04:59 PM 69.0°F20.6°C 56.3°F13.5°C 64% 12.0 mph NNW19.3 kmh NNW 15.0 mph24.1 kmh 30.26 in1024.7 mb 0.00 in0.0 mm 0.00 in0.0 mm 0.00 in0.0 mm
05:00 PM 69.0°F20.6°C 55.9°F13.3°C 63% 13.0 mph NNW20.9 kmh NNW 15.0 mph24.1 kmh 30.26 in1024.7 mb 0.00 in0.0 mm 0.00 in0.0 mm 0.00 in0.0 mm
05:01 PM 69.0°F20.6°C 55.4°F13.0°C 62% 13.0 mph NNW20.9 kmh NNW 15.0 mph24.1 kmh 30.26 in1024.7 mb 0.00 in0.0 mm 0.00 in0.0 mm 0.00 in0.0 mm
05:02 PM 68.9°F20.5°C 55.8°F13.2°C 63% 12.3 mph NNW19.8 kmh NNW 14.0 mph22.5 kmh 30.26 in1024.7 mb 0.00 in0.0 mm 0.00 in0.0 mm 0.00 in0.0 mm
05:03 PM 68.9°F20.5°C 55.3°F12.9°C 62% 13.0 mph NNW20.9 kmh NNW 14.0 mph22.5 kmh 30.26 in1024.7 mb 0.00 in0.0 mm 0.00 in0.0 mm 0.00 in0.0 mm
05:04 PM 69.0°F20.6°C 55.4°F13.0°C 62% 12.0 mph NNW19.3 kmh NNW 14.0 mph22.5 kmh 30.26 in1024.7 mb 0.00 in0.0 mm 0.00 in0.0 mm 0.00 in0.0 mm
05:05 PM 69.1°F20.6°C 55.1°F12.8°C 61% 12.0 mph NNW19.3 kmh NNW 14.0 mph22.5 kmh 30.26 in1024.7 mb 0.00 in0.0 mm 0.00 in0.0 mm 0.00 in0.0 mm
05:06 PM 69.2°F20.7°C 55.6°F13.1°C 62% 11.2 mph N18.0 kmh N 13.0 mph20.9 kmh 30.26 in1024.7 mb 0.00 in0.0 mm 0.00 in0.0 mm 0.00 in0.0 mm
05:07 PM 69.2°F20.7°C 55.2°F12.9°C 61% 11.9 mph N19.2 kmh N 13.0 mph20.9 kmh 30.25 in1024.4 mb 0.00 in0.0 mm 0.00 in0.0 mm 0.00 in0.0 mm
05:08 PM 69.2°F20.7°C 54.7°F12.6°C 60% 11.4 mph N18.3 kmh N 13.0 mph20.9 kmh 30.26 in1024.7 mb 0.00 in0.0 mm 0.00 in0.0 mm 0.00 in0.0 mm
05:09 PM 69.2°F20.7°C 54.3°F12.4°C 59% 11.7 mph N18.8 kmh N 13.0 mph20.9 kmh 30.26 in1024.7 mb 0.00 in0.0 mm 0.00 in0.0 mm 0.00 in0.0 mm
05:10 PM 69.2°F20.7°C 54.3°F12.4°C 59% 11.0 mph NNW17.7 kmh NNW 13.0 mph20.9 kmh 30.25 in1024.4 mb 0.00 in0.0 mm 0.00 in0.0 mm 0.00 in0.0 mm
05:11 PM 69.2°F20.7°C 54.3°F12.4°C 59% 12.0 mph NNW19.3 kmh NNW 13.0 mph20.9 kmh 30.25 in1024.4 mb 0.00 in0.0 mm 0.00 in0.0 mm 0.00 in0.0 mm
05:12 PM 69.2°F20.7°C 54.7°F12.6°C 60% 11.0 mph NNW17.7 kmh NNW 13.0 mph20.9 kmh 30.25 in1024.4 mb 0.00 in0.0 mm 0.00 in0.0 mm 0.00 in0.0 mm
05:13 PM 69.3°F20.7°C 55.7°F13.2°C 62% 9.5 mph NNW15.3 kmh NNW 11.0 mph17.7 kmh 30.25 in1024.4 mb 0.00 in0.0 mm 0.00 in0.0 mm 0.00 in0.0 mm
05:14 PM 69.3°F20.7°C 55.7°F13.2°C 62% 10.0 mph NNW16.1 kmh NNW 11.0 mph17.7 kmh 30.25 in1024.4 mb 0.00 in0.0 mm 0.00 in0.0 mm 0.00 in0.0 mm
05:15 PM 69.4°F20.8°C 55.8°F13.2°C 62% 9.0 mph NNW14.5 kmh NNW 10.0 mph16.1 kmh 30.25 in1024.4 mb 0.00 in0.0 mm 0.00 in0.0 mm 0.00 in0.0 mm
05:16 PM 69.4°F20.8°C 56.2°F13.4°C 63% 9.5 mph NNW15.3 kmh NNW 10.0 mph16.1 kmh 30.25 in1024.4 mb 0.00 in0.0 mm 0.00 in0.0 mm 0.00 in0.0 mm
05:17 PM 69.4°F20.8°C 56.2°F13.4°C 63% 9.8 mph NNW15.8 kmh NNW 11.0 mph17.7 kmh 30.25 in1024.4 mb 0.00 in0.0 mm 0.00 in0.0 mm 0.00 in0.0 mm
05:18 PM 69.5°F20.8°C 56.8°F13.8°C 64% 9.8 mph NNW15.8 kmh NNW 11.0 mph17.7 kmh 30.25 in1024.4 mb 0.00 in0.0 mm 0.00 in0.0 mm 0.00 in0.0 mm
05:19 PM 69.4°F20.8°C 56.7°F13.7°C 64% 10.0 mph NNW16.1 kmh NNW 12.0 mph19.3 kmh 30.25 in1024.4 mb 0.00 in0.0 mm 0.00 in0.0 mm 0.00 in0.0 mm
05:20 PM 69.4°F20.8°C 56.2°F13.4°C 63% 11.0 mph NNW17.7 kmh NNW 13.0 mph20.9 kmh 30.25 in1024.4 mb 0.00 in0.0 mm 0.00 in0.0 mm 0.00 in0.0 mm
05:21 PM 69.2°F20.7°C 56.1°F13.4°C 63% 11.0 mph NNW17.7 kmh NNW 13.0 mph20.9 kmh 30.25 in1024.4 mb 0.00 in0.0 mm 0.00 in0.0 mm 0.00 in0.0 mm
05:22 PM 69.1°F20.6°C 56.0°F13.3°C 63% 12.0 mph NNW19.3 kmh NNW 13.0 mph20.9 kmh 30.25 in1024.4 mb 0.00 in0.0 mm 0.00 in0.0 mm 0.00 in0.0 mm
05:23 PM 69.0°F20.6°C 56.3°F13.5°C 64% 12.0 mph NNW19.3 kmh NNW 13.0 mph20.9 kmh 30.25 in1024.4 mb 0.00 in0.0 mm 0.00 in0.0 mm 0.00 in0.0 mm
05:24 PM 68.9°F20.5°C 56.6°F13.7°C 65% 12.0 mph NNW19.3 kmh NNW 13.0 mph20.9 kmh 30.25 in1024.4 mb 0.00 in0.0 mm 0.00 in0.0 mm 0.00 in0.0 mm
05:25 PM 68.8°F20.4°C 56.5°F13.6°C 65% 11.1 mph NNW17.9 kmh NNW 12.0 mph19.3 kmh 30.25 in1024.4 mb 0.00 in0.0 mm 0.00 in0.0 mm 0.00 in0.0 mm
05:26 PM 68.8°F20.4°C 56.5°F13.6°C 65% 11.1 mph NNW17.9 kmh NNW 13.0 mph20.9 kmh 30.25 in1024.4 mb 0.00 in0.0 mm 0.00 in0.0 mm 0.00 in0.0 mm
05:27 PM 68.8°F20.4°C 56.1°F13.4°C 64% 11.5 mph NNW18.5 kmh NNW 13.0 mph20.9 kmh 30.25 in1024.4 mb 0.00 in0.0 mm 0.00 in0.0 mm 0.00 in0.0 mm
05:28 PM 68.9°F20.5°C 56.6°F13.7°C 65% 10.9 mph NNW17.5 kmh NNW 13.0 mph20.9 kmh 30.25 in1024.4 mb 0.00 in0.0 mm 0.00 in0.0 mm 0.00 in0.0 mm
05:29 PM 68.9°F20.5°C 56.2°F13.4°C 64% 11.0 mph NNW17.7 kmh NNW 13.0 mph20.9 kmh 30.25 in1024.4 mb 0.00 in0.0 mm 0.00 in0.0 mm 0.00 in0.0 mm
05:30 PM 68.9°F20.5°C 55.8°F13.2°C 63% 12.0 mph NNW19.3 kmh NNW 13.0 mph20.9 kmh 30.25 in1024.4 mb 0.00 in0.0 mm 0.00 in0.0 mm 0.00 in0.0 mm
05:31 PM 68.9°F20.5°C 55.8°F13.2°C 63% 12.0 mph NNW19.3 kmh NNW 13.0 mph20.9 kmh 30.25 in1024.4 mb 0.00 in0.0 mm 0.00 in0.0 mm 0.00 in0.0 mm
05:32 PM 68.8°F20.4°C 55.7°F13.2°C 63% 11.2 mph NNW18.0 kmh NNW 12.0 mph19.3 kmh 30.25 in1024.4 mb 0.00 in0.0 mm 0.00 in0.0 mm 0.00 in0.0 mm
05:33 PM 68.8°F20.4°C 55.2°F12.9°C 62% 11.9 mph NNW19.2 kmh NNW 13.0 mph20.9 kmh 30.25 in1024.4 mb 0.00 in0.0 mm 0.00 in0.0 mm 0.00 in0.0 mm
05:34 PM 68.8°F20.4°C 55.7°F13.2°C 63% 12.4 mph NNW20.0 kmh NNW 14.0 mph22.5 kmh 30.25 in1024.4 mb 0.00 in0.0 mm 0.00 in0.0 mm 0.00 in0.0 mm
05:35 PM 68.8°F20.4°C 55.7°F13.2°C 63% 11.8 mph NNW19.0 kmh NNW 14.0 mph22.5 kmh 30.25 in1024.4 mb 0.00 in0.0 mm 0.00 in0.0 mm 0.00 in0.0 mm
05:36 PM 68.7°F20.4°C 55.1°F12.8°C 62% 12.0 mph NNW19.3 kmh NNW 14.0 mph22.5 kmh 30.25 in1024.4 mb 0.00 in0.0 mm 0.00 in0.0 mm 0.00 in0.0 mm
05:37 PM 68.7°F20.4°C 56.4°F13.6°C 65% 12.4 mph NNW20.0 kmh NNW 14.0 mph22.5 kmh 30.25 in1024.4 mb 0.00 in0.0 mm 0.00 in0.0 mm 0.00 in0.0 mm
05:38 PM 68.5°F20.3°C 56.3°F13.5°C 65% 13.3 mph NNW21.4 kmh NNW 15.0 mph24.1 kmh 30.25 in1024.4 mb 0.00 in0.0 mm 0.00 in0.0 mm 0.00 in0.0 mm
05:39 PM 68.4°F20.2°C 56.2°F13.4°C 65% 13.9 mph NNW22.4 kmh NNW 15.0 mph24.1 kmh 30.25 in1024.4 mb 0.00 in0.0 mm 0.00 in0.0 mm 0.00 in0.0 mm
05:40 PM 68.3°F20.2°C 56.5°F13.6°C 66% 13.0 mph NNW20.9 kmh NNW 14.0 mph22.5 kmh 30.25 in1024.4 mb 0.00 in0.0 mm 0.00 in0.0 mm 0.00 in0.0 mm
05:41 PM 68.3°F20.2°C 56.9°F13.8°C 67% 14.0 mph NNW22.5 kmh NNW 15.0 mph24.1 kmh 30.25 in1024.4 mb 0.00 in0.0 mm 0.00 in0.0 mm 0.00 in0.0 mm
05:42 PM 68.4°F20.2°C 56.6°F13.7°C 66% 13.0 mph NNW20.9 kmh NNW 15.0 mph24.1 kmh 30.25 in1024.4 mb 0.00 in0.0 mm 0.00 in0.0 mm 0.00 in0.0 mm
05:43 PM 68.4°F20.2°C 56.6°F13.7°C 66% 13.0 mph NNW20.9 kmh NNW 15.0 mph24.1 kmh 30.25 in1024.4 mb 0.00 in0.0 mm 0.00 in0.0 mm 0.00 in0.0 mm
05:44 PM 68.4°F20.2°C 56.6°F13.7°C 66% 12.0 mph NNW19.3 kmh NNW 14.0 mph22.5 kmh 30.25 in1024.4 mb 0.00 in0.0 mm 0.00 in0.0 mm 0.00 in0.0 mm
05:45 PM 68.4°F20.2°C 56.2°F13.4°C 65% 12.0 mph NNW19.3 kmh NNW 14.0 mph22.5 kmh 30.25 in1024.4 mb 0.00 in0.0 mm 0.00 in0.0 mm 0.00 in0.0 mm
05:46 PM 68.4°F20.2°C 56.2°F13.4°C 65% 12.8 mph NNW20.6 kmh NNW 13.0 mph20.9 kmh 30.25 in1024.4 mb 0.00 in0.0 mm 0.00 in0.0 mm 0.00 in0.0 mm
05:47 PM 68.4°F20.2°C 56.2°F13.4°C 65% 12.4 mph N20.0 kmh N 14.0 mph22.5 kmh 30.25 in1024.4 mb 0.00 in0.0 mm 0.00 in0.0 mm 0.00 in0.0 mm
05:48 PM 68.4°F20.2°C 57.0°F13.9°C 67% 13.0 mph NNW20.9 kmh NNW 14.0 mph22.5 kmh 30.25 in1024.4 mb 0.00 in0.0 mm 0.00 in0.0 mm 0.00 in0.0 mm
05:49 PM 68.2°F20.1°C 56.8°F13.8°C 67% 13.0 mph NNW20.9 kmh NNW 14.0 mph22.5 kmh 30.25 in1024.4 mb 0.00 in0.0 mm 0.00 in0.0 mm 0.00 in0.0 mm
05:50 PM 68.3°F20.2°C 56.9°F13.8°C 67% 11.7 mph N18.8 kmh N 12.0 mph19.3 kmh 30.25 in1024.4 mb 0.00 in0.0 mm 0.00 in0.0 mm 0.00 in0.0 mm
05:51 PM 68.2°F20.1°C 57.2°F14.0°C 68% 11.5 mph NNW18.5 kmh NNW 14.0 mph22.5 kmh 30.25 in1024.4 mb 0.00 in0.0 mm 0.00 in0.0 mm 0.00 in0.0 mm
05:52 PM 68.2°F20.1°C 56.8°F13.8°C 67% 12.9 mph N20.8 kmh N 15.0 mph24.1 kmh 30.25 in1024.4 mb 0.00 in0.0 mm 0.00 in0.0 mm 0.00 in0.0 mm
05:53 PM 68.2°F20.1°C 56.8°F13.8°C 67% 11.8 mph N19.0 kmh N 15.0 mph24.1 kmh 30.25 in1024.4 mb 0.00 in0.0 mm 0.00 in0.0 mm 0.00 in0.0 mm
05:54 PM 68.2°F20.1°C 56.8°F13.8°C 67% 13.0 mph NNW20.9 kmh NNW 16.0 mph25.7 kmh 30.25 in1024.4 mb 0.00 in0.0 mm 0.00 in0.0 mm 0.00 in0.0 mm
05:55 PM 68.2°F20.1°C 57.2°F14.0°C 68% 13.0 mph NNW20.9 kmh NNW 14.0 mph22.5 kmh 30.25 in1024.4 mb 0.00 in0.0 mm 0.00 in0.0 mm 0.00 in0.0 mm
05:56 PM 68.3°F20.2°C 57.3°F14.1°C 68% 12.0 mph NNW19.3 kmh NNW 15.0 mph24.1 kmh 30.25 in1024.4 mb 0.00 in0.0 mm 0.00 in0.0 mm 0.00 in0.0 mm
05:57 PM 68.3°F20.2°C 57.3°F14.1°C 68% 12.0 mph NNW19.3 kmh NNW 14.0 mph22.5 kmh 30.25 in1024.4 mb 0.00 in0.0 mm 0.00 in0.0 mm 0.00 in0.0 mm
05:58 PM 68.4°F20.2°C 58.2°F14.6°C 70% 11.0 mph NNW17.7 kmh NNW 13.0 mph20.9 kmh 30.25 in1024.4 mb 0.00 in0.0 mm 0.00 in0.0 mm 0.00 in0.0 mm
05:59 PM 68.3°F20.2°C 58.1°F14.5°C 70% 13.0 mph N20.9 kmh N 15.0 mph24.1 kmh 30.25 in1024.4 mb 0.00 in0.0 mm 0.00 in0.0 mm 0.00 in0.0 mm
06:00 PM 68.2°F20.1°C 58.0°F14.4°C 70% 12.0 mph NNW19.3 kmh NNW 15.0 mph24.1 kmh 30.25 in1024.4 mb 0.00 in0.0 mm 0.00 in0.0 mm 0.00 in0.0 mm
06:01 PM 68.2°F20.1°C 57.6°F14.2°C 69% 13.0 mph NNW20.9 kmh NNW 15.0 mph24.1 kmh 30.25 in1024.4 mb 0.00 in0.0 mm 0.00 in0.0 mm 0.00 in0.0 mm
06:02 PM 68.1°F20.1°C 57.5°F14.2°C 69% 12.0 mph NNW19.3 kmh NNW 14.0 mph22.5 kmh 30.25 in1024.4 mb 0.00 in0.0 mm 0.00 in0.0 mm 0.00 in0.0 mm
06:03 PM 68.1°F20.1°C 57.5°F14.2°C 69% 12.0 mph NNW19.3 kmh NNW 16.0 mph25.7 kmh 30.25 in1024.4 mb 0.00 in0.0 mm 0.00 in0.0 mm 0.00 in0.0 mm
06:04 PM 67.9°F19.9°C 57.3°F14.1°C 69% 14.0 mph NNW22.5 kmh NNW 16.0 mph25.7 kmh 30.25 in1024.4 mb 0.00 in0.0 mm 0.00 in0.0 mm 0.00 in0.0 mm
06:05 PM 67.8°F19.9°C 57.2°F14.0°C 69% 14.0 mph NNW22.5 kmh NNW 16.0 mph25.7 kmh 30.25 in1024.4 mb 0.00 in0.0 mm 0.00 in0.0 mm 0.00 in0.0 mm
06:06 PM 67.8°F19.9°C 57.7°F14.3°C 70% 14.0 mph NNW22.5 kmh NNW 15.0 mph24.1 kmh 30.25 in1024.4 mb 0.00 in0.0 mm 0.00 in0.0 mm 0.00 in0.0 mm
06:07 PM 67.9°F19.9°C 57.7°F14.3°C 70% 12.0 mph NNW19.3 kmh NNW 14.0 mph22.5 kmh 30.25 in1024.4 mb 0.00 in0.0 mm 0.00 in0.0 mm 0.00 in0.0 mm
06:08 PM 67.9°F19.9°C 58.1°F14.5°C 71% 12.6 mph N20.3 kmh N 17.0 mph27.4 kmh 30.25 in1024.4 mb 0.00 in0.0 mm 0.00 in0.0 mm 0.00 in0.0 mm
06:09 PM 67.9°F19.9°C 57.7°F14.3°C 70% 15.0 mph NNW24.1 kmh NNW 16.0 mph25.7 kmh 30.25 in1024.4 mb 0.00 in0.0 mm 0.00 in0.0 mm 0.00 in0.0 mm
06:10 PM 67.8°F19.9°C 57.7°F14.3°C 70% 13.0 mph NNW20.9 kmh NNW 17.0 mph27.4 kmh 30.25 in1024.4 mb 0.00 in0.0 mm 0.00 in0.0 mm 0.00 in0.0 mm
06:11 PM 67.7°F19.8°C 57.6°F14.2°C 70% 12.9 mph NNW20.8 kmh NNW 15.0 mph24.1 kmh 30.25 in1024.4 mb 0.00 in0.0 mm 0.00 in0.0 mm 0.00 in0.0 mm
06:12 PM 67.7°F19.8°C 57.9°F14.4°C 71% 12.4 mph NNW20.0 kmh NNW 15.0 mph24.1 kmh 30.25 in1024.4 mb 0.00 in0.0 mm 0.00 in0.0 mm 0.00 in0.0 mm
06:13 PM 67.6°F19.8°C 57.9°F14.4°C 71% 13.9 mph NNW22.4 kmh NNW 16.0 mph25.7 kmh 30.25 in1024.4 mb 0.00 in0.0 mm 0.00 in0.0 mm 0.00 in0.0 mm
06:14 PM 67.5°F19.7°C 57.8°F14.3°C 71% 11.7 mph NNW18.8 kmh NNW 16.0 mph25.7 kmh 30.25 in1024.4 mb 0.00 in0.0 mm 0.00 in0.0 mm 0.00 in0.0 mm
06:15 PM 67.6°F19.8°C 58.2°F14.6°C 72% 11.0 mph NNW17.7 kmh NNW 14.0 mph22.5 kmh 30.25 in1024.4 mb 0.00 in0.0 mm 0.00 in0.0 mm 0.00 in0.0 mm
06:16 PM 67.5°F19.7°C 58.1°F14.5°C 72% 12.0 mph NNW19.3 kmh NNW 14.0 mph22.5 kmh 30.25 in1024.4 mb 0.00 in0.0 mm 0.00 in0.0 mm 0.00 in0.0 mm
06:17 PM 67.6°F19.8°C 58.2°F14.6°C 72% 12.0 mph NNW19.3 kmh NNW 15.0 mph24.1 kmh 30.25 in1024.4 mb 0.00 in0.0 mm 0.00 in0.0 mm 0.00 in0.0 mm
06:18 PM 67.5°F19.7°C 57.8°F14.3°C 71% 12.6 mph NNW20.3 kmh NNW 14.0 mph22.5 kmh 30.25 in1024.4 mb 0.00 in0.0 mm 0.00 in0.0 mm 0.00 in0.0 mm
06:19 PM 67.4°F19.7°C 57.7°F14.3°C 71% 13.0 mph NNW20.9 kmh NNW 15.0 mph24.1 kmh 30.25 in1024.4 mb 0.00 in0.0 mm 0.00 in0.0 mm 0.00 in0.0 mm
06:20 PM 67.4°F19.7°C 58.1°F14.5°C 72% 12.0 mph NNW19.3 kmh NNW 13.0 mph20.9 kmh 30.25 in1024.4 mb 0.00 in0.0 mm 0.00 in0.0 mm 0.00 in0.0 mm
06:21 PM 67.3°F19.6°C 57.6°F14.2°C 71% 12.2 mph NW19.6 kmh NW 13.0 mph20.9 kmh 30.25 in1024.4 mb 0.00 in0.0 mm 0.00 in0.0 mm 0.00 in0.0 mm
06:22 PM 67.0°F19.4°C 57.3°F14.1°C 71% 11.4 mph NW18.3 kmh NW 13.0 mph20.9 kmh 30.25 in1024.4 mb 0.00 in0.0 mm 0.00 in0.0 mm 0.00 in0.0 mm
06:23 PM 66.9°F19.4°C 57.2°F14.0°C 71% 9.0 mph NW14.5 kmh NW 12.0 mph19.3 kmh 30.25 in1024.4 mb 0.00 in0.0 mm 0.00 in0.0 mm 0.00 in0.0 mm
06:24 PM 66.9°F19.4°C 57.6°F14.2°C 72% 5.0 mph NNW8.0 kmh NNW 6.0 mph9.7 kmh 30.25 in1024.4 mb 0.00 in0.0 mm 0.00 in0.0 mm 0.00 in0.0 mm
06:25 PM 67.0°F19.4°C 57.3°F14.1°C 71% 4.0 mph NNW6.4 kmh NNW 6.0 mph9.7 kmh 30.25 in1024.4 mb 0.00 in0.0 mm 0.00 in0.0 mm 0.00 in0.0 mm
06:26 PM 67.1°F19.5°C 57.0°F13.9°C 70% 6.0 mph NNW9.7 kmh NNW 9.0 mph14.5 kmh 30.25 in1024.4 mb 0.00 in0.0 mm 0.00 in0.0 mm 0.00 in0.0 mm
06:27 PM 67.3°F19.6°C 56.8°F13.8°C 69% 9.1 mph NW14.6 kmh NW 10.0 mph16.1 kmh 30.25 in1024.4 mb 0.00 in0.0 mm 0.00 in0.0 mm 0.00 in0.0 mm
06:28 PM 67.3°F19.6°C 57.2°F14.0°C 70% 8.0 mph NW12.9 kmh NW 10.0 mph16.1 kmh 30.25 in1024.4 mb 0.00 in0.0 mm 0.00 in0.0 mm 0.00 in0.0 mm
06:29 PM 67.4°F19.7°C 56.5°F13.6°C 68% 7.0 mph NW11.3 kmh NW 8.0 mph12.9 kmh 30.25 in1024.4 mb 0.00 in0.0 mm 0.00 in0.0 mm 0.00 in0.0 mm
06:30 PM 67.4°F19.7°C 56.5°F13.6°C 68% 9.0 mph NW14.5 kmh NW 10.0 mph16.1 kmh 30.25 in1024.4 mb 0.00 in0.0 mm 0.00 in0.0 mm 0.00 in0.0 mm
06:31 PM 67.4°F19.7°C 56.5°F13.6°C 68% 10.0 mph NNW16.1 kmh NNW 12.0 mph19.3 kmh 30.25 in1024.4 mb 0.00 in0.0 mm 0.00 in0.0 mm 0.00 in0.0 mm
06:32 PM 67.4°F19.7°C 56.5°F13.6°C 68% 8.0 mph NNW12.9 kmh NNW 10.0 mph16.1 kmh 30.25 in1024.4 mb 0.00 in0.0 mm 0.00 in0.0 mm 0.00 in0.0 mm
06:33 PM 67.4°F19.7°C 55.6°F13.1°C 66% 8.0 mph 12.9 kmh 9.0 mph14.5 kmh 30.25 in1024.4 mb 0.00 in0.0 mm 0.00 in0.0 mm 0.00 in0.0 mm
06:34 PM 67.6°F19.8°C 55.4°F13.0°C 65% 5.0 mph 8.0 kmh 8.0 mph12.9 kmh 30.25 in1024.4 mb 0.00 in0.0 mm 0.00 in0.0 mm 0.00 in0.0 mm
06:35 PM 67.8°F19.9°C 55.6°F13.1°C 65% 2.9 mph NNE4.7 kmh NNE 4.0 mph6.4 kmh 30.25 in1024.4 mb 0.00 in0.0 mm 0.00 in0.0 mm 0.00 in0.0 mm
06:36 PM 68.1°F20.1°C 55.5°F13.1°C 64% 3.0 mph 4.8 kmh 5.0 mph8.0 kmh 30.25 in1024.4 mb 0.00 in0.0 mm 0.00 in0.0 mm 0.00 in0.0 mm
06:37 PM 68.2°F20.1°C 56.0°F13.3°C 65% 4.0 mph 6.4 kmh 6.0 mph9.7 kmh 30.25 in1024.4 mb 0.00 in0.0 mm 0.00 in0.0 mm 0.00 in0.0 mm
06:38 PM 68.4°F20.2°C 56.2°F13.4°C 65% 4.6 mph NW7.4 kmh NW 7.0 mph11.3 kmh 30.25 in1024.4 mb 0.00 in0.0 mm 0.00 in0.0 mm 0.00 in0.0 mm
06:39 PM 68.5°F20.3°C 55.8°F13.2°C 64% 5.0 mph NW8.0 kmh NW 6.0 mph9.7 kmh 30.25 in1024.4 mb 0.00 in0.0 mm 0.00 in0.0 mm 0.00 in0.0 mm
06:40 PM 68.5°F20.3°C 56.3°F13.5°C 65% 8.0 mph NW12.9 kmh NW 10.0 mph16.1 kmh 30.25 in1024.4 mb 0.00 in0.0 mm 0.00 in0.0 mm 0.00 in0.0 mm
06:41 PM 68.4°F20.2°C 57.0°F13.9°C 67% 6.0 mph NW9.7 kmh NW 8.0 mph12.9 kmh 30.25 in1024.4 mb 0.00 in0.0 mm 0.00 in0.0 mm 0.00 in0.0 mm
06:42 PM 68.4°F20.2°C 54.9°F12.7°C 62% 5.0 mph WNW8.0 kmh WNW 5.0 mph8.0 kmh 30.25 in1024.4 mb 0.00 in0.0 mm 0.00 in0.0 mm 0.00 in0.0 mm
06:43 PM 68.4°F20.2°C 53.5°F11.9°C 59% 2.6 mph WSW4.2 kmh WSW 3.0 mph4.8 kmh 30.25 in1024.4 mb 0.00 in0.0 mm 0.00 in0.0 mm 0.00 in0.0 mm
06:44 PM 68.6°F20.3°C 53.7°F12.1°C 59% 3.0 mph WNW4.8 kmh WNW 4.0 mph6.4 kmh 30.25 in1024.4 mb 0.00 in0.0 mm 0.00 in0.0 mm 0.00 in0.0 mm
06:45 PM 68.6°F20.3°C 54.6°F12.6°C 61% 7.0 mph WNW11.3 kmh WNW 9.0 mph14.5 kmh 30.25 in1024.4 mb 0.00 in0.0 mm 0.00 in0.0 mm 0.00 in0.0 mm
06:46 PM 68.5°F20.3°C 55.8°F13.2°C 64% 8.0 mph WNW12.9 kmh WNW 8.0 mph12.9 kmh 30.25 in1024.4 mb 0.00 in0.0 mm 0.00 in0.0 mm 0.00 in0.0 mm
06:47 PM 68.3°F20.2°C 55.6°F13.1°C 64% 7.0 mph WNW11.3 kmh WNW 8.0 mph12.9 kmh 30.25 in1024.4 mb 0.00 in0.0 mm 0.00 in0.0 mm 0.00 in0.0 mm
06:48 PM 68.4°F20.2°C 56.2°F13.4°C 65% 6.0 mph WNW9.7 kmh WNW 9.0 mph14.5 kmh 30.25 in1024.4 mb 0.00 in0.0 mm 0.00 in0.0 mm 0.00 in0.0 mm
06:49 PM 68.4°F20.2°C 55.7°F13.2°C 64% 4.0 mph W6.4 kmh W 4.0 mph6.4 kmh 30.25 in1024.4 mb 0.00 in0.0 mm 0.00 in0.0 mm 0.00 in0.0 mm
06:50 PM 68.4°F20.2°C 54.9°F12.7°C 62% 4.0 mph W6.4 kmh W 7.0 mph11.3 kmh 30.25 in1024.4 mb 0.00 in0.0 mm 0.00 in0.0 mm 0.00 in0.0 mm
06:51 PM 68.5°F20.3°C 53.6°F12.0°C 59% 5.0 mph WSW8.0 kmh WSW 7.0 mph11.3 kmh 30.25 in1024.4 mb 0.00 in0.0 mm 0.00 in0.0 mm 0.00 in0.0 mm
06:52 PM 68.6°F20.3°C 53.7°F12.1°C 59% 2.4 mph WSW3.9 kmh WSW 3.0 mph4.8 kmh 30.25 in1024.4 mb 0.00 in0.0 mm 0.00 in0.0 mm 0.00 in0.0 mm
06:53 PM 68.8°F20.4°C 53.4°F11.9°C 58% 5.4 mph W8.7 kmh W 8.0 mph12.9 kmh 30.25 in1024.4 mb 0.00 in0.0 mm 0.00 in0.0 mm 0.00 in0.0 mm
06:54 PM 68.9°F20.5°C 54.4°F12.4°C 60% 6.0 mph WNW9.7 kmh WNW 9.0 mph14.5 kmh 30.25 in1024.4 mb 0.00 in0.0 mm 0.00 in0.0 mm 0.00 in0.0 mm
06:55 PM 68.9°F20.5°C 53.5°F11.9°C 58% 5.0 mph WNW8.0 kmh WNW 8.0 mph12.9 kmh 30.25 in1024.4 mb 0.00 in0.0 mm 0.00 in0.0 mm 0.00 in0.0 mm
06:56 PM 69.0°F20.6°C 52.6°F11.4°C 56% 6.3 mph WSW10.1 kmh WSW 9.0 mph14.5 kmh 30.25 in1024.4 mb 0.00 in0.0 mm 0.00 in0.0 mm 0.00 in0.0 mm
06:57 PM 69.1°F20.6°C 53.7°F12.1°C 58% 5.5 mph WSW8.9 kmh WSW 9.0 mph14.5 kmh 30.25 in1024.4 mb 0.00 in0.0 mm 0.00 in0.0 mm 0.00 in0.0 mm
06:58 PM 69.1°F20.6°C 51.7°F10.9°C 54% 5.2 mph WSW8.4 kmh WSW 7.0 mph11.3 kmh 30.25 in1024.4 mb 0.00 in0.0 mm 0.00 in0.0 mm 0.00 in0.0 mm
06:59 PM 69.3°F20.7°C 52.4°F11.3°C 55% 5.0 mph W8.0 kmh W 6.0 mph9.7 kmh 30.25 in1024.4 mb 0.00 in0.0 mm 0.00 in0.0 mm 0.00 in0.0 mm
07:00 PM 69.3°F20.7°C 53.4°F11.9°C 57% 5.0 mph WNW8.0 kmh WNW 7.0 mph11.3 kmh 30.25 in1024.4 mb 0.00 in0.0 mm 0.00 in0.0 mm 0.00 in0.0 mm
07:01 PM 69.4°F20.8°C 54.4°F12.4°C 59% 4.0 mph WSW6.4 kmh WSW 5.0 mph8.0 kmh 30.25 in1024.4 mb 0.00 in0.0 mm 0.00 in0.0 mm 0.00 in0.0 mm
07:02 PM 69.4°F20.8°C 52.5°F11.4°C 55% 4.0 mph WSW6.4 kmh WSW 7.0 mph11.3 kmh 30.25 in1024.4 mb 0.00 in0.0 mm 0.00 in0.0 mm 0.00 in0.0 mm
07:03 PM 69.4°F20.8°C 53.0°F11.7°C 56% 3.0 mph WNW4.8 kmh WNW 5.0 mph8.0 kmh 30.25 in1024.4 mb 0.00 in0.0 mm 0.00 in0.0 mm 0.00 in0.0 mm
07:04 PM 69.5°F20.8°C 53.1°F11.7°C 56% 2.0 mph WNW3.2 kmh WNW 4.0 mph6.4 kmh 30.25 in1024.4 mb 0.00 in0.0 mm 0.00 in0.0 mm 0.00 in0.0 mm
07:05 PM 69.5°F20.8°C 53.1°F11.7°C 56% 2.0 mph SW3.2 kmh SW 4.0 mph6.4 kmh 30.25 in1024.4 mb 0.00 in0.0 mm 0.00 in0.0 mm 0.00 in0.0 mm
07:06 PM 69.5°F20.8°C 53.1°F11.7°C 56% 2.0 mph SW3.2 kmh SW 3.0 mph4.8 kmh 30.25 in1024.4 mb 0.00 in0.0 mm 0.00 in0.0 mm 0.00 in0.0 mm
07:07 PM 69.6°F20.9°C 54.6°F12.6°C 59% 4.0 mph WNW6.4 kmh WNW 5.0 mph8.0 kmh 30.25 in1024.4 mb 0.00 in0.0 mm 0.00 in0.0 mm 0.00 in0.0 mm
07:08 PM 69.5°F20.8°C 54.5°F12.5°C 59% 3.0 mph WNW4.8 kmh WNW 4.0 mph6.4 kmh 30.25 in1024.4 mb 0.00 in0.0 mm 0.00 in0.0 mm 0.00 in0.0 mm
07:09 PM 69.4°F20.8°C 54.4°F12.4°C 59% 3.0 mph WNW4.8 kmh WNW 5.0 mph8.0 kmh 30.25 in1024.4 mb 0.00 in0.0 mm 0.00 in0.0 mm 0.00 in0.0 mm
07:10 PM 69.4°F20.8°C 54.4°F12.4°C 59% 3.0 mph NW4.8 kmh NW 5.0 mph8.0 kmh 30.25 in1024.4 mb 0.00 in0.0 mm 0.00 in0.0 mm 0.00 in0.0 mm
07:11 PM 69.2°F20.7°C 54.7°F12.6°C 60% 4.0 mph SW6.4 kmh SW 5.0 mph8.0 kmh 30.25 in1024.4 mb 0.00 in0.0 mm 0.00 in0.0 mm 0.00 in0.0 mm
07:12 PM 69.1°F20.6°C 54.6°F12.6°C 60% 5.0 mph WNW8.0 kmh WNW 8.0 mph12.9 kmh 30.25 in1024.4 mb 0.00 in0.0 mm 0.00 in0.0 mm 0.00 in0.0 mm
07:13 PM 68.9°F20.5°C 53.0°F11.7°C 57% 6.0 mph W9.7 kmh W 10.0 mph16.1 kmh 30.25 in1024.4 mb 0.00 in0.0 mm 0.00 in0.0 mm 0.00 in0.0 mm
07:14 PM 68.9°F20.5°C 52.5°F11.4°C 56% 1.0 mph WSW1.6 kmh WSW 3.0 mph4.8 kmh 30.25 in1024.4 mb 0.00 in0.0 mm 0.00 in0.0 mm 0.00 in0.0 mm
07:15 PM 68.9°F20.5°C 53.0°F11.7°C 57% 2.0 mph WSW3.2 kmh WSW 3.0 mph4.8 kmh 30.25 in1024.4 mb 0.00 in0.0 mm 0.00 in0.0 mm 0.00 in0.0 mm
07:16 PM 68.9°F20.5°C 53.0°F11.7°C 57% Calm Calm 1.0 mph1.6 kmh 30.25 in1024.4 mb 0.00 in0.0 mm 0.00 in0.0 mm 0.00 in0.0 mm
07:17 PM 69.0°F20.6°C 53.6°F12.0°C 58% 2.0 mph WSW3.2 kmh WSW 4.0 mph6.4 kmh 30.25 in1024.4 mb 0.00 in0.0 mm 0.00 in0.0 mm 0.00 in0.0 mm
07:18 PM 69.1°F20.6°C 55.1°F12.8°C 61% 4.0 mph W6.4 kmh W 7.0 mph11.3 kmh 30.25 in1024.4 mb 0.00 in0.0 mm 0.00 in0.0 mm 0.00 in0.0 mm
07:19 PM 69.0°F20.6°C 55.9°F13.3°C 63% 4.0 mph W6.4 kmh W 6.0 mph9.7 kmh 30.25 in1024.4 mb 0.00 in0.0 mm 0.00 in0.0 mm 0.00 in0.0 mm
07:20 PM 68.9°F20.5°C 56.2°F13.4°C 64% 3.0 mph W4.8 kmh W 3.0 mph4.8 kmh 30.25 in1024.4 mb 0.00 in0.0 mm 0.00 in0.0 mm 0.00 in0.0 mm
07:21 PM 68.8°F20.4°C 55.7°F13.2°C 63% 3.0 mph W4.8 kmh W 6.0 mph9.7 kmh 30.25 in1024.4 mb 0.00 in0.0 mm 0.00 in0.0 mm 0.00 in0.0 mm
07:22 PM 68.6°F20.3°C 55.9°F13.3°C 64% 5.0 mph WNW8.0 kmh WNW 8.0 mph12.9 kmh 30.25 in1024.4 mb 0.00 in0.0 mm 0.00 in0.0 mm 0.00 in0.0 mm
07:23 PM 68.4°F20.2°C 55.3°F12.9°C 63% 5.0 mph WNW8.0 kmh WNW 7.0 mph11.3 kmh 30.25 in1024.4 mb 0.00 in0.0 mm 0.00 in0.0 mm 0.00 in0.0 mm
07:24 PM 68.2°F20.1°C 55.1°F12.8°C 63% 3.0 mph WNW4.8 kmh WNW 6.0 mph9.7 kmh 30.25 in1024.4 mb 0.00 in0.0 mm 0.00 in0.0 mm 0.00 in0.0 mm
07:25 PM 68.1°F20.1°C 55.5°F13.1°C 64% 7.0 mph W11.3 kmh W 8.0 mph12.9 kmh 30.25 in1024.4 mb 0.00 in0.0 mm 0.00 in0.0 mm 0.00 in0.0 mm
07:26 PM 67.9°F19.9°C 55.3°F12.9°C 64% 4.0 mph W6.4 kmh W 6.0 mph9.7 kmh 30.25 in1024.4 mb 0.00 in0.0 mm 0.00 in0.0 mm 0.00 in0.0 mm
07:27 PM 67.7°F19.8°C 55.5°F13.1°C 65% 3.0 mph WNW4.8 kmh WNW 4.0 mph6.4 kmh 30.25 in1024.4 mb 0.00 in0.0 mm 0.00 in0.0 mm 0.00 in0.0 mm
07:28 PM 67.7°F19.8°C 55.5°F13.1°C 65% 6.0 mph WNW9.7 kmh WNW 7.0 mph11.3 kmh 30.25 in1024.4 mb 0.00 in0.0 mm 0.00 in0.0 mm 0.00 in0.0 mm
07:29 PM 67.6°F19.8°C 55.0°F12.8°C 64% 6.0 mph WNW9.7 kmh WNW 8.0 mph12.9 kmh 30.25 in1024.4 mb 0.00 in0.0 mm 0.00 in0.0 mm 0.00 in0.0 mm
07:30 PM 67.6°F19.8°C 54.5°F12.5°C 63% 7.0 mph WNW11.3 kmh WNW 8.0 mph12.9 kmh 30.25 in1024.4 mb 0.00 in0.0 mm 0.00 in0.0 mm 0.00 in0.0 mm
07:31 PM 67.5°F19.7°C 55.3°F12.9°C 65% 8.0 mph NW12.9 kmh NW 10.0 mph16.1 kmh 30.25 in1024.4 mb 0.00 in0.0 mm 0.00 in0.0 mm 0.00 in0.0 mm
07:32 PM 67.3°F19.6°C 55.5°F13.1°C 66% 7.0 mph NW11.3 kmh NW 8.0 mph12.9 kmh 30.25 in1024.4 mb 0.00 in0.0 mm 0.00 in0.0 mm 0.00 in0.0 mm
07:33 PM 67.1°F19.5°C 54.9°F12.7°C 65% 7.0 mph WNW11.3 kmh WNW 8.0 mph12.9 kmh 30.26 in1024.7 mb 0.00 in0.0 mm 0.00 in0.0 mm 0.00 in0.0 mm
07:34 PM 67.0°F19.4°C 54.8°F12.7°C 65% 4.0 mph WNW6.4 kmh WNW 5.0 mph8.0 kmh 30.25 in1024.4 mb 0.00 in0.0 mm 0.00 in0.0 mm 0.00 in0.0 mm
07:35 PM 66.9°F19.4°C 54.7°F12.6°C 65% 3.0 mph NW4.8 kmh NW 5.0 mph8.0 kmh 30.25 in1024.4 mb 0.00 in0.0 mm 0.00 in0.0 mm 0.00 in0.0 mm
07:36 PM 66.9°F19.4°C 54.3°F12.4°C 64% 3.0 mph NW4.8 kmh NW</